Air Quality Table

TIMESTAMP NO2 SO2 O3 PM10 PM2.5 CO TEMP HUM AIRPRES WS WD NO BENZENE
2023-06-04 14:00 10.33 µg/m3 0.04 µg/m3 71.28 µg/m3 13.13 µg/m3 7.8 µg/m3 0.21 mg/m3 22.13 °C 77.77 % 1,016.21 mbar 5.17 m/s 53.57 Deg 12.35 µg/m3 1.1 µg/m3
2023-06-04 13:00 12.3 µg/m3 0.05 µg/m3 70.41 µg/m3 16.84 µg/m3 8.72 µg/m3 0.22 mg/m3 22.01 °C 78.02 % 1,015.94 mbar 5.41 m/s 54.87 Deg 11.55 µg/m3 1.52 µg/m3
2023-06-04 12:00 8.68 µg/m3 0.02 µg/m3 69.02 µg/m3 12.75 µg/m3 7.68 µg/m3 0.25 mg/m3 22.2 °C 76.3 % 1,016.29 mbar 5.08 m/s 52.22 Deg 13.35 µg/m3 1.68 µg/m3
2023-06-04 11:00 14.27 µg/m3 0.06 µg/m3 68.99 µg/m3 15.55 µg/m3 7.69 µg/m3 0.26 mg/m3 23.02 °C 67.3 % 1,016.53 mbar 3.81 m/s 105.18 Deg 15.32 µg/m3 1.63 µg/m3
2023-06-04 10:00 18.49 µg/m3 0.06 µg/m3 65.04 µg/m3 16.63 µg/m3 8.31 µg/m3 0.24 mg/m3 23.07 °C 65.74 % 1,016.56 mbar 2.61 m/s 137.37 Deg 14.92 µg/m3 1.42 µg/m3
2023-06-04 09:00 21.1 µg/m3 0.14 µg/m3 63.73 µg/m3 17.63 µg/m3 8.77 µg/m3 0.27 mg/m3 22.46 °C 71.35 % 1,016.47 mbar 2.92 m/s 121.27 Deg 15.03 µg/m3 1.89 µg/m3
2023-06-04 08:00 18.58 µg/m3 0.12 µg/m3 61.61 µg/m3 15.68 µg/m3 9.28 µg/m3 0.31 mg/m3 21.94 °C 75.36 % 1,015.98 mbar 2.5 m/s 152.63 Deg 12.24 µg/m3 1.47 µg/m3
2023-06-04 07:00 19.52 µg/m3 0.06 µg/m3 58.99 µg/m3 15.12 µg/m3 11.53 µg/m3 0.29 mg/m3 21.12 °C 80.49 % 1,015.43 mbar 2.53 m/s 121.37 Deg 10.67 µg/m3 1.68 µg/m3
2023-06-04 06:00 33.11 µg/m3 0.15 µg/m3 42.25 µg/m3 19.96 µg/m3 14.8 µg/m3 0.25 mg/m3 20.4 °C 83.61 % 1,015.23 mbar 1.3 m/s 65.62 Deg 13.7 µg/m3 1.84 µg/m3
2023-06-04 05:00 35.77 µg/m3 0.17 µg/m3 33.63 µg/m3 18.43 µg/m3 14.1 µg/m3 0.25 mg/m3 20.16 °C 84.65 % 1,015.23 mbar 0.95 m/s 65.83 Deg 11.87 µg/m3 1.52 µg/m3
2023-06-04 04:00 32.79 µg/m3 0.03 µg/m3 34.72 µg/m3 17.85 µg/m3 13.67 µg/m3 0.21 mg/m3 20.19 °C 83.71 % 1,015.19 mbar 0.88 m/s 62.5 Deg 6.93 µg/m3 1.94 µg/m3
2023-06-04 03:00 39.69 µg/m3 0.1 µg/m3 28.27 µg/m3 18.72 µg/m3 14.3 µg/m3 0.26 mg/m3 20.35 °C 82.46 % 1,015.27 mbar 0.79 m/s 60.85 Deg 8.46 µg/m3 1.99 µg/m3
2023-06-04 02:00 29.25 µg/m3 0.07 µg/m3 35.67 µg/m3 21.24 µg/m3 15.68 µg/m3 0.25 mg/m3 20.59 °C 80.71 % 1,015.46 mbar 0.7 m/s 62.4 Deg 5.3 µg/m3 2.47 µg/m3
2023-06-04 01:00 37.29 µg/m3 0.23 µg/m3 36.52 µg/m3 33.92 µg/m3 24.72 µg/m3 0.32 mg/m3 20.79 °C 79.33 % 1,015.96 mbar 0.82 m/s 204.6 Deg 14.6 µg/m3 2.31 µg/m3
2023-06-04 00:00 31.24 µg/m3 0.16 µg/m3 47.92 µg/m3 51.12 µg/m3 40.73 µg/m3 0.31 mg/m3 21.01 °C 78.46 % 1,016.45 mbar 0.61 m/s 94.98 Deg 11.73 µg/m3 2.36 µg/m3
2023-06-03 23:00 27.06 µg/m3 0.22 µg/m3 57.93 µg/m3 21.11 µg/m3 14.55 µg/m3 0.36 mg/m3 20.95 °C 79.28 % 1,016.46 mbar 1.3 m/s 56.62 Deg 19.09 µg/m3 2.47 µg/m3
2023-06-03 22:00 18.9 µg/m3 0.16 µg/m3 69.83 µg/m3 18.19 µg/m3 12.91 µg/m3 0.31 mg/m3 21.01 °C 79.62 % 1,016.24 mbar 1.83 m/s 54.43 Deg 14.35 µg/m3 2.2 µg/m3
2023-06-03 21:00 24.91 µg/m3 0.26 µg/m3 62.36 µg/m3 21.52 µg/m3 15.03 µg/m3 0.34 mg/m3 21.2 °C 79.07 % 1,016.05 mbar 1.43 m/s 67.13 Deg 20.89 µg/m3 2.41 µg/m3
2023-06-03 20:00 27.28 µg/m3 0.23 µg/m3 64.78 µg/m3 18.78 µg/m3 13.11 µg/m3 0.43 mg/m3 21.22 °C 78.99 % 1,015.76 mbar 1.85 m/s 59.58 Deg 23.88 µg/m3 2.41 µg/m3
2023-06-03 19:00 31.97 µg/m3 0.3 µg/m3 64.31 µg/m3 18.67 µg/m3 13.06 µg/m3 0.45 mg/m3 21.52 °C 78.44 % 1,015.35 mbar 2.26 m/s 55.88 Deg 27.52 µg/m3 1.84 µg/m3
2023-06-03 18:00 21.02 µg/m3 0.08 µg/m3 65.15 µg/m3 25.09 µg/m3 10.51 µg/m3 0.29 mg/m3 22.22 °C 73.05 % 1,015.12 mbar 1.82 m/s 35.93 Deg 14.86 µg/m3 1.68 µg/m3
2023-06-03 17:00 20.99 µg/m3 0.15 µg/m3 65.73 µg/m3 30.38 µg/m3 11.6 µg/m3 0.29 mg/m3 22.73 °C 70.69 % 1,015.14 mbar 2.36 m/s 32.13 Deg 16.17 µg/m3 1.63 µg/m3
2023-06-03 16:00 18.74 µg/m3 0.09 µg/m3 70.18 µg/m3 28.16 µg/m3 10.95 µg/m3 0.27 mg/m3 22.9 °C 69.83 % 1,015.47 mbar 2.14 m/s 28.93 Deg 16.42 µg/m3 1.78 µg/m3
2023-06-03 15:00 26.04 µg/m3 0.15 µg/m3 71.5 µg/m3 25.52 µg/m3 10.76 µg/m3 0.3 mg/m3 22.46 °C 70.93 % 1,015.89 mbar 2.54 m/s 41.45 Deg 18.52 µg/m3 2.26 µg/m3
2023-06-03 14:00 15.62 µg/m3 0.19 µg/m3 74.29 µg/m3 28.23 µg/m3 11.28 µg/m3 0.33 mg/m3 22.81 °C 70.21 % 1,016.03 mbar 2.57 m/s 33.22 Deg 19.04 µg/m3 2.15 µg/m3
2023-06-03 13:00 26.28 µg/m3 0.09 µg/m3 74.52 µg/m3 35.4 µg/m3 12.07 µg/m3 0.27 mg/m3 22.64 °C 71.21 % 1,016.02 mbar 2.06 m/s 104.92 Deg 15.46 µg/m3 1.99 µg/m3
2023-06-03 12:00 23.55 µg/m3 0.15 µg/m3 71.37 µg/m3 43.91 µg/m3 14.06 µg/m3 0.32 mg/m3 22.58 °C 72.01 % 1,016.24 mbar 1.68 m/s 20.97 Deg 20.41 µg/m3 2.41 µg/m3
2023-06-03 11:00 31.93 µg/m3 0.21 µg/m3 67.75 µg/m3 54.59 µg/m3 17.98 µg/m3 0.35 mg/m3 22.23 °C 73.28 % 1,016.19 mbar 1.74 m/s 23.73 Deg 20.14 µg/m3 2.68 µg/m3
2023-06-03 10:00 37.8 µg/m3 0.22 µg/m3 61.01 µg/m3 40.88 µg/m3 16.33 µg/m3 0.32 mg/m3 21.83 °C 75.7 % 1,015.85 mbar 1.6 m/s 33 Deg 22.72 µg/m3 1.78 µg/m3
2023-06-03 09:00 18.4 µg/m3 0.06 µg/m3 66.6 µg/m3 21.71 µg/m3 9.44 µg/m3 0.24 mg/m3 22.72 °C 66.89 % 1,015.38 mbar 1.15 m/s 237.15 Deg 13.47 µg/m3 1.42 µg/m3
2023-06-03 08:00 21.86 µg/m3 0.05 µg/m3 60.82 µg/m3 24.97 µg/m3 11.97 µg/m3 0.24 mg/m3 21.79 °C 72.62 % 1,015.12 mbar 0.98 m/s 223.15 Deg 6.95 µg/m3 1.84 µg/m3
2023-06-03 07:00 39.16 µg/m3 0.12 µg/m3 41.22 µg/m3 20.99 µg/m3 14.78 µg/m3 0.31 mg/m3 20.95 °C 78.5 % 1,014.81 mbar 0.71 m/s 268.93 Deg 9.86 µg/m3 2.57 µg/m3
2023-06-03 06:00 36.43 µg/m3 0.07 µg/m3 28.82 µg/m3 29.2 µg/m3 22.37 µg/m3 0.34 mg/m3 19.76 °C 82.8 % 1,014.59 mbar 0.61 m/s 243.37 Deg 7.78 µg/m3 1.63 µg/m3
2023-06-03 05:00 24.65 µg/m3 0.06 µg/m3 35.38 µg/m3 17.3 µg/m3 13.44 µg/m3 0.22 mg/m3 19.51 °C 83.36 % 1,014.31 mbar 0.75 m/s 242.28 Deg 2.55 µg/m3 1.26 µg/m3
2023-06-03 04:00 13.12 µg/m3 -0.03 µg/m3 52.81 µg/m3 13.96 µg/m3 11.23 µg/m3 0.17 mg/m3 19.71 °C 82.4 % 1,013.96 mbar 0.82 m/s 229.13 Deg 0.23 µg/m3 1.31 µg/m3
2023-06-03 03:00 14.01 µg/m3 -0.06 µg/m3 50.78 µg/m3 14 µg/m3 11.13 µg/m3 0.23 mg/m3 19.91 °C 80.31 % 1,013.91 mbar 0.82 m/s 234.88 Deg 0.15 µg/m3 1.05 µg/m3
2023-06-03 02:00 13.86 µg/m3 -0.05 µg/m3 57.21 µg/m3 13.14 µg/m3 10.25 µg/m3 0.2 mg/m3 20.08 °C 79.8 % 1,013.95 mbar 0.77 m/s 243.32 Deg 0.18 µg/m3 1.36 µg/m3
2023-06-03 01:00 22.93 µg/m3 0.04 µg/m3 45.88 µg/m3 14.93 µg/m3 11.25 µg/m3 0.24 mg/m3 20.31 °C 79.8 % 1,014.12 mbar 0.91 m/s 233.78 Deg 3.22 µg/m3 1.26 µg/m3
2023-06-03 00:00 16.17 µg/m3 -0.03 µg/m3 58.95 µg/m3 12.75 µg/m3 9.92 µg/m3 0.24 mg/m3 20.62 °C 78.75 % 1,014.39 mbar 0.74 m/s 242.85 Deg 0.41 µg/m3 1.1 µg/m3
2023-06-02 23:00 14.38 µg/m3 0.02 µg/m3 64.19 µg/m3 11.69 µg/m3 9.09 µg/m3 0.23 mg/m3 20.78 °C 77.74 % 1,014.67 mbar 0.8 m/s 229.07 Deg 0.73 µg/m3 1.15 µg/m3
2023-06-02 22:00 13.52 µg/m3 -0.03 µg/m3 65.87 µg/m3 12.12 µg/m3 9.11 µg/m3 0.22 mg/m3 20.97 °C 76.08 % 1,014.82 mbar 1.13 m/s 226.98 Deg 0.75 µg/m3 1.26 µg/m3
2023-06-02 21:00 17.2 µg/m3 -0.01 µg/m3 62.95 µg/m3 12.58 µg/m3 9.53 µg/m3 0.23 mg/m3 21.17 °C 74.91 % 1,014.32 mbar 1.5 m/s 228.7 Deg 2.67 µg/m3 1.26 µg/m3
2023-06-02 20:00 13.65 µg/m3 -0.06 µg/m3 67.44 µg/m3 12.12 µg/m3 8.48 µg/m3 0.2 mg/m3 21.44 °C 72.95 % 1,013.81 mbar 1.66 m/s 222.32 Deg 1.34 µg/m3 1 µg/m3
2023-06-02 19:00 15.12 µg/m3 -0.05 µg/m3 70.11 µg/m3 14.21 µg/m3 8.69 µg/m3 0.2 mg/m3 21.88 °C 71.3 % 1,013.43 mbar 1.66 m/s 209.75 Deg 3.26 µg/m3 1.47 µg/m3
2023-06-02 18:00 12.75 µg/m3 -0.05 µg/m3 73.27 µg/m3 12.57 µg/m3 7.48 µg/m3 0.21 mg/m3 22.44 °C 68.83 % 1,013.34 mbar 1.94 m/s 205.82 Deg 5.13 µg/m3 1 µg/m3
2023-06-02 17:00 12.5 µg/m3 -0.07 µg/m3 77.05 µg/m3 12.98 µg/m3 7.5 µg/m3 0.19 mg/m3 22.83 °C 67.2 % 1,013.65 mbar 2.41 m/s 211.1 Deg 2.78 µg/m3 1.31 µg/m3
2023-06-02 16:00 17.42 µg/m3 0 µg/m3 75.69 µg/m3 15.88 µg/m3 7.89 µg/m3 0.21 mg/m3 23.26 °C 62.96 % 1,013.82 mbar 2.39 m/s 204.05 Deg 6.95 µg/m3 1.21 µg/m3
2023-06-02 15:00 14.2 µg/m3 -0.08 µg/m3 76.76 µg/m3 18.27 µg/m3 7.62 µg/m3 0.17 mg/m3 23.5 °C 59.74 % 1,014.07 mbar 2.87 m/s 212.57 Deg 3.56 µg/m3 1.73 µg/m3
2023-06-02 14:00 22.01 µg/m3 0.08 µg/m3 73.5 µg/m3 37.63 µg/m3 12.15 µg/m3 0.26 mg/m3 23.11 °C 64.23 % 1,014.35 mbar 2.35 m/s 201.35 Deg 16.84 µg/m3 2.1 µg/m3
2023-06-02 13:00 36.29 µg/m3 0.32 µg/m3 79.02 µg/m3 69.87 µg/m3 21.37 µg/m3 0.35 mg/m3 21.73 °C 74.11 % 1,014.35 mbar 2.49 m/s 52.53 Deg 35.09 µg/m3 2.41 µg/m3
2023-06-02 12:00 39.41 µg/m3 0.29 µg/m3 75.12 µg/m3 54.43 µg/m3 20.65 µg/m3 0.4 mg/m3 21.18 °C 75.92 % 1,014.36 mbar 2.24 m/s 61 Deg 28.9 µg/m3 2.1 µg/m3
2023-06-02 11:00 34.03 µg/m3 0.28 µg/m3 73.13 µg/m3 36.22 µg/m3 13.45 µg/m3 0.36 mg/m3 21.44 °C 75.49 % 1,014.30 mbar 3.05 m/s 54.27 Deg 31.26 µg/m3 2.1 µg/m3
2023-06-02 10:00 29.11 µg/m3 0.27 µg/m3 70.77 µg/m3 48.75 µg/m3 16.54 µg/m3 0.35 mg/m3 21.54 °C 74.56 % 1,014.26 mbar 2.98 m/s 45.07 Deg 26.32 µg/m3 2.36 µg/m3
2023-06-02 09:00 27.85 µg/m3 0.24 µg/m3 63.11 µg/m3 58.43 µg/m3 17.92 µg/m3 0.38 mg/m3 21.43 °C 75.31 % 1,014.10 mbar 2.41 m/s 43.38 Deg 33.61 µg/m3 2.36 µg/m3
2023-06-02 08:00 33.32 µg/m3 0.24 µg/m3 58 µg/m3 50.84 µg/m3 17.05 µg/m3 0.34 mg/m3 21.37 °C 76.54 % 1,013.88 mbar 1.61 m/s 129.52 Deg 24.21 µg/m3 2.57 µg/m3
2023-06-02 07:00 40.79 µg/m3 0.23 µg/m3 43.77 µg/m3 45.08 µg/m3 21.14 µg/m3 0.39 mg/m3 21.07 °C 76.53 % 1,013.47 mbar 0.72 m/s 316.53 Deg 19.83 µg/m3 2.47 µg/m3
2023-06-02 06:00 50.88 µg/m3 0.22 µg/m3 23.73 µg/m3 24.08 µg/m3 17.86 µg/m3 0.42 mg/m3 19.89 °C 84.63 % 1,013.32 mbar 0.85 m/s 236.88 Deg 16.8 µg/m3 1.94 µg/m3
2023-06-02 05:00 32.06 µg/m3 0.03 µg/m3 27.87 µg/m3 28.96 µg/m3 22.6 µg/m3 0.24 mg/m3 19.49 °C 83.44 % 1,013.03 mbar 0.72 m/s 233.83 Deg 2.66 µg/m3 2.2 µg/m3
2023-06-02 04:00 18.33 µg/m3 -0.01 µg/m3 37.44 µg/m3 27.13 µg/m3 22.24 µg/m3 0.21 mg/m3 19.62 °C 82.93 % 1,012.97 mbar 0.83 m/s 232.02 Deg 0.46 µg/m3 1.73 µg/m3
2023-06-02 03:00 12.52 µg/m3 0.03 µg/m3 56.05 µg/m3 18.61 µg/m3 14.13 µg/m3 0.22 mg/m3 19.87 °C 84.05 % 1,012.92 mbar 0.69 m/s 171.42 Deg 1.1 µg/m3 2.57 µg/m3
2023-06-02 02:00 12.63 µg/m3 0.1 µg/m3 66.77 µg/m3 15.76 µg/m3 11.55 µg/m3 0.21 mg/m3 20.02 °C 84.05 % 1,013.19 mbar 0.78 m/s 67.13 Deg 4 µg/m3 1.94 µg/m3
2023-06-02 01:00 22.35 µg/m3 0.09 µg/m3 56.79 µg/m3 20.58 µg/m3 14.4 µg/m3 0.28 mg/m3 20.23 °C 83.15 % 1,013.51 mbar 0.64 m/s 70.98 Deg 6.58 µg/m3 2.73 µg/m3
2023-06-02 00:00 28.46 µg/m3 0.1 µg/m3 50.48 µg/m3 20.26 µg/m3 14.05 µg/m3 0.33 mg/m3 20.35 °C 83.07 % 1,013.84 mbar 0.72 m/s 62.78 Deg 6.7 µg/m3 2.1 µg/m3
2023-06-01 23:00 41 µg/m3 0.28 µg/m3 39.36 µg/m3 23.47 µg/m3 16.1 µg/m3 0.37 mg/m3 20.44 °C 82.65 % 1,013.94 mbar 1.18 m/s 69.35 Deg 19.03 µg/m3 1.78 µg/m3
2023-06-01 22:00 26.6 µg/m3 0.2 µg/m3 66.48 µg/m3 21.32 µg/m3 14.74 µg/m3 0.31 mg/m3 20.49 °C 82.97 % 1,013.90 mbar 1.71 m/s 56.8 Deg 16.46 µg/m3 1.99 µg/m3
2023-06-01 21:00 22.14 µg/m3 0.16 µg/m3 71.9 µg/m3 21.61 µg/m3 14.89 µg/m3 0.27 mg/m3 20.67 °C 82.86 % 1,013.82 mbar 2.43 m/s 55.53 Deg 16.84 µg/m3 2.73 µg/m3
2023-06-01 20:00 46.07 µg/m3 0.31 µg/m3 53.75 µg/m3 29.37 µg/m3 16.75 µg/m3 0.39 mg/m3 21.08 °C 78.53 % 1,013.17 mbar 2.22 m/s 58.57 Deg 24.9 µg/m3 2.89 µg/m3
2023-06-01 19:00 29.05 µg/m3 0.24 µg/m3 62.19 µg/m3 47.74 µg/m3 22.64 µg/m3 0.34 mg/m3 21.4 °C 77.14 % 1,012.78 mbar 2.69 m/s 55.38 Deg 25.8 µg/m3 2.2 µg/m3
2023-06-01 18:00 25.33 µg/m3 0.19 µg/m3 76.13 µg/m3 25.62 µg/m3 17.35 µg/m3 0.35 mg/m3 21.31 °C 80.79 % 1,012.90 mbar 3.74 m/s 49.05 Deg 24.01 µg/m3 2.26 µg/m3
2023-06-01 17:00 26.16 µg/m3 0.15 µg/m3 80.15 µg/m3 39.7 µg/m3 18.05 µg/m3 0.36 mg/m3 21.64 °C 78.94 % 1,012.94 mbar 3.8 m/s 47.87 Deg 21.43 µg/m3 2.26 µg/m3
2023-06-01 16:00 22.83 µg/m3 0.16 µg/m3 86.59 µg/m3 38.65 µg/m3 16.06 µg/m3 0.3 mg/m3 21.6 °C 78.78 % 1,013.02 mbar 4.91 m/s 49.08 Deg 20.45 µg/m3 1.78 µg/m3
2023-06-01 15:00 28.83 µg/m3 0.21 µg/m3 78.02 µg/m3 61.87 µg/m3 19.2 µg/m3 0.29 mg/m3 22.85 °C 63.84 % 1,013.25 mbar 3.88 m/s 71.72 Deg 26.02 µg/m3 1.94 µg/m3
2023-06-01 14:00 32.41 µg/m3 0.19 µg/m3 78.85 µg/m3 103.64 µg/m3 27.57 µg/m3 0.3 mg/m3 22.35 °C 72.87 % 1,013.66 mbar 4.02 m/s 57.73 Deg 25.3 µg/m3 1.89 µg/m3
2023-06-01 13:00 27.44 µg/m3 0.13 µg/m3 85.72 µg/m3 23.7 µg/m3 12.62 µg/m3 0.29 mg/m3 21.63 °C 79.28 % 1,013.88 mbar 4.53 m/s 51.4 Deg 25.19 µg/m3 1.57 µg/m3
2023-06-01 12:00 25.51 µg/m3 0.05 µg/m3 96.27 µg/m3 16.03 µg/m3 11.06 µg/m3 0.26 mg/m3 21.07 °C 81.33 % 1,014.17 mbar 5.01 m/s 49.48 Deg 17.44 µg/m3 1.94 µg/m3
2023-06-01 11:00 24.26 µg/m3 0.13 µg/m3 91 µg/m3 17.22 µg/m3 11.67 µg/m3 0.29 mg/m3 20.95 °C 81.45 % 1,014.37 mbar 4.79 m/s 51.1 Deg 20.6 µg/m3 1.42 µg/m3
2023-06-01 10:00 24.01 µg/m3 0.16 µg/m3 84.67 µg/m3 17 µg/m3 11.93 µg/m3 0.28 mg/m3 20.88 °C 81.94 % 1,014.32 mbar 4.65 m/s 50.45 Deg 24.64 µg/m3 1.68 µg/m3
2023-06-01 09:00 21.07 µg/m3 0.22 µg/m3 82.94 µg/m3 15.45 µg/m3 11.37 µg/m3 0.29 mg/m3 20.59 °C 83.92 % 1,014.05 mbar 4.73 m/s 48.65 Deg 24.7 µg/m3 1.78 µg/m3
2023-06-01 08:00 24.79 µg/m3 0.25 µg/m3 75.7 µg/m3 15.9 µg/m3 11.59 µg/m3 0.31 mg/m3 20.5 °C 83.7 % 1,013.88 mbar 4.42 m/s 53.77 Deg 25.97 µg/m3 2.05 µg/m3
2023-06-01 07:00 21.76 µg/m3 0.23 µg/m3 72.11 µg/m3 16.46 µg/m3 11.99 µg/m3 0.38 mg/m3 20.27 °C 84.71 % 1,013.48 mbar 3.79 m/s 53.82 Deg 24.93 µg/m3 2.05 µg/m3
2023-06-01 06:00 18.22 µg/m3 0.21 µg/m3 74.67 µg/m3 15.24 µg/m3 11.3 µg/m3 0.34 mg/m3 20.03 °C 86.11 % 1,013.09 mbar 3.45 m/s 50.47 Deg 23.45 µg/m3 1.31 µg/m3
2023-06-01 05:00 10.25 µg/m3 0.02 µg/m3 83.69 µg/m3 11.46 µg/m3 9.02 µg/m3 0.18 mg/m3 19.99 °C 86.21 % 1,012.85 mbar 3.03 m/s 49.9 Deg 8.32 µg/m3 0.84 µg/m3
2023-06-01 04:00 4.78 µg/m3 -0.09 µg/m3 89.28 µg/m3 10.46 µg/m3 8.6 µg/m3 0.16 mg/m3 19.98 °C 86.9 % 1,012.66 mbar 2.81 m/s 49.92 Deg 2.38 µg/m3 0.68 µg/m3
2023-06-01 03:00 3.08 µg/m3 -0.05 µg/m3 91.62 µg/m3 9.63 µg/m3 8.27 µg/m3 0.17 mg/m3 20.1 °C 86.68 % 1,012.66 mbar 3.87 m/s 51.73 Deg 0.73 µg/m3 0.63 µg/m3
2023-06-01 02:00 2.62 µg/m3 -0.07 µg/m3 91.58 µg/m3 10.24 µg/m3 8.57 µg/m3 0.17 mg/m3 20.12 °C 86.07 % 1,012.94 mbar 3.51 m/s 49.47 Deg 1.14 µg/m3 0.68 µg/m3
2023-06-01 01:00 4.17 µg/m3 -0.01 µg/m3 88.54 µg/m3 10.33 µg/m3 8.41 µg/m3 0.18 mg/m3 20.22 °C 86.89 % 1,013.24 mbar 3.45 m/s 49.95 Deg 3.17 µg/m3 0.89 µg/m3
2023-06-01 00:00 7.68 µg/m3 -0.04 µg/m3 82.64 µg/m3 10.05 µg/m3 8.21 µg/m3 0.19 mg/m3 20.25 °C 87.75 % 1,013.41 mbar 3.57 m/s 50.95 Deg 3.1 µg/m3 0.89 µg/m3
2023-05-31 23:00 9.42 µg/m3 0.01 µg/m3 74.25 µg/m3 11.28 µg/m3 8.94 µg/m3 0.22 mg/m3 20.31 °C 88.21 % 1,013.30 mbar 3.43 m/s 52.33 Deg 7.31 µg/m3 1 µg/m3
2023-05-31 22:00 8.65 µg/m3 0.01 µg/m3 77.37 µg/m3 12.5 µg/m3 9.98 µg/m3 0.23 mg/m3 20.39 °C 88.22 % 1,013.35 mbar 4.09 m/s 51.82 Deg 8.49 µg/m3 1 µg/m3
2023-05-31 21:00 10.62 µg/m3 0.09 µg/m3 75.42 µg/m3 12.11 µg/m3 9.38 µg/m3 0.25 mg/m3 20.44 °C 86.74 % 1,013.12 mbar 3.62 m/s 54.05 Deg 11.47 µg/m3 1.36 µg/m3
2023-05-31 20:00 19.12 µg/m3 0.2 µg/m3 69.29 µg/m3 13.05 µg/m3 9.99 µg/m3 0.31 mg/m3 20.53 °C 86.18 % 1,012.78 mbar 4.13 m/s 53.57 Deg 16.84 µg/m3 1.52 µg/m3
2023-05-31 19:00 14.37 µg/m3 0.14 µg/m3 71.84 µg/m3 12.34 µg/m3 9.45 µg/m3 0.32 mg/m3 20.67 °C 85.18 % 1,012.60 mbar 4.75 m/s 51.8 Deg 16.63 µg/m3 1.68 µg/m3
2023-05-31 18:00 18.66 µg/m3 0.19 µg/m3 71.5 µg/m3 12.69 µg/m3 9.63 µg/m3 0.32 mg/m3 20.85 °C 84.38 % 1,012.25 mbar 4.81 m/s 54.7 Deg 25.44 µg/m3 1.68 µg/m3
2023-05-31 17:00 16.68 µg/m3 0.11 µg/m3 76.16 µg/m3 11.41 µg/m3 8.85 µg/m3 0.34 mg/m3 21.06 °C 83.17 % 1,012.27 mbar 5.04 m/s 54.03 Deg 23.28 µg/m3 2.1 µg/m3
2023-05-31 16:00 21.95 µg/m3 0.14 µg/m3 77.54 µg/m3 11.44 µg/m3 8.81 µg/m3 0.42 mg/m3 21.41 °C 81.8 % 1,012.31 mbar 4.76 m/s 58.42 Deg 23.83 µg/m3 1.52 µg/m3
2023-05-31 15:00 22.41 µg/m3 0.19 µg/m3 79.69 µg/m3 11.34 µg/m3 8.6 µg/m3 0.31 mg/m3 21.18 °C 82.2 % 1,012.56 mbar 4.96 m/s 57.25 Deg 24.96 µg/m3 1.52 µg/m3
2023-05-31 14:00 26.35 µg/m3 0.18 µg/m3 79.39 µg/m3 12.12 µg/m3 9.24 µg/m3 0.32 mg/m3 21.02 °C 82.93 % 1,012.73 mbar 4.92 m/s 54.53 Deg 26.75 µg/m3 1.57 µg/m3
2023-05-31 13:00 18.85 µg/m3 0.15 µg/m3 76.84 µg/m3 12.14 µg/m3 8.96 µg/m3 0.28 mg/m3 20.96 °C 82.64 % 1,013.12 mbar 4.98 m/s 56.08 Deg 21.29 µg/m3 1.52 µg/m3
2023-05-31 12:00 14.64 µg/m3 0.1 µg/m3 81.15 µg/m3 11.38 µg/m3 8.05 µg/m3 0.29 mg/m3 20.91 °C 82.4 % 1,013.38 mbar 5.37 m/s 54.22 Deg 20.64 µg/m3 1.52 µg/m3
2023-05-31 11:00 26.93 µg/m3 0.11 µg/m3 84.46 µg/m3 12.24 µg/m3 8.99 µg/m3 0.31 mg/m3 20.91 °C 82.58 % 1,013.74 mbar 4.95 m/s 54 Deg 23.07 µg/m3 1.52 µg/m3
2023-05-31 10:00 25.25 µg/m3 0.2 µg/m3 77.51 µg/m3 12.75 µg/m3 9.7 µg/m3 0.31 mg/m3 20.86 °C 82.78 % 1,013.47 mbar 4.39 m/s 56.43 Deg 25.68 µg/m3 1.89 µg/m3
2023-05-31 09:00 22.34 µg/m3 0.23 µg/m3 77.81 µg/m3 15.04 µg/m3 11.17 µg/m3 0.36 mg/m3 20.65 °C 83.78 % 1,013.25 mbar 3.75 m/s 57.27 Deg 29.26 µg/m3 2.05 µg/m3
2023-05-31 08:00 26.88 µg/m3 0.21 µg/m3 75.23 µg/m3 16.42 µg/m3 12.15 µg/m3 0.33 mg/m3 20.66 °C 83.57 % 1,012.96 mbar 3.58 m/s 55.77 Deg 24.66 µg/m3 2.31 µg/m3
2023-05-31 07:00 25.4 µg/m3 0.25 µg/m3 64.64 µg/m3 19.6 µg/m3 14.08 µg/m3 0.41 mg/m3 20.45 °C 83.3 % 1,012.57 mbar 2.74 m/s 49.03 Deg 33.52 µg/m3 2.57 µg/m3
2023-05-31 06:00 21.37 µg/m3 0.2 µg/m3 72.27 µg/m3 16.65 µg/m3 12.5 µg/m3 0.37 mg/m3 20.14 °C 85.4 % 1,012.12 mbar 2.87 m/s 48.18 Deg 21.57 µg/m3 1.57 µg/m3
2023-05-31 05:00 12.35 µg/m3 0.08 µg/m3 73.96 µg/m3 13.78 µg/m3 11.47 µg/m3 0.26 mg/m3 20.04 °C 85.76 % 1,011.75 mbar 2.36 m/s 47.25 Deg 8.99 µg/m3 1.26 µg/m3
2023-05-31 04:00 6.53 µg/m3 -0.03 µg/m3 88.79 µg/m3 12.18 µg/m3 11 µg/m3 0.18 mg/m3 20.17 °C 84.75 % 1,011.95 mbar 2.15 m/s 44.08 Deg 2.31 µg/m3 0.89 µg/m3
2023-05-31 03:00 3.68 µg/m3 -0.06 µg/m3 94.96 µg/m3 12.38 µg/m3 11.17 µg/m3 0.2 mg/m3 20.22 °C 85.02 % 1,011.98 mbar 2.01 m/s 40.93 Deg 0.87 µg/m3 0.84 µg/m3
2023-05-31 02:00 3.45 µg/m3 -0.09 µg/m3 98.12 µg/m3 10.63 µg/m3 9.53 µg/m3 0.22 mg/m3 20.32 °C 84.84 % 1,012.20 mbar 2.31 m/s 48.2 Deg 1.33 µg/m3 0.94 µg/m3
2023-05-31 01:00 7.6 µg/m3 -0.04 µg/m3 97.85 µg/m3 10.65 µg/m3 9.37 µg/m3 0.24 mg/m3 20.37 °C 84.59 % 1,012.52 mbar 2.57 m/s 51.48 Deg 2.53 µg/m3 1.05 µg/m3
2023-05-31 00:00 10.79 µg/m3 -0.01 µg/m3 88.18 µg/m3 12.2 µg/m3 10.32 µg/m3 0.24 mg/m3 20.52 °C 83.35 % 1,012.86 mbar 2.36 m/s 48.53 Deg 3.95 µg/m3 1.84 µg/m3
2023-05-30 23:00 10.31 µg/m3 0.01 µg/m3 97.24 µg/m3 12.18 µg/m3 10.2 µg/m3 0.26 mg/m3 20.58 °C 82.9 % 1,012.94 mbar 3.01 m/s 50.77 Deg 6.05 µg/m3 1.26 µg/m3
2023-05-30 22:00 17.81 µg/m3 0.04 µg/m3 103.01 µg/m3 14.47 µg/m3 11.58 µg/m3 0.3 mg/m3 20.88 °C 80.04 % 1,012.92 mbar 2.52 m/s 43.73 Deg 8.9 µg/m3 1.63 µg/m3
2023-05-30 21:00 24.53 µg/m3 0.06 µg/m3 107.3 µg/m3 15.87 µg/m3 12.33 µg/m3 0.31 mg/m3 21.05 °C 79.04 % 1,012.76 mbar 2.16 m/s 42.33 Deg 10.89 µg/m3 1.89 µg/m3
2023-05-30 20:00 29.17 µg/m3 0.07 µg/m3 104.24 µg/m3 18.37 µg/m3 13.69 µg/m3 0.35 mg/m3 21.22 °C 80.16 % 1,012.24 mbar 1.97 m/s 36.43 Deg 12.79 µg/m3 2.62 µg/m3
2023-05-30 19:00 31.97 µg/m3 0.12 µg/m3 96.73 µg/m3 22.22 µg/m3 15.66 µg/m3 0.36 mg/m3 21.47 °C 78.01 % 1,011.96 mbar 1.95 m/s 31.72 Deg 15.93 µg/m3 2.41 µg/m3
2023-05-30 18:00 47.41 µg/m3 0.3 µg/m3 77.41 µg/m3 23.98 µg/m3 13.21 µg/m3 0.43 mg/m3 21.51 °C 73.83 % 1,011.78 mbar 2.42 m/s 48.42 Deg 26.38 µg/m3 2.68 µg/m3
2023-05-30 17:00 41.05 µg/m3 0.27 µg/m3 82.91 µg/m3 20.11 µg/m3 12.26 µg/m3 0.44 mg/m3 21.46 °C 75.47 % 1,011.70 mbar 2.65 m/s 48.47 Deg 27.26 µg/m3 2.89 µg/m3
2023-05-30 16:00 28.72 µg/m3 0.19 µg/m3 91.27 µg/m3 17.69 µg/m3 10.88 µg/m3 0.41 mg/m3 21.67 °C 75.59 % 1,011.92 mbar 3.69 m/s 51.27 Deg 24.3 µg/m3 2.1 µg/m3
2023-05-30 15:00 33.85 µg/m3 0.23 µg/m3 96.48 µg/m3 19.11 µg/m3 11.65 µg/m3 0.42 mg/m3 21.71 °C 74.93 % 1,012.19 mbar 3.33 m/s 54.28 Deg 26.55 µg/m3 2.26 µg/m3
2023-05-30 14:00 36.23 µg/m3 0.23 µg/m3 92.79 µg/m3 17.55 µg/m3 12.24 µg/m3 0.48 mg/m3 21.21 °C 81.38 % 1,012.51 mbar 3.4 m/s 55.87 Deg 28.13 µg/m3 2.26 µg/m3
2023-05-30 13:00 28.31 µg/m3 0.22 µg/m3 93.36 µg/m3 16.75 µg/m3 11.64 µg/m3 0.35 mg/m3 21.1 °C 82.14 % 1,012.77 mbar 3.85 m/s 56.9 Deg 26.09 µg/m3 2.05 µg/m3
2023-05-30 12:00 32.88 µg/m3 0.21 µg/m3 93.79 µg/m3 20.77 µg/m3 13.39 µg/m3 0.36 mg/m3 21.15 °C 78.89 % 1,013.01 mbar 3.23 m/s 61.47 Deg 28.13 µg/m3 2.26 µg/m3
2023-05-30 11:00 31.66 µg/m3 0.31 µg/m3 89.91 µg/m3 22.54 µg/m3 15.69 µg/m3 0.41 mg/m3 20.89 °C 81.59 % 1,013.06 mbar 3.22 m/s 57.68 Deg 30.94 µg/m3 2.52 µg/m3
2023-05-30 10:00 44.11 µg/m3 0.37 µg/m3 76.59 µg/m3 23.35 µg/m3 15.25 µg/m3 0.37 mg/m3 21.15 °C 81.01 % 1,012.98 mbar 2.91 m/s 44.07 Deg 30.5 µg/m3 2.41 µg/m3
2023-05-30 09:00 34.29 µg/m3 0.2 µg/m3 73.87 µg/m3 27.71 µg/m3 16.39 µg/m3 0.37 mg/m3 21.25 °C 80.18 % 1,012.92 mbar 2.13 m/s 29.75 Deg 20.52 µg/m3 2.62 µg/m3
2023-05-30 08:00 45.61 µg/m3 0.33 µg/m3 56.94 µg/m3 33.67 µg/m3 21.34 µg/m3 0.44 mg/m3 21.06 °C 81.52 % 1,012.82 mbar 1.69 m/s 34.53 Deg 29.43 µg/m3 3.52 µg/m3
2023-05-30 07:00 40.46 µg/m3 0.43 µg/m3 43.7 µg/m3 30.98 µg/m3 22.06 µg/m3 0.51 mg/m3 20.47 °C 85.23 % 1,012.41 mbar 1.2 m/s 49.77 Deg 35.45 µg/m3 4.2 µg/m3
2023-05-30 06:00 44.06 µg/m3 0.4 µg/m3 42.79 µg/m3 31.15 µg/m3 22.66 µg/m3 0.5 mg/m3 19.93 °C 86.35 % 1,012.12 mbar 0.8 m/s 41.77 Deg 30.65 µg/m3 2.31 µg/m3
2023-05-30 05:00 23.73 µg/m3 0.1 µg/m3 56.44 µg/m3 25.96 µg/m3 20.17 µg/m3 0.29 mg/m3 19.85 °C 86.14 % 1,011.71 mbar 0.56 m/s 52.21 Deg 11.42 µg/m3 1.57 µg/m3
2023-05-30 04:00 13.02 µg/m3 0.03 µg/m3 74.49 µg/m3 18.35 µg/m3 16.29 µg/m3 0.22 mg/m3 19.72 °C 85.49 % 1,011.55 mbar 0.96 m/s 130.32 Deg 5.08 µg/m3 1.52 µg/m3
2023-05-30 03:00 13.86 µg/m3 -0.01 µg/m3 77.22 µg/m3 18.02 µg/m3 15.41 µg/m3 0.18 mg/m3 19.88 °C 83 % 1,011.56 mbar 0.68 m/s 61.38 Deg 4.46 µg/m3 1.68 µg/m3
2023-05-30 02:00 13.01 µg/m3 -0.02 µg/m3 78.73 µg/m3 17.17 µg/m3 15.12 µg/m3 0.19 mg/m3 19.93 °C 82.65 % 1,011.58 mbar 0.98 m/s 64.17 Deg 1.4 µg/m3 1.52 µg/m3
2023-05-30 01:00 25.87 µg/m3 0.01 µg/m3 62.31 µg/m3 22.62 µg/m3 18.28 µg/m3 0.21 mg/m3 20.21 °C 79.83 % 1,011.78 mbar 0.58 m/s 30.73 Deg 3.58 µg/m3 1.52 µg/m3
2023-05-30 00:00 19.01 µg/m3 -0.03 µg/m3 72.52 µg/m3 20.19 µg/m3 17.27 µg/m3 0.19 mg/m3 20.47 °C 75.26 % 1,012.18 mbar 0.6 m/s 148.69 Deg 0.83 µg/m3 1.36 µg/m3
2023-05-29 23:00 35.22 µg/m3 0.08 µg/m3 65.88 µg/m3 17.89 µg/m3 13.08 µg/m3 0.26 mg/m3 20.23 °C 76.37 % 1,012.18 mbar 1.06 m/s 163.13 Deg 7.71 µg/m3 1.84 µg/m3
2023-05-29 22:00 20.5 µg/m3 0.19 µg/m3 82.11 µg/m3 15.59 µg/m3 11.84 µg/m3 0.29 mg/m3 20 °C 81.23 % 1,011.96 mbar 1.62 m/s 65.12 Deg 16.04 µg/m3 2.1 µg/m3
2023-05-29 21:00 27.95 µg/m3 0.14 µg/m3 80.4 µg/m3 16.75 µg/m3 12.58 µg/m3 0.3 mg/m3 20.14 °C 81.63 % 1,011.62 mbar 1.64 m/s 60.17 Deg 15.03 µg/m3 2.78 µg/m3
2023-05-29 20:00 29.75 µg/m3 0.2 µg/m3 75.9 µg/m3 20.59 µg/m3 14.38 µg/m3 0.39 mg/m3 20.65 °C 78.63 % 1,011.20 mbar 1.48 m/s 46.15 Deg 18.21 µg/m3 2.89 µg/m3
2023-05-29 19:00 38.23 µg/m3 0.1 µg/m3 75.24 µg/m3 25.46 µg/m3 12.24 µg/m3 0.33 mg/m3 21.86 °C 68.25 % 1,011.06 mbar 1.71 m/s 104.98 Deg 16.1 µg/m3 2.31 µg/m3
2023-05-29 18:00 27.28 µg/m3 0.1 µg/m3 84.87 µg/m3 26.05 µg/m3 11.35 µg/m3 0.29 mg/m3 22.56 °C 59.32 % 1,011.20 mbar 1.36 m/s 140.32 Deg 15.52 µg/m3 1.63 µg/m3
2023-05-29 17:00 22.32 µg/m3 -0.01 µg/m3 90.11 µg/m3 17.9 µg/m3 9.3 µg/m3 0.22 mg/m3 23.11 °C 53.84 % 1,011.31 mbar 1.76 m/s 170.57 Deg 6.6 µg/m3 2.26 µg/m3
2023-05-29 16:00 22.36 µg/m3 0.02 µg/m3 90.85 µg/m3 17.79 µg/m3 9.44 µg/m3 0.2 mg/m3 23.78 °C 52.23 % 1,011.45 mbar 1.95 m/s 155.75 Deg 11.52 µg/m3 1.36 µg/m3
2023-05-29 15:00 17.49 µg/m3 0.01 µg/m3 94.55 µg/m3 18.51 µg/m3 9.63 µg/m3 0.18 mg/m3 24.25 °C 51.77 % 1,011.27 mbar 2.27 m/s 179.75 Deg 7.08 µg/m3 1.31 µg/m3
2023-05-29 14:00 20.99 µg/m3 0.02 µg/m3 89.99 µg/m3 20.97 µg/m3 11.07 µg/m3 0.2 mg/m3 24.37 °C 53.34 % 1,011.39 mbar 2.04 m/s 156.4 Deg 11.13 µg/m3 1.73 µg/m3
2023-05-29 13:00 29.64 µg/m3 0.07 µg/m3 89.01 µg/m3 34.41 µg/m3 13.5 µg/m3 0.25 mg/m3 24.41 °C 53.4 % 1,011.60 mbar 2.12 m/s 148.52 Deg 16.87 µg/m3 1.78 µg/m3
2023-05-29 12:00 24.26 µg/m3 0.02 µg/m3 94.57 µg/m3 25.92 µg/m3 11.19 µg/m3 0.19 mg/m3 24.4 °C 51.49 % 1,011.93 mbar 2.15 m/s 154.12 Deg 10.31 µg/m3 1.68 µg/m3
2023-05-29 11:00 33.56 µg/m3 0.26 µg/m3 88.44 µg/m3 44.58 µg/m3 17.9 µg/m3 0.33 mg/m3 22.29 °C 69.92 % 1,011.90 mbar 3.01 m/s 125.37 Deg 26.18 µg/m3 2.31 µg/m3
2023-05-29 10:00 37.08 µg/m3 0.26 µg/m3 84.6 µg/m3 33.58 µg/m3 15.8 µg/m3 0.35 mg/m3 20.88 °C 78.41 % 1,011.88 mbar 2.68 m/s 57.85 Deg 32.39 µg/m3 2.52 µg/m3
2023-05-29 09:00 36.49 µg/m3 0.27 µg/m3 81.11 µg/m3 49.9 µg/m3 20.43 µg/m3 0.37 mg/m3 20.44 °C 79.19 % 1,011.68 mbar 2.17 m/s 59.48 Deg 29.38 µg/m3 2.52 µg/m3
2023-05-29 08:00 39.4 µg/m3 0.49 µg/m3 65.95 µg/m3 38.77 µg/m3 20.8 µg/m3 0.42 mg/m3 20.12 °C 80.18 % 1,011.46 mbar 1.94 m/s 59.17 Deg 38.59 µg/m3 3.94 µg/m3
2023-05-29 07:00 53.05 µg/m3 0.45 µg/m3 43.63 µg/m3 39.13 µg/m3 28.51 µg/m3 0.52 mg/m3 19.87 °C 79.15 % 1,011.27 mbar 1.53 m/s 128.86 Deg 33.37 µg/m3 3.15 µg/m3
2023-05-29 06:00 50.1 µg/m3 0.15 µg/m3 35.57 µg/m3 39.86 µg/m3 30.02 µg/m3 0.38 mg/m3 19 °C 84.68 % 1,011.04 mbar 0.59 m/s 254.77 Deg 16.17 µg/m3 2.1 µg/m3
2023-05-29 05:00 25.64 µg/m3 -0.04 µg/m3 57.01 µg/m3 36.16 µg/m3 29.67 µg/m3 0.24 mg/m3 18.6 °C 87.09 % 1,011.07 mbar 1.29 m/s 221.43 Deg 0.84 µg/m3 1.89 µg/m3
2023-05-29 04:00 20.22 µg/m3 0.04 µg/m3 50.24 µg/m3 28.92 µg/m3 24.18 µg/m3 0.23 mg/m3 19.14 °C 80.28 % 1,011.22 mbar 0.86 m/s 210.22 Deg 0.16 µg/m3 2.47 µg/m3
2023-05-29 03:00 19.01 µg/m3 -0.03 µg/m3 61.22 µg/m3 28.06 µg/m3 23.06 µg/m3 0.24 mg/m3 19.34 °C 82.8 % 1,011.26 mbar 0.52 m/s 111.6 Deg 0.45 µg/m3 3.52 µg/m3
2023-05-29 02:00 60.9 µg/m3 0.16 µg/m3 28.36 µg/m3 26.99 µg/m3 21.57 µg/m3 0.4 mg/m3 19.58 °C 81.95 % 1,011.38 mbar 0.86 m/s 53.93 Deg 6.5 µg/m3 2.36 µg/m3
2023-05-29 01:00 11 µg/m3 -0.03 µg/m3 81.5 µg/m3 23.34 µg/m3 18.86 µg/m3 0.22 mg/m3 19.81 °C 81.38 % 1,011.78 mbar 0.56 m/s 121.14 Deg 0.9 µg/m3 1.1 µg/m3
2023-05-29 00:00 10.4 µg/m3 -0.04 µg/m3 86.5 µg/m3 19.89 µg/m3 16.53 µg/m3 0.23 mg/m3 19.84 °C 81.9 % 1,012.25 mbar 0.93 m/s 231.78 Deg 0.07 µg/m3 1.31 µg/m3
2023-05-28 23:00 16.22 µg/m3 -0.03 µg/m3 88.78 µg/m3 21 µg/m3 17.52 µg/m3 0.24 mg/m3 20.42 °C 78.22 % 1,012.56 mbar 1.32 m/s 259.08 Deg 0.32 µg/m3 1.47 µg/m3
2023-05-28 22:00 21.74 µg/m3 -0.05 µg/m3 87.88 µg/m3 28.02 µg/m3 22.48 µg/m3 0.29 mg/m3 20.9 °C 78.95 % 1,012.60 mbar 0.91 m/s 235.3 Deg 0.33 µg/m3 2.31 µg/m3
2023-05-28 21:00 34.93 µg/m3 0.1 µg/m3 99.92 µg/m3 26.36 µg/m3 19.46 µg/m3 0.4 mg/m3 20.42 °C 80.02 % 1,012.39 mbar 1.04 m/s 166.52 Deg 13.69 µg/m3 3.57 µg/m3
2023-05-28 20:00 35.26 µg/m3 0.16 µg/m3 106.79 µg/m3 24.17 µg/m3 17.83 µg/m3 0.42 mg/m3 20.39 °C 81.22 % 1,011.73 mbar 1.95 m/s 54.43 Deg 16.68 µg/m3 2.36 µg/m3
2023-05-28 19:00 26.85 µg/m3 0.08 µg/m3 118.37 µg/m3 21.25 µg/m3 16.1 µg/m3 0.37 mg/m3 20.93 °C 78.92 % 1,011.53 mbar 2.46 m/s 47.38 Deg 13.62 µg/m3 2.31 µg/m3
2023-05-28 18:00 29.97 µg/m3 0.09 µg/m3 117.52 µg/m3 24.84 µg/m3 15.48 µg/m3 0.33 mg/m3 21.48 °C 75.27 % 1,011.32 mbar 2.79 m/s 40.08 Deg 13.12 µg/m3 4.88 µg/m3
2023-05-28 17:00 30.92 µg/m3 0.15 µg/m3 118.12 µg/m3 22.2 µg/m3 13.98 µg/m3 0.43 mg/m3 21.62 °C 72.73 % 1,011.45 mbar 3.53 m/s 56.35 Deg 14.34 µg/m3 1.94 µg/m3
2023-05-28 16:00 23.79 µg/m3 0.06 µg/m3 115.44 µg/m3 18.31 µg/m3 11.72 µg/m3 0.28 mg/m3 22.21 °C 63.03 % 1,011.59 mbar 3.19 m/s 60.42 Deg 13.49 µg/m3 1.84 µg/m3
2023-05-28 15:00 23.26 µg/m3 0.05 µg/m3 111.84 µg/m3 19.54 µg/m3 11.65 µg/m3 0.28 mg/m3 22.34 °C 62.49 % 1,011.81 mbar 2.95 m/s 63.97 Deg 15.09 µg/m3 2.1 µg/m3
2023-05-28 14:00 21.86 µg/m3 0.13 µg/m3 110.2 µg/m3 18.97 µg/m3 11.7 µg/m3 0.32 mg/m3 22.3 °C 65.53 % 1,012.19 mbar 2.71 m/s 62.22 Deg 14.54 µg/m3 2.31 µg/m3
2023-05-28 13:00 19.99 µg/m3 0.06 µg/m3 109.71 µg/m3 22.6 µg/m3 12.99 µg/m3 0.33 mg/m3 21.77 °C 69.13 % 1,012.47 mbar 2.61 m/s 46.78 Deg 12.01 µg/m3 1.99 µg/m3
2023-05-28 12:00 25.32 µg/m3 0.04 µg/m3 103.79 µg/m3 22.71 µg/m3 13.35 µg/m3 0.34 mg/m3 21.42 °C 72.43 % 1,012.52 mbar 2.62 m/s 48.72 Deg 13.6 µg/m3 2.05 µg/m3
2023-05-28 11:00 20.77 µg/m3 0.04 µg/m3 98.88 µg/m3 26.84 µg/m3 14.63 µg/m3 0.33 mg/m3 21.34 °C 75.1 % 1,012.61 mbar 2.27 m/s 38.42 Deg 12.95 µg/m3 2.57 µg/m3
2023-05-28 10:00 22.82 µg/m3 0.09 µg/m3 95.93 µg/m3 29.62 µg/m3 15.03 µg/m3 0.36 mg/m3 21.22 °C 73.88 % 1,012.73 mbar 2.29 m/s 43.38 Deg 15.4 µg/m3 2.1 µg/m3
2023-05-28 09:00 25.63 µg/m3 0.1 µg/m3 92.39 µg/m3 34.34 µg/m3 16.31 µg/m3 0.36 mg/m3 21.12 °C 74.43 % 1,012.76 mbar 1.7 m/s 40 Deg 14.74 µg/m3 2.05 µg/m3
2023-05-28 08:00 19.34 µg/m3 0.07 µg/m3 90.59 µg/m3 27.33 µg/m3 17.3 µg/m3 0.29 mg/m3 20.37 °C 80.87 % 1,012.72 mbar 1.51 m/s 35.17 Deg 10.06 µg/m3 2.2 µg/m3
2023-05-28 07:00 15.77 µg/m3 0.01 µg/m3 88.08 µg/m3 26.85 µg/m3 18.82 µg/m3 0.33 mg/m3 19.47 °C 85.14 % 1,012.53 mbar 1.19 m/s 37.77 Deg 6.94 µg/m3 1.47 µg/m3
2023-05-28 06:00 12.21 µg/m3 -0.09 µg/m3 81.84 µg/m3 26.91 µg/m3 19.66 µg/m3 0.24 mg/m3 18.94 °C 87.58 % 1,012.23 mbar 0.94 m/s 98.68 Deg 3.05 µg/m3 1 µg/m3
2023-05-28 05:00 15.16 µg/m3 -0.06 µg/m3 66.65 µg/m3 22.06 µg/m3 17.44 µg/m3 0.21 mg/m3 18.99 °C 87.38 % 1,011.88 mbar 0.87 m/s 274.53 Deg 0.8 µg/m3 1 µg/m3
2023-05-28 04:00 8.24 µg/m3 -0.08 µg/m3 78.18 µg/m3 22.76 µg/m3 16.65 µg/m3 0.19 mg/m3 19.15 °C 86.5 % 1,011.52 mbar 0.67 m/s 264.4 Deg 0.61 µg/m3 0.73 µg/m3
2023-05-28 03:00 5.99 µg/m3 -0.15 µg/m3 86.05 µg/m3 18.41 µg/m3 13.81 µg/m3 0.19 mg/m3 19.37 °C 85 % 1,011.59 mbar 1.36 m/s 248.9 Deg -0.03 µg/m3 0.84 µg/m3
2023-05-28 02:00 10.51 µg/m3 -0.1 µg/m3 80.23 µg/m3 18.74 µg/m3 13.96 µg/m3 0.21 mg/m3 20.01 °C 80.73 % 1,011.82 mbar 0.95 m/s 256.12 Deg 0.64 µg/m3 1.05 µg/m3
2023-05-28 01:00 13.26 µg/m3 -0.09 µg/m3 86.33 µg/m3 18.82 µg/m3 13.62 µg/m3 0.25 mg/m3 20.53 °C 78.03 % 1,012.20 mbar 0.95 m/s 245.8 Deg 1.24 µg/m3 1.15 µg/m3
2023-05-28 00:00 14.61 µg/m3 -0.09 µg/m3 85.3 µg/m3 17.83 µg/m3 12.95 µg/m3 0.25 mg/m3 20.62 °C 77.58 % 1,012.57 mbar 1.11 m/s 234.62 Deg 0.78 µg/m3 1.1 µg/m3
2023-05-27 23:00 14.82 µg/m3 -0.04 µg/m3 84.4 µg/m3 17.81 µg/m3 13.05 µg/m3 0.23 mg/m3 20.59 °C 77.6 % 1,013.07 mbar 1.43 m/s 218.15 Deg 0.38 µg/m3 1.15 µg/m3
2023-05-27 22:00 15.15 µg/m3 -0.07 µg/m3 87.53 µg/m3 18.16 µg/m3 13.12 µg/m3 0.23 mg/m3 20.9 °C 74.53 % 1,013.54 mbar 1.4 m/s 214.83 Deg 0.47 µg/m3 1.52 µg/m3
2023-05-27 21:00 20.64 µg/m3 -0.07 µg/m3 85.64 µg/m3 20.52 µg/m3 14.09 µg/m3 0.27 mg/m3 20.82 °C 73.22 % 1,013.51 mbar 1.46 m/s 234.25 Deg 1.38 µg/m3 1.52 µg/m3
2023-05-27 20:00 24.76 µg/m3 0.02 µg/m3 83.99 µg/m3 21.41 µg/m3 14.41 µg/m3 0.29 mg/m3 21.2 °C 73.18 % 1,013.21 mbar 1.64 m/s 230.6 Deg 1.83 µg/m3 1.84 µg/m3
2023-05-27 19:00 24.86 µg/m3 -0.15 µg/m3 93.36 µg/m3 19.91 µg/m3 12.88 µg/m3 0.28 mg/m3 22.15 °C 69.51 % 1,013.09 mbar 1.91 m/s 259.77 Deg 2.1 µg/m3 2.05 µg/m3
2023-05-27 18:00 24.26 µg/m3 -0.09 µg/m3 96.88 µg/m3 20.25 µg/m3 11.07 µg/m3 0.26 mg/m3 23.74 °C 58.17 % 1,013.27 mbar 1.75 m/s 266.75 Deg 2.74 µg/m3 1.78 µg/m3
2023-05-27 17:00 22.05 µg/m3 -0.06 µg/m3 99.8 µg/m3 20.43 µg/m3 10.47 µg/m3 0.24 mg/m3 23.98 °C 52.48 % 1,013.27 mbar 2.55 m/s 277.47 Deg 3.33 µg/m3 2.57 µg/m3
2023-05-27 16:00 33.52 µg/m3 0.2 µg/m3 97.69 µg/m3 24.45 µg/m3 13.07 µg/m3 0.32 mg/m3 23.07 °C 58.99 % 1,013.28 mbar 3.41 m/s 57.82 Deg 19.43 µg/m3 3.1 µg/m3
2023-05-27 15:00 26.94 µg/m3 0.11 µg/m3 97.02 µg/m3 27.1 µg/m3 12.76 µg/m3 0.33 mg/m3 23.71 °C 53.33 % 1,013.38 mbar 3.08 m/s 50.03 Deg 15.81 µg/m3 2.52 µg/m3
2023-05-27 14:00 30.98 µg/m3 0.11 µg/m3 91 µg/m3 31.49 µg/m3 13.35 µg/m3 0.31 mg/m3 24.66 °C 50.58 % 1,013.73 mbar 2.33 m/s 43.6 Deg 21.18 µg/m3 3.1 µg/m3
2023-05-27 13:00 36.13 µg/m3 0.14 µg/m3 89.03 µg/m3 40.3 µg/m3 14.75 µg/m3 0.36 mg/m3 24.54 °C 51.38 % 1,013.97 mbar 2.32 m/s 36.78 Deg 18.82 µg/m3 2.78 µg/m3
2023-05-27 12:00 36.59 µg/m3 0.24 µg/m3 87.96 µg/m3 37.39 µg/m3 14.05 µg/m3 0.39 mg/m3 24.16 °C 50.96 % 1,014.17 mbar 2.27 m/s 40.27 Deg 24.11 µg/m3 2.78 µg/m3
2023-05-27 11:00 28.22 µg/m3 0.08 µg/m3 86.47 µg/m3 35.42 µg/m3 12.76 µg/m3 0.27 mg/m3 24.16 °C 49.07 % 1,014.40 mbar 1.61 m/s 260.93 Deg 13.06 µg/m3 2.26 µg/m3
2023-05-27 10:00 31.85 µg/m3 0.07 µg/m3 76.1 µg/m3 27.42 µg/m3 11.7 µg/m3 0.27 mg/m3 23.63 °C 51.3 % 1,014.40 mbar 1.72 m/s 311.98 Deg 12.41 µg/m3 1.84 µg/m3
2023-05-27 09:00 28.87 µg/m3 0.01 µg/m3 69.12 µg/m3 33.11 µg/m3 12.41 µg/m3 0.22 mg/m3 22.78 °C 54.46 % 1,014.36 mbar 1.73 m/s 313.37 Deg 8.7 µg/m3 1.73 µg/m3
2023-05-27 08:00 29.19 µg/m3 0.05 µg/m3 63.35 µg/m3 35.56 µg/m3 13.37 µg/m3 0.24 mg/m3 22.08 °C 59.37 % 1,014.28 mbar 1.42 m/s 308.88 Deg 7.42 µg/m3 2.2 µg/m3
2023-05-27 07:00 43.34 µg/m3 0.19 µg/m3 44.42 µg/m3 40.41 µg/m3 18.68 µg/m3 0.31 mg/m3 20.86 °C 67.42 % 1,014.14 mbar 0.7 m/s 303.4 Deg 17.28 µg/m3 2.41 µg/m3
2023-05-27 06:00 42.21 µg/m3 0.06 µg/m3 35.37 µg/m3 27.11 µg/m3 19.32 µg/m3 0.3 mg/m3 19.26 °C 77.25 % 1,014.00 mbar 0.72 m/s 211.03 Deg 6.39 µg/m3 1.89 µg/m3
2023-05-27 05:00 39.87 µg/m3 0.02 µg/m3 29.54 µg/m3 25.69 µg/m3 18.27 µg/m3 0.25 mg/m3 18.84 °C 79.23 % 1,013.76 mbar 0.43 m/s 221.42 Deg 4.24 µg/m3 1.05 µg/m3
2023-05-27 04:00 12.05 µg/m3 -0.06 µg/m3 60.28 µg/m3 21.44 µg/m3 17.12 µg/m3 0.19 mg/m3 18.51 °C 85.29 % 1,013.69 mbar 0.77 m/s 221 Deg 0.57 µg/m3 0.84 µg/m3
2023-05-27 03:00 8.35 µg/m3 -0.07 µg/m3 66.85 µg/m3 22.6 µg/m3 18.15 µg/m3 0.2 mg/m3 18.56 °C 86.98 % 1,013.69 mbar 0.88 m/s 230.2 Deg 0.04 µg/m3 1.1 µg/m3
2023-05-27 02:00 10.78 µg/m3 -0.01 µg/m3 70.73 µg/m3 22.83 µg/m3 18.8 µg/m3 0.21 mg/m3 18.66 °C 86.09 % 1,013.87 mbar 1.51 m/s 253.82 Deg 1.03 µg/m3 1.36 µg/m3
2023-05-27 01:00 14.61 µg/m3 -0.01 µg/m3 69.4 µg/m3 26.42 µg/m3 21.93 µg/m3 0.3 mg/m3 18.75 °C 86.79 % 1,014.24 mbar 1.3 m/s 231.18 Deg 0.63 µg/m3 1.84 µg/m3
2023-05-27 00:00 19.92 µg/m3 0.03 µg/m3 63.59 µg/m3 30.16 µg/m3 23.43 µg/m3 0.37 mg/m3 19.33 °C 80.46 % 1,014.62 mbar 1.08 m/s 225.72 Deg 0.53 µg/m3 4.09 µg/m3
2023-05-26 23:00 59.96 µg/m3 0.18 µg/m3 24.52 µg/m3 37.44 µg/m3 17.92 µg/m3 0.52 mg/m3 20.32 °C 62.38 % 1,014.80 mbar 0.77 m/s 235.48 Deg 6.64 µg/m3 3.25 µg/m3
2023-05-26 22:00 49.89 µg/m3 0.06 µg/m3 37.68 µg/m3 31.03 µg/m3 15.92 µg/m3 0.35 mg/m3 20.72 °C 60.6 % 1,014.92 mbar 0.77 m/s 221.33 Deg 2.88 µg/m3 2.41 µg/m3
2023-05-26 21:00 37.76 µg/m3 0.03 µg/m3 60.57 µg/m3 25.4 µg/m3 14.69 µg/m3 0.29 mg/m3 21.02 °C 58.81 % 1,014.70 mbar 1.18 m/s 266.27 Deg 1.92 µg/m3 2.36 µg/m3
2023-05-26 20:00 43.05 µg/m3 -0.04 µg/m3 60.21 µg/m3 30.64 µg/m3 15.22 µg/m3 0.32 mg/m3 21.4 °C 57.25 % 1,014.54 mbar 1.01 m/s 289.68 Deg 4.09 µg/m3 2.26 µg/m3
2023-05-26 19:00 35.03 µg/m3 -0.01 µg/m3 72.75 µg/m3 21.6 µg/m3 12.18 µg/m3 0.26 mg/m3 22.1 °C 52.87 % 1,014.55 mbar 1.98 m/s 302.77 Deg 4.68 µg/m3 2.05 µg/m3
2023-05-26 18:00 35.58 µg/m3 -0.02 µg/m3 78.61 µg/m3 20.64 µg/m3 11.62 µg/m3 0.23 mg/m3 22.7 °C 49.51 % 1,014.32 mbar 2 m/s 298.9 Deg 5.81 µg/m3 2.2 µg/m3
2023-05-26 17:00 29.22 µg/m3 0.03 µg/m3 90.15 µg/m3 22.94 µg/m3 11.78 µg/m3 0.22 mg/m3 22.38 °C 52.13 % 1,014.46 mbar 2.54 m/s 302.73 Deg 7.02 µg/m3 1.84 µg/m3
2023-05-26 16:00 26.25 µg/m3 0.02 µg/m3 89.66 µg/m3 34.61 µg/m3 13.63 µg/m3 0.23 mg/m3 22.42 °C 54.38 % 1,014.40 mbar 1.81 m/s 326.98 Deg 12.09 µg/m3 2.2 µg/m3
2023-05-26 15:00 40.87 µg/m3 0.27 µg/m3 82.29 µg/m3 55.23 µg/m3 17.33 µg/m3 0.32 mg/m3 22.2 °C 58.26 % 1,014.75 mbar 2.03 m/s 193.23 Deg 26.57 µg/m3 1.89 µg/m3
2023-05-26 14:00 36.48 µg/m3 0.2 µg/m3 85.21 µg/m3 62.03 µg/m3 20.73 µg/m3 0.31 mg/m3 21.25 °C 66.16 % 1,015.02 mbar 3.05 m/s 40.75 Deg 28.16 µg/m3 1.89 µg/m3
2023-05-26 13:00 29.76 µg/m3 0.19 µg/m3 86.74 µg/m3 81.36 µg/m3 24.37 µg/m3 0.34 mg/m3 20.62 °C 70.95 % 1,015.20 mbar 3.45 m/s 41.18 Deg 24.37 µg/m3 2.1 µg/m3
2023-05-26 12:00 36.17 µg/m3 0.31 µg/m3 78.72 µg/m3 65.83 µg/m3 24.37 µg/m3 0.35 mg/m3 20.06 °C 75.31 % 1,014.92 mbar 4.03 m/s 60.47 Deg 33.13 µg/m3 1.89 µg/m3
2023-05-26 11:00 32.62 µg/m3 0.35 µg/m3 76.85 µg/m3 65.85 µg/m3 24.2 µg/m3 0.36 mg/m3 20.13 °C 73.57 % 1,014.52 mbar 4.05 m/s 55.55 Deg 33.88 µg/m3 2.41 µg/m3
2023-05-26 10:00 21.61 µg/m3 0.26 µg/m3 78.12 µg/m3 79.07 µg/m3 25.57 µg/m3 0.39 mg/m3 20.13 °C 73.73 % 1,014.07 mbar 4.35 m/s 50.73 Deg 26.07 µg/m3 2.15 µg/m3
2023-05-26 09:00 29.58 µg/m3 0.23 µg/m3 75.92 µg/m3 90.39 µg/m3 33.93 µg/m3 0.31 mg/m3 19.7 °C 76.13 % 1,013.69 mbar 4.33 m/s 47.47 Deg 26.06 µg/m3 1.78 µg/m3
2023-05-26 08:00 30.59 µg/m3 0.16 µg/m3 71.14 µg/m3 41.84 µg/m3 28.13 µg/m3 0.33 mg/m3 19.27 °C 81.46 % 1,013.12 mbar 3.5 m/s 40.8 Deg 21.35 µg/m3 2.1 µg/m3
2023-05-26 07:00 27.74 µg/m3 0.22 µg/m3 63.66 µg/m3 14.76 µg/m3 11.94 µg/m3 0.35 mg/m3 18.76 °C 86.97 % 1,012.39 mbar 2.97 m/s 36.48 Deg 22.75 µg/m3 2.15 µg/m3
2023-05-26 06:00 21.99 µg/m3 0.17 µg/m3 66.9 µg/m3 14.48 µg/m3 12.08 µg/m3 0.31 mg/m3 18.52 °C 89.07 % 1,012.11 mbar 3.15 m/s 39.68 Deg 18.59 µg/m3 1.21 µg/m3
2023-05-26 05:00 12.36 µg/m3 -0.02 µg/m3 73.44 µg/m3 13.46 µg/m3 11.33 µg/m3 0.17 mg/m3 18.53 °C 89.52 % 1,011.81 mbar 4.14 m/s 47.23 Deg 5.53 µg/m3 0.79 µg/m3
2023-05-26 04:00 7.44 µg/m3 -0.1 µg/m3 78.16 µg/m3 14.16 µg/m3 11.79 µg/m3 0.16 mg/m3 18.46 °C 89.4 % 1,011.23 mbar 2.82 m/s 38.23 Deg 2.41 µg/m3 0.63 µg/m3
2023-05-26 03:00 5.93 µg/m3 -0.16 µg/m3 85.35 µg/m3 15.5 µg/m3 12.12 µg/m3 0.36 mg/m3 18.44 °C 90.23 % 1,011.92 mbar 2.8 m/s 50.28 Deg 1.34 µg/m3 0.68 µg/m3
2023-05-26 02:00 2.35 µg/m3 -0.11 µg/m3 91.44 µg/m3 15.5 µg/m3 12.28 µg/m3 0.35 mg/m3 18.48 °C 87.49 % 1,012.31 mbar 5.38 m/s 52.02 Deg 0.55 µg/m3 0.68 µg/m3
2023-05-26 01:00 1.65 µg/m3 -0.12 µg/m3 95.04 µg/m3 14.55 µg/m3 12.14 µg/m3 0.33 mg/m3 18.5 °C 85.03 % 1,011.92 mbar 7.54 m/s 49.05 Deg 0.98 µg/m3 0.68 µg/m3
2023-05-26 00:00 5.43 µg/m3 -0.09 µg/m3 93.76 µg/m3 12.97 µg/m3 11.16 µg/m3 0.34 mg/m3 18.78 °C 83.86 % 1,012.44 mbar 7.68 m/s 48.55 Deg 1.61 µg/m3 0.84 µg/m3
2023-05-25 23:00 21.16 µg/m3 -0.06 µg/m3 80.04 µg/m3 14.32 µg/m3 12.2 µg/m3 0.35 mg/m3 18.79 °C 86.18 % 1,012.20 mbar 5.96 m/s 46.9 Deg 4.68 µg/m3 0.89 µg/m3
2023-05-25 22:00 10.52 µg/m3 0.01 µg/m3 87.38 µg/m3 16.47 µg/m3 12.84 µg/m3 0.36 mg/m3 18.93 °C 85.22 % 1,012.29 mbar 6.8 m/s 49.87 Deg 5.45 µg/m3 0.79 µg/m3
2023-05-25 21:00 8.63 µg/m3 -0.01 µg/m3 88.64 µg/m3 13.62 µg/m3 11.28 µg/m3 0.35 mg/m3 18.86 °C 86.15 % 1,011.81 mbar 6.21 m/s 50.7 Deg 4.45 µg/m3 1.15 µg/m3
2023-05-25 20:00 16.55 µg/m3 0.1 µg/m3 84.47 µg/m3 16.13 µg/m3 12.14 µg/m3 0.4 mg/m3 19.06 °C 83.98 % 1,011.47 mbar 5.66 m/s 45.18 Deg 11.02 µg/m3 1.78 µg/m3
2023-05-25 19:00 26.1 µg/m3 0.25 µg/m3 82.38 µg/m3 19.51 µg/m3 14.28 µg/m3 0.49 mg/m3 19.24 °C 82.54 % 1,011.41 mbar 5.21 m/s 49.15 Deg 22.07 µg/m3 5.56 µg/m3
2023-05-25 18:00 37.74 µg/m3 0.53 µg/m3 84.67 µg/m3 19.51 µg/m3 14.32 µg/m3 0.52 mg/m3 19.6 °C 80.13 % 1,010.97 mbar 5.18 m/s 51.47 Deg 24.92 µg/m3 2.26 µg/m3
2023-05-25 17:00 24.63 µg/m3 0.14 µg/m3 97.16 µg/m3 17.37 µg/m3 12.92 µg/m3 0.5 mg/m3 19.79 °C 78.66 % 1,010.87 mbar 6.15 m/s 48.85 Deg 19.64 µg/m3 2.78 µg/m3
2023-05-25 16:00 24.65 µg/m3 0.06 µg/m3 97.29 µg/m3 19.91 µg/m3 12.27 µg/m3 0.43 mg/m3 19.96 °C 76.54 % 1,010.72 mbar 7.47 m/s 44.72 Deg 17.37 µg/m3 1.84 µg/m3
2023-05-25 15:00 24.74 µg/m3 0.11 µg/m3 92.2 µg/m3 16.54 µg/m3 12.12 µg/m3 0.43 mg/m3 19.73 °C 78.73 % 1,011.08 mbar 7.76 m/s 45.23 Deg 18.59 µg/m3 1.31 µg/m3
2023-05-25 14:00 17.17 µg/m3 0.09 µg/m3 95 µg/m3 14.33 µg/m3 11.12 µg/m3 0.37 mg/m3 19.66 °C 80.06 % 1,011.32 mbar 8.27 m/s 47.75 Deg 15.87 µg/m3 1.57 µg/m3
2023-05-25 13:00 11.1 µg/m3 0 µg/m3 94.32 µg/m3 12.88 µg/m3 10.46 µg/m3 0.35 mg/m3 19.54 °C 82.78 % 1,011.69 mbar 7.96 m/s 50.93 Deg 15.4 µg/m3 1.63 µg/m3
2023-05-25 12:00 16.72 µg/m3 0.09 µg/m3 93.23 µg/m3 15.4 µg/m3 12.01 µg/m3 0.31 mg/m3 19.49 °C 83.69 % 1,011.98 mbar 7.22 m/s 52.12 Deg 14.79 µg/m3 56 µg/m3
2023-05-25 11:00 0 µg/m3 0 µg/m3 0 µg/m3 17.25 µg/m3 13.11 µg/m3 0 mg/m3 19.41 °C 82.94 % 1,011.97 mbar 6.93 m/s 53.12 Deg 0 µg/m3 58 µg/m3
2023-05-25 10:00 0 µg/m3 0 µg/m3 0 µg/m3 20.16 µg/m3 14.32 µg/m3 0 mg/m3 19.57 °C 80.88 % 1,011.80 mbar 5.57 m/s 51.05 Deg 0 µg/m3 30.08 µg/m3
2023-05-25 09:00 0 µg/m3 0 µg/m3 0 µg/m3 34.01 µg/m3 22.99 µg/m3 0 mg/m3 19.35 °C 82.78 % 1,011.53 mbar 3.96 m/s 41.12 Deg 0 µg/m3 2.47 µg/m3
2023-05-25 08:00 21.12 µg/m3 0.22 µg/m3 75.63 µg/m3 27.44 µg/m3 19.13 µg/m3 0.34 mg/m3 18.95 °C 85.96 % 1,011.03 mbar 4.79 m/s 41.68 Deg 20.57 µg/m3 1.68 µg/m3
2023-05-25 07:00 20.83 µg/m3 0.16 µg/m3 80.22 µg/m3 15.32 µg/m3 12.29 µg/m3 0.31 mg/m3 18.6 °C 86.26 % 1,010.69 mbar 6.17 m/s 47.93 Deg 18.51 µg/m3 1.63 µg/m3
2023-05-25 06:00 16.98 µg/m3 0.13 µg/m3 79.43 µg/m3 18.07 µg/m3 13.18 µg/m3 0.3 mg/m3 18.7 °C 84.33 % 1,011.10 mbar 4.14 m/s 44.53 Deg 19.43 µg/m3 0.89 µg/m3
2023-05-25 05:00 14.29 µg/m3 0.02 µg/m3 83.34 µg/m3 16.71 µg/m3 12.33 µg/m3 0.18 mg/m3 18.69 °C 82.99 % 1,011.14 mbar 3.73 m/s 44.3 Deg 5.72 µg/m3 0.94 µg/m3
2023-05-25 04:00 6.01 µg/m3 0.03 µg/m3 84.48 µg/m3 16.29 µg/m3 12.13 µg/m3 0.16 mg/m3 18.65 °C 83.5 % 1,011.10 mbar 2.61 m/s 43.1 Deg 3.36 µg/m3 0.73 µg/m3
2023-05-25 03:00 4.55 µg/m3 -0.05 µg/m3 89.61 µg/m3 15.17 µg/m3 12.07 µg/m3 0.16 mg/m3 18.6 °C 85.07 % 1,010.55 mbar 3.98 m/s 35.07 Deg 0.58 µg/m3 0.68 µg/m3
2023-05-25 02:00 9.05 µg/m3 -0.06 µg/m3 88.67 µg/m3 15.74 µg/m3 12.69 µg/m3 0.18 mg/m3 18.62 °C 84.52 % 1,011.57 mbar 4.06 m/s 57.53 Deg 1.5 µg/m3 0.84 µg/m3
2023-05-25 01:00 5.42 µg/m3 -0.05 µg/m3 91.74 µg/m3 16.09 µg/m3 12.89 µg/m3 0.18 mg/m3 18.64 °C 84.15 % 1,011.28 mbar 4.54 m/s 50.02 Deg 1.05 µg/m3 0.89 µg/m3
2023-05-25 00:00 8.35 µg/m3 0 µg/m3 87.6 µg/m3 15.89 µg/m3 12.91 µg/m3 0.18 mg/m3 18.7 °C 83.64 % 1,011.01 mbar 5.2 m/s 52.65 Deg 2.92 µg/m3 0.94 µg/m3
2023-05-24 23:00 10.36 µg/m3 0.08 µg/m3 88.47 µg/m3 16.89 µg/m3 13.49 µg/m3 0.21 mg/m3 18.75 °C 83.28 % 1,011.13 mbar 5.52 m/s 54.38 Deg 4.96 µg/m3 1.05 µg/m3
2023-05-24 22:00 13.9 µg/m3 0.01 µg/m3 95.51 µg/m3 18.14 µg/m3 14.6 µg/m3 0.22 mg/m3 18.74 °C 85.08 % 1,011.30 mbar 5.51 m/s 55.05 Deg 4.83 µg/m3 1.1 µg/m3
2023-05-24 21:00 15.31 µg/m3 0.06 µg/m3 98.41 µg/m3 19.51 µg/m3 15.64 µg/m3 0.25 mg/m3 18.65 °C 87.93 % 1,011.07 mbar 5.49 m/s 56.8 Deg 6.54 µg/m3 1.15 µg/m3
2023-05-24 20:00 22.78 µg/m3 0.08 µg/m3 93.26 µg/m3 20.73 µg/m3 16.47 µg/m3 0.27 mg/m3 18.78 °C 87.78 % 1,011.04 mbar 5.45 m/s 60.45 Deg 9.2 µg/m3 1.52 µg/m3
2023-05-24 19:00 23.62 µg/m3 0.18 µg/m3 95.93 µg/m3 21.93 µg/m3 17.09 µg/m3 0.34 mg/m3 18.94 °C 86.39 % 1,011.01 mbar 5.61 m/s 60.12 Deg 15.83 µg/m3 1.52 µg/m3
2023-05-24 18:00 22.17 µg/m3 0.19 µg/m3 90.68 µg/m3 22.14 µg/m3 16.68 µg/m3 0.32 mg/m3 19.14 °C 84.76 % 1,010.75 mbar 5.82 m/s 58.53 Deg 19.18 µg/m3 1.63 µg/m3
2023-05-24 17:00 22.21 µg/m3 0.19 µg/m3 91.27 µg/m3 18.99 µg/m3 14.78 µg/m3 0.37 mg/m3 19.21 °C 83.82 % 1,011.00 mbar 6.67 m/s 56.08 Deg 17.89 µg/m3 2.1 µg/m3
2023-05-24 16:00 25.33 µg/m3 0.22 µg/m3 93.92 µg/m3 19.04 µg/m3 14.74 µg/m3 0.34 mg/m3 19.27 °C 83.58 % 1,011.25 mbar 7 m/s 55.37 Deg 21.18 µg/m3 1.78 µg/m3
2023-05-24 15:00 23.24 µg/m3 0.2 µg/m3 93.39 µg/m3 18.91 µg/m3 14.65 µg/m3 0.35 mg/m3 19.42 °C 82.62 % 1,011.68 mbar 6.79 m/s 53.75 Deg 22.75 µg/m3 1.94 µg/m3
2023-05-24 14:00 20.65 µg/m3 0.13 µg/m3 94.61 µg/m3 20.4 µg/m3 15.54 µg/m3 0.32 mg/m3 19.46 °C 82.38 % 1,012.46 mbar 6.74 m/s 61.47 Deg 18.42 µg/m3 1.15 µg/m3
2023-05-24 13:00 20.53 µg/m3 0.14 µg/m3 97.91 µg/m3 18.62 µg/m3 14.17 µg/m3 0.29 mg/m3 19.43 °C 81.34 % 1,012.74 mbar 7.26 m/s 55.42 Deg 16.97 µg/m3 1.73 µg/m3
2023-05-24 12:00 20.96 µg/m3 0.17 µg/m3 93.18 µg/m3 20.5 µg/m3 14.68 µg/m3 0.31 mg/m3 19.52 °C 80.83 % 1,013.11 mbar 6.52 m/s 62.52 Deg 18.2 µg/m3 1.36 µg/m3
2023-05-24 11:00 22.29 µg/m3 0.2 µg/m3 89.95 µg/m3 20.12 µg/m3 14.53 µg/m3 0.3 mg/m3 19.38 °C 81.61 % 1,013.19 mbar 6.61 m/s 57.32 Deg 21.8 µg/m3 1.52 µg/m3
2023-05-24 10:00 26.23 µg/m3 0.2 µg/m3 85.23 µg/m3 19.32 µg/m3 14.42 µg/m3 0.31 mg/m3 19.35 °C 81.63 % 1,013.09 mbar 5.94 m/s 60.58 Deg 19.77 µg/m3 1.68 µg/m3
2023-05-24 09:00 29.16 µg/m3 0.24 µg/m3 81.04 µg/m3 20.2 µg/m3 14.79 µg/m3 0.3 mg/m3 19.03 °C 82.91 % 1,012.89 mbar 6 m/s 53.35 Deg 19.96 µg/m3 1.99 µg/m3
2023-05-24 08:00 27.19 µg/m3 0.28 µg/m3 69.58 µg/m3 21.17 µg/m3 15.13 µg/m3 0.35 mg/m3 18.88 °C 83.97 % 1,012.76 mbar 4.9 m/s 56.65 Deg 29.68 µg/m3 2.41 µg/m3
2023-05-24 07:00 37.96 µg/m3 0.35 µg/m3 57.3 µg/m3 20.95 µg/m3 14.81 µg/m3 0.37 mg/m3 18.57 °C 85.34 % 1,012.67 mbar 3.88 m/s 56.15 Deg 30.65 µg/m3 2.15 µg/m3
2023-05-24 06:00 32.67 µg/m3 0.26 µg/m3 58.25 µg/m3 18.52 µg/m3 13.64 µg/m3 0.39 mg/m3 18.22 °C 85.98 % 1,012.47 mbar 3.37 m/s 57.18 Deg 24.82 µg/m3 1.15 µg/m3
2023-05-24 05:00 22.08 µg/m3 0.07 µg/m3 68.18 µg/m3 13.96 µg/m3 10.98 µg/m3 0.21 mg/m3 18.11 °C 85.99 % 1,012.31 mbar 3.03 m/s 60.87 Deg 8.89 µg/m3 1 µg/m3
2023-05-24 04:00 16.99 µg/m3 0 µg/m3 76.67 µg/m3 12.17 µg/m3 9.91 µg/m3 0.17 mg/m3 18.17 °C 85.66 % 1,012.29 mbar 2.53 m/s 55.52 Deg 3.12 µg/m3 0.84 µg/m3
2023-05-24 03:00 9.32 µg/m3 -0.08 µg/m3 78.77 µg/m3 11.52 µg/m3 9.38 µg/m3 0.18 mg/m3 18.19 °C 86.02 % 1,012.36 mbar 2.75 m/s 51.25 Deg 1.5 µg/m3 0.79 µg/m3
2023-05-24 02:00 10.32 µg/m3 -0.05 µg/m3 73.17 µg/m3 12.99 µg/m3 10.98 µg/m3 0.18 mg/m3 18.21 °C 85.9 % 1,012.30 mbar 3.11 m/s 54.88 Deg 0.97 µg/m3 0.73 µg/m3
2023-05-24 01:00 12.87 µg/m3 0.05 µg/m3 74.61 µg/m3 13.91 µg/m3 11.26 µg/m3 0.18 mg/m3 18.23 °C 85.82 % 1,012.58 mbar 2.99 m/s 61.47 Deg 2.95 µg/m3 0.94 µg/m3
2023-05-24 00:00 13.15 µg/m3 -0.05 µg/m3 82.18 µg/m3 12.04 µg/m3 9.41 µg/m3 0.19 mg/m3 18.34 °C 85.29 % 1,012.78 mbar 3.43 m/s 61.08 Deg 3.09 µg/m3 1.15 µg/m3
2023-05-23 23:00 10.61 µg/m3 -0.01 µg/m3 84.03 µg/m3 11.74 µg/m3 9.13 µg/m3 0.22 mg/m3 18.44 °C 85.68 % 1,012.60 mbar 4.09 m/s 52.53 Deg 4.13 µg/m3 1.21 µg/m3
2023-05-23 22:00 20.13 µg/m3 0.09 µg/m3 78.29 µg/m3 13.5 µg/m3 10.27 µg/m3 0.24 mg/m3 18.56 °C 83.85 % 1,013.01 mbar 3.49 m/s 58.73 Deg 10.71 µg/m3 1.31 µg/m3
2023-05-23 21:00 22.01 µg/m3 0.13 µg/m3 75.61 µg/m3 15.16 µg/m3 11.18 µg/m3 0.28 mg/m3 18.69 °C 81.81 % 1,013.06 mbar 2.74 m/s 67 Deg 12.46 µg/m3 1.63 µg/m3
2023-05-23 20:00 23.61 µg/m3 0.2 µg/m3 72.38 µg/m3 15.96 µg/m3 11.81 µg/m3 0.28 mg/m3 18.7 °C 82.72 % 1,012.54 mbar 3.33 m/s 60.67 Deg 19.76 µg/m3 0.37 µg/m3
2023-05-23 19:00 21.61 µg/m3 0.21 µg/m3 83.42 µg/m3 18.34 µg/m3 13.32 µg/m3 0.3 mg/m3 18.81 °C 81.29 % 1,012.34 mbar 4.12 m/s 53.73 Deg 21.38 µg/m3 2.99 µg/m3
2023-05-23 18:00 29.09 µg/m3 0.27 µg/m3 88.13 µg/m3 21.34 µg/m3 14.3 µg/m3 0.35 mg/m3 19.06 °C 79.21 % 1,012.62 mbar 3.92 m/s 55.4 Deg 24.32 µg/m3 2.62 µg/m3
2023-05-23 17:00 29.08 µg/m3 0.29 µg/m3 79.18 µg/m3 23.4 µg/m3 12.31 µg/m3 0.37 mg/m3 19.62 °C 73.49 % 1,012.98 mbar 4.48 m/s 52.73 Deg 28.65 µg/m3 2.31 µg/m3
2023-05-23 16:00 29.73 µg/m3 0.24 µg/m3 77.87 µg/m3 24.93 µg/m3 11.29 µg/m3 0.31 mg/m3 20.44 °C 65.69 % 1,013.35 mbar 3.58 m/s 162.48 Deg 24.79 µg/m3 2.2 µg/m3
2023-05-23 15:00 33.33 µg/m3 0.31 µg/m3 79.18 µg/m3 31.99 µg/m3 14.1 µg/m3 0.36 mg/m3 20.27 °C 71.66 % 1,013.70 mbar 3.76 m/s 51.45 Deg 31.62 µg/m3 2.1 µg/m3
2023-05-23 14:00 33.11 µg/m3 0.28 µg/m3 78.43 µg/m3 29.94 µg/m3 12.98 µg/m3 0.31 mg/m3 20.3 °C 70.37 % 1,013.68 mbar 4.05 m/s 66.02 Deg 31.15 µg/m3 2.2 µg/m3
2023-05-23 13:00 28.11 µg/m3 0.27 µg/m3 82.94 µg/m3 32.89 µg/m3 13.23 µg/m3 0.31 mg/m3 20.47 °C 68.5 % 1,013.63 mbar 4.01 m/s 59.75 Deg 24.47 µg/m3 1.78 µg/m3
2023-05-23 12:00 27.68 µg/m3 0.2 µg/m3 78.43 µg/m3 32.32 µg/m3 12.99 µg/m3 0.3 mg/m3 20.54 °C 68.42 % 1,013.74 mbar 3.69 m/s 132.57 Deg 22.95 µg/m3 1.89 µg/m3
2023-05-23 11:00 34.14 µg/m3 0.33 µg/m3 72.08 µg/m3 36 µg/m3 15.03 µg/m3 0.32 mg/m3 20.17 °C 71.14 % 1,013.72 mbar 2.94 m/s 139.47 Deg 29.77 µg/m3 2.36 µg/m3
2023-05-23 10:00 39.89 µg/m3 0.44 µg/m3 70.79 µg/m3 43.31 µg/m3 17.32 µg/m3 0.38 mg/m3 19.82 °C 73.09 % 1,013.89 mbar 3.06 m/s 77.13 Deg 38.34 µg/m3 2.41 µg/m3
2023-05-23 09:00 37.55 µg/m3 0.4 µg/m3 73 µg/m3 28.84 µg/m3 14.98 µg/m3 0.37 mg/m3 18.67 °C 80.66 % 1,013.27 mbar 3.34 m/s 61.35 Deg 34.79 µg/m3 2.26 µg/m3
2023-05-23 08:00 27.4 µg/m3 0.38 µg/m3 77.16 µg/m3 20.26 µg/m3 13.71 µg/m3 0.34 mg/m3 18.11 °C 82.78 % 1,012.57 mbar 3.85 m/s 58.08 Deg 32.14 µg/m3 2.15 µg/m3
2023-05-23 07:00 21.14 µg/m3 0.22 µg/m3 80.47 µg/m3 15.49 µg/m3 10.47 µg/m3 0.33 mg/m3 17.66 °C 85.26 % 1,011.94 mbar 4.34 m/s 47.7 Deg 23.89 µg/m3 3.1 µg/m3
2023-05-23 06:00 17.99 µg/m3 0.2 µg/m3 76.78 µg/m3 16.03 µg/m3 11.72 µg/m3 0.31 mg/m3 17.43 °C 86.17 % 1,011.53 mbar 4.49 m/s 48.82 Deg 20.22 µg/m3 1.36 µg/m3
2023-05-23 05:00 9.82 µg/m3 0.03 µg/m3 73.4 µg/m3 14.59 µg/m3 11.35 µg/m3 0.19 mg/m3 17.52 °C 86.9 % 1,011.71 mbar 3.49 m/s 49.67 Deg 8.48 µg/m3 1.1 µg/m3
2023-05-23 04:00 7.47 µg/m3 0.06 µg/m3 83.51 µg/m3 11.66 µg/m3 9.41 µg/m3 0.17 mg/m3 17.64 °C 84.24 % 1,011.71 mbar 2.26 m/s 46.47 Deg 1.82 µg/m3 0.89 µg/m3
2023-05-23 03:00 8.07 µg/m3 -0.05 µg/m3 81.76 µg/m3 13.26 µg/m3 11.78 µg/m3 0.18 mg/m3 17.68 °C 85.79 % 1,012.03 mbar 2.11 m/s 42.77 Deg 1.32 µg/m3 1.05 µg/m3
2023-05-23 02:00 9.06 µg/m3 0.02 µg/m3 83.7 µg/m3 14.68 µg/m3 11.98 µg/m3 0.2 mg/m3 18.07 °C 84.64 % 1,012.54 mbar 1.02 m/s 30.5 Deg 1.11 µg/m3 1.1 µg/m3
2023-05-23 01:00 16.55 µg/m3 0.05 µg/m3 76.13 µg/m3 18.35 µg/m3 12.74 µg/m3 0.2 mg/m3 18.2 °C 80.21 % 1,012.86 mbar 0.57 m/s 113.82 Deg 1.86 µg/m3 1.1 µg/m3
2023-05-23 00:00 15.6 µg/m3 0.06 µg/m3 78.67 µg/m3 15.93 µg/m3 11.18 µg/m3 0.23 mg/m3 18.17 °C 79.7 % 1,012.73 mbar 1.25 m/s 41.9 Deg 5.13 µg/m3 1.73 µg/m3
2023-05-22 23:00 18.32 µg/m3 0.11 µg/m3 79.8 µg/m3 17.94 µg/m3 12.28 µg/m3 0.27 mg/m3 18.23 °C 78.86 % 1,012.82 mbar 1.34 m/s 51.17 Deg 7.8 µg/m3 1.78 µg/m3
2023-05-22 22:00 19.73 µg/m3 0.14 µg/m3 78.4 µg/m3 21.44 µg/m3 14.57 µg/m3 0.29 mg/m3 18.45 °C 78.11 % 1,012.72 mbar 1.13 m/s 30.23 Deg 7.35 µg/m3 1.63 µg/m3
2023-05-22 21:00 24.05 µg/m3 0.19 µg/m3 79.58 µg/m3 21.43 µg/m3 14.61 µg/m3 0.3 mg/m3 18.53 °C 76.91 % 1,012.05 mbar 1.33 m/s 39.52 Deg 11.01 µg/m3 1.89 µg/m3
2023-05-22 20:00 34.42 µg/m3 0.2 µg/m3 70.79 µg/m3 24.19 µg/m3 16.21 µg/m3 0.34 mg/m3 18.7 °C 76.61 % 1,011.31 mbar 1.05 m/s 33.48 Deg 17.52 µg/m3 2.2 µg/m3
2023-05-22 19:00 33.26 µg/m3 0.25 µg/m3 72.34 µg/m3 38.88 µg/m3 18.86 µg/m3 0.38 mg/m3 19.15 °C 75.09 % 1,010.89 mbar 1.53 m/s 33.2 Deg 23.79 µg/m3 2.57 µg/m3
2023-05-22 18:00 32.74 µg/m3 0.19 µg/m3 77.2 µg/m3 65.94 µg/m3 18.63 µg/m3 0.32 mg/m3 19.7 °C 70.59 % 1,010.65 mbar 1.39 m/s 102.57 Deg 16.11 µg/m3 2.83 µg/m3
2023-05-22 17:00 33.69 µg/m3 0.33 µg/m3 79.16 µg/m3 58.9 µg/m3 18.15 µg/m3 0.37 mg/m3 19.79 °C 69.82 % 1,010.56 mbar 1.98 m/s 111.6 Deg 25.36 µg/m3 2.83 µg/m3
2023-05-22 16:00 34.9 µg/m3 0.33 µg/m3 81.25 µg/m3 48.03 µg/m3 16.5 µg/m3 0.37 mg/m3 19.79 °C 69.28 % 1,010.49 mbar 2.65 m/s 46.48 Deg 27.75 µg/m3 2.57 µg/m3
2023-05-22 15:00 38.23 µg/m3 0.42 µg/m3 75.52 µg/m3 54.17 µg/m3 18.3 µg/m3 0.4 mg/m3 19.48 °C 73.41 % 1,010.31 mbar 2.65 m/s 55.8 Deg 37.53 µg/m3 1.84 µg/m3
2023-05-22 14:00 27.56 µg/m3 0.19 µg/m3 82.34 µg/m3 45.68 µg/m3 14.72 µg/m3 0.29 mg/m3 20.12 °C 72.36 % 1,010.20 mbar 2.5 m/s 101.27 Deg 20.24 µg/m3 1.36 µg/m3
2023-05-22 13:00 21.47 µg/m3 0.11 µg/m3 78.94 µg/m3 39.42 µg/m3 13.53 µg/m3 0.26 mg/m3 20.26 °C 73.2 % 1,010.13 mbar 2.09 m/s 312.75 Deg 9.42 µg/m3 1.42 µg/m3
2023-05-22 12:00 24.95 µg/m3 0.17 µg/m3 71.66 µg/m3 24.86 µg/m3 10.97 µg/m3 0.29 mg/m3 19.23 °C 79.16 % 1,010.25 mbar 1.98 m/s 276.73 Deg 8.17 µg/m3 2.31 µg/m3
2023-05-22 11:00 37.81 µg/m3 0.33 µg/m3 66.38 µg/m3 28.97 µg/m3 19.77 µg/m3 0.39 mg/m3 18.02 °C 84.27 % 1,010.09 mbar 1.9 m/s 110.6 Deg 23.99 µg/m3 2.41 µg/m3
2023-05-22 10:00 35.33 µg/m3 0.42 µg/m3 68.36 µg/m3 114.9 µg/m3 45.86 µg/m3 0.38 mg/m3 17.53 °C 84.74 % 1,009.85 mbar 1.71 m/s 56.15 Deg 34.48 µg/m3 2.26 µg/m3
2023-05-22 09:00 47.99 µg/m3 0.48 µg/m3 60.14 µg/m3 8.16 µg/m3 6.41 µg/m3 0.39 mg/m3 16.67 °C 89.76 % 1,009.67 mbar 1.32 m/s 54.73 Deg 36.49 µg/m3 2.52 µg/m3
2023-05-22 08:00 36.92 µg/m3 0.39 µg/m3 57.45 µg/m3 12.25 µg/m3 8.93 µg/m3 0.37 mg/m3 16.75 °C 88.75 % 1,009.42 mbar 2.28 m/s 106.38 Deg 27.49 µg/m3 3.2 µg/m3
2023-05-22 07:00 54.33 µg/m3 0.2 µg/m3 31.03 µg/m3 17.31 µg/m3 11.6 µg/m3 0.43 mg/m3 17.57 °C 86.42 % 1,009.02 mbar 1.68 m/s 261.48 Deg 18.65 µg/m3 2.52 µg/m3
2023-05-22 06:00 41.23 µg/m3 0.15 µg/m3 40.09 µg/m3 13.71 µg/m3 9.39 µg/m3 0.36 mg/m3 17.48 °C 87.05 % 1,008.73 mbar 1.78 m/s 248.1 Deg 14.03 µg/m3 1.26 µg/m3
2023-05-22 05:00 16.7 µg/m3 -0.07 µg/m3 63.85 µg/m3 12.28 µg/m3 8.81 µg/m3 0.2 mg/m3 17.45 °C 87.56 % 1,008.67 mbar 1.54 m/s 251.6 Deg 1.11 µg/m3 0.94 µg/m3
2023-05-22 04:00 8.78 µg/m3 -0.08 µg/m3 70.72 µg/m3 12.01 µg/m3 9.22 µg/m3 0.17 mg/m3 17.63 °C 87.55 % 1,008.77 mbar 1.47 m/s 239.43 Deg 0.57 µg/m3 0.79 µg/m3
2023-05-22 03:00 6.81 µg/m3 -0.04 µg/m3 69.62 µg/m3 13.44 µg/m3 11.02 µg/m3 0.18 mg/m3 17.67 °C 86.44 % 1,008.91 mbar 1.47 m/s 250.95 Deg 0.16 µg/m3 1.05 µg/m3
2023-05-22 02:00 7.47 µg/m3 -0.1 µg/m3 67.92 µg/m3 16.13 µg/m3 13.57 µg/m3 0.18 mg/m3 17.47 °C 86.82 % 1,008.96 mbar 1.59 m/s 254.7 Deg -0.09 µg/m3 1 µg/m3
2023-05-22 01:00 10.83 µg/m3 -0.02 µg/m3 69.71 µg/m3 17.5 µg/m3 13.87 µg/m3 0.2 mg/m3 17.39 °C 87.62 % 1,008.84 mbar 0.95 m/s 285.83 Deg 0.33 µg/m3 1.21 µg/m3
2023-05-22 00:00 10.61 µg/m3 -0.03 µg/m3 70.61 µg/m3 18.31 µg/m3 14.62 µg/m3 0.21 mg/m3 17.54 °C 87.52 % 1,008.92 mbar 1.22 m/s 277.48 Deg 0.16 µg/m3 1.26 µg/m3
2023-05-21 23:00 14.6 µg/m3 -0.05 µg/m3 71.5 µg/m3 21.08 µg/m3 15.96 µg/m3 0.24 mg/m3 18.04 °C 82.73 % 1,009.06 mbar 0.99 m/s 280.03 Deg 0.19 µg/m3 1.42 µg/m3
2023-05-21 22:00 20.2 µg/m3 -0.02 µg/m3 67.12 µg/m3 16.55 µg/m3 12.81 µg/m3 0.28 mg/m3 17.77 °C 85.98 % 1,008.84 mbar 0.74 m/s 279.6 Deg 2.32 µg/m3 1.57 µg/m3
2023-05-21 21:00 15.67 µg/m3 -0.06 µg/m3 77.18 µg/m3 10.74 µg/m3 8.73 µg/m3 0.28 mg/m3 17.57 °C 88.86 % 1,008.59 mbar 0.97 m/s 174.6 Deg 3.65 µg/m3 1.26 µg/m3
2023-05-21 20:00 11.18 µg/m3 -0.05 µg/m3 82.61 µg/m3 10.62 µg/m3 8.41 µg/m3 0.23 mg/m3 17.91 °C 87.77 % 1,007.95 mbar 2.39 m/s 301.95 Deg 0.89 µg/m3 1.47 µg/m3
2023-05-21 19:00 14.84 µg/m3 -0.06 µg/m3 78.48 µg/m3 13.62 µg/m3 10.61 µg/m3 0.25 mg/m3 18 °C 86.6 % 1,007.37 mbar 2.38 m/s 281.9 Deg 1.47 µg/m3 1.42 µg/m3
2023-05-21 18:00 14.45 µg/m3 -0.05 µg/m3 76.07 µg/m3 11.23 µg/m3 8.86 µg/m3 0.27 mg/m3 18.3 °C 86.3 % 1,006.72 mbar 2.6 m/s 277.22 Deg 1.93 µg/m3 1.47 µg/m3
2023-05-21 17:00 19.63 µg/m3 -0.05 µg/m3 75.32 µg/m3 15.21 µg/m3 12.03 µg/m3 0.27 mg/m3 18.61 °C 88.42 % 1,006.35 mbar 2.41 m/s 289.65 Deg 2.78 µg/m3 1.68 µg/m3
2023-05-21 16:00 19.89 µg/m3 -0.05 µg/m3 78.78 µg/m3 19.37 µg/m3 14.37 µg/m3 0.31 mg/m3 18.55 °C 87.49 % 1,005.89 mbar 1.93 m/s 314.5 Deg 4.45 µg/m3 1.89 µg/m3
2023-05-21 15:00 14.45 µg/m3 -0.02 µg/m3 87.14 µg/m3 27.32 µg/m3 19.47 µg/m3 0.26 mg/m3 19.43 °C 82 % 1,005.20 mbar 2.37 m/s 327.27 Deg 4.88 µg/m3 1.15 µg/m3
2023-05-21 14:00 10.23 µg/m3 -0.06 µg/m3 95.04 µg/m3 20.95 µg/m3 15.27 µg/m3 0.22 mg/m3 20.09 °C 77.02 % 1,004.69 mbar 3.06 m/s 301.5 Deg 3.06 µg/m3 1.15 µg/m3
2023-05-21 13:00 19.76 µg/m3 0.01 µg/m3 85.6 µg/m3 14.43 µg/m3 8.74 µg/m3 0.27 mg/m3 19.52 °C 78.95 % 1,004.17 mbar 2.05 m/s 248.43 Deg 6.42 µg/m3 1.52 µg/m3
2023-05-21 12:00 17.1 µg/m3 0.04 µg/m3 88.34 µg/m3 18.18 µg/m3 12.4 µg/m3 0.29 mg/m3 19.25 °C 81.07 % 1,003.61 mbar 1.91 m/s 78.15 Deg 8.66 µg/m3 1.31 µg/m3
2023-05-21 11:00 10.56 µg/m3 -0.02 µg/m3 89.47 µg/m3 6.77 µg/m3 5.14 µg/m3 0.23 mg/m3 18.94 °C 83.04 % 1,003.71 mbar 2.33 m/s 217.83 Deg 1.65 µg/m3 1.1 µg/m3
2023-05-21 10:00 8.57 µg/m3 -0.05 µg/m3 84.61 µg/m3 9.1 µg/m3 6.63 µg/m3 0.2 mg/m3 18.87 °C 80.92 % 1,003.98 mbar 3.14 m/s 223.75 Deg 1 µg/m3 0.94 µg/m3
2023-05-21 09:00 10.8 µg/m3 -0.07 µg/m3 78.8 µg/m3 10.97 µg/m3 7.78 µg/m3 0.22 mg/m3 19.28 °C 79.34 % 1,003.89 mbar 2.9 m/s 245.9 Deg 2.51 µg/m3 1.15 µg/m3
2023-05-21 08:00 13.63 µg/m3 -0.03 µg/m3 69.19 µg/m3 13.73 µg/m3 10.39 µg/m3 0.22 mg/m3 18.29 °C 85.78 % 1,003.93 mbar 2.43 m/s 246.87 Deg 2.57 µg/m3 1.1 µg/m3
2023-05-21 07:00 12.52 µg/m3 -0.07 µg/m3 71.58 µg/m3 13.92 µg/m3 10.82 µg/m3 0.21 mg/m3 17.94 °C 88.38 % 1,003.82 mbar 2.23 m/s 251.75 Deg 1.47 µg/m3 0.94 µg/m3
2023-05-21 06:00 13.05 µg/m3 -0.05 µg/m3 73.92 µg/m3 9.72 µg/m3 7.71 µg/m3 0.2 mg/m3 17.6 °C 88.83 % 1,003.72 mbar 1.98 m/s 253.93 Deg 1.15 µg/m3 0.79 µg/m3
2023-05-21 05:00 6.77 µg/m3 -0.07 µg/m3 80.71 µg/m3 7.63 µg/m3 5.97 µg/m3 0.17 mg/m3 18.07 °C 87.16 % 1,003.47 mbar 1.92 m/s 253.48 Deg 0.1 µg/m3 0.73 µg/m3
2023-05-21 04:00 6.65 µg/m3 -0.15 µg/m3 78.43 µg/m3 13.68 µg/m3 9.5 µg/m3 0.17 mg/m3 18.37 °C 84.1 % 1,003.31 mbar 1.81 m/s 253.93 Deg 0.28 µg/m3 0.79 µg/m3
2023-05-21 03:00 3.72 µg/m3 -0.12 µg/m3 83.28 µg/m3 18.75 µg/m3 12.54 µg/m3 0.19 mg/m3 18.38 °C 83.13 % 1,003.41 mbar 1.62 m/s 238.13 Deg -0.13 µg/m3 0.94 µg/m3
2023-05-21 02:00 8.34 µg/m3 -0.11 µg/m3 77.31 µg/m3 26.88 µg/m3 17.93 µg/m3 0.2 mg/m3 18.26 °C 82.99 % 1,003.64 mbar 1.26 m/s 233.18 Deg -0.04 µg/m3 1.26 µg/m3
2023-05-21 01:00 22.03 µg/m3 -0.07 µg/m3 63.03 µg/m3 20.1 µg/m3 13.4 µg/m3 0.24 mg/m3 18.3 °C 81.56 % 1,004.04 mbar 1.02 m/s 234.35 Deg 0.6 µg/m3 1.47 µg/m3
2023-05-21 00:00 22.23 µg/m3 -0.09 µg/m3 66.66 µg/m3 10.97 µg/m3 7.38 µg/m3 0.25 mg/m3 18.55 °C 78.64 % 1,004.36 mbar 1.02 m/s 245.98 Deg 0.52 µg/m3 1.57 µg/m3
2023-05-20 23:00 21.52 µg/m3 -0.03 µg/m3 68.25 µg/m3 9.69 µg/m3 6.63 µg/m3 0.27 mg/m3 18.64 °C 77.67 % 1,004.58 mbar 1.03 m/s 253.22 Deg 0.67 µg/m3 1.57 µg/m3
2023-05-20 22:00 15.36 µg/m3 -0.1 µg/m3 76.75 µg/m3 8.2 µg/m3 5.66 µg/m3 0.25 mg/m3 18.65 °C 78.25 % 1,004.32 mbar 1.69 m/s 218.52 Deg 0.37 µg/m3 1.42 µg/m3
2023-05-20 21:00 13.48 µg/m3 -0.08 µg/m3 82.72 µg/m3 7.45 µg/m3 5.25 µg/m3 0.25 mg/m3 19 °C 76.27 % 1,004.12 mbar 1.88 m/s 223.33 Deg 0.58 µg/m3 1.52 µg/m3
2023-05-20 20:00 17.57 µg/m3 -0.08 µg/m3 81.72 µg/m3 11.16 µg/m3 6.14 µg/m3 0.26 mg/m3 19.39 °C 70.81 % 1,003.58 mbar 2.26 m/s 230.95 Deg 1.32 µg/m3 2.1 µg/m3
2023-05-20 19:00 18.62 µg/m3 -0.08 µg/m3 87.1 µg/m3 11.21 µg/m3 4.67 µg/m3 0.24 mg/m3 20.05 °C 64.25 % 1,003.09 mbar 2.95 m/s 243.82 Deg 2.27 µg/m3 1.63 µg/m3
2023-05-20 18:00 16.89 µg/m3 -0.08 µg/m3 90.85 µg/m3 13.55 µg/m3 5.03 µg/m3 0.23 mg/m3 20.46 °C 64.67 % 1,002.69 mbar 3.33 m/s 246.57 Deg 3.13 µg/m3 1.68 µg/m3
2023-05-20 17:00 14.97 µg/m3 -0.13 µg/m3 94.5 µg/m3 16.38 µg/m3 5.42 µg/m3 0.22 mg/m3 20.93 °C 64.01 % 1,002.38 mbar 3.2 m/s 251.85 Deg 2.59 µg/m3 1.42 µg/m3
2023-05-20 16:00 12.06 µg/m3 -0.22 µg/m3 104.31 µg/m3 17.63 µg/m3 6.96 µg/m3 0.2 mg/m3 21 °C 64.38 % 1,002.19 mbar 3.45 m/s 231.57 Deg 1.99 µg/m3 1.1 µg/m3
2023-05-20 15:00 10.4 µg/m3 -0.13 µg/m3 101.41 µg/m3 24.29 µg/m3 9.24 µg/m3 0.2 mg/m3 21.42 °C 66.2 % 1,001.85 mbar 3.41 m/s 228.93 Deg 2.35 µg/m3 1 µg/m3
2023-05-20 14:00 8.34 µg/m3 -0.16 µg/m3 100.12 µg/m3 39.65 µg/m3 17.94 µg/m3 0.19 mg/m3 22.73 °C 60.33 % 1,001.07 mbar 3.47 m/s 229.97 Deg 1.19 µg/m3 1.36 µg/m3
2023-05-20 13:00 16.4 µg/m3 -0.11 µg/m3 85.32 µg/m3 66.34 µg/m3 31.1 µg/m3 0.23 mg/m3 23.35 °C 61.73 % 1,000.78 mbar 2.49 m/s 241.87 Deg 5.08 µg/m3 1.31 µg/m3
2023-05-20 12:00 14.1 µg/m3 -0.1 µg/m3 83.75 µg/m3 81.97 µg/m3 44.55 µg/m3 0.25 mg/m3 22.07 °C 72.06 % 1,000.79 mbar 3 m/s 218.08 Deg 2.9 µg/m3 1.47 µg/m3
2023-05-20 11:00 23.11 µg/m3 -0.09 µg/m3 72.24 µg/m3 103.41 µg/m3 51.14 µg/m3 0.28 mg/m3 21.65 °C 73.2 % 1,000.21 mbar 2.74 m/s 214.95 Deg 3.09 µg/m3 1.84 µg/m3
2023-05-20 10:00 37.91 µg/m3 0.11 µg/m3 56.15 µg/m3 110.86 µg/m3 62.75 µg/m3 0.35 mg/m3 21.22 °C 75.49 % 999.62 mbar 2.31 m/s 188.5 Deg 17.6 µg/m3 2.57 µg/m3
2023-05-20 09:00 46.03 µg/m3 0.26 µg/m3 49.36 µg/m3 133.95 µg/m3 56.71 µg/m3 0.4 mg/m3 21.45 °C 73.67 % 998.84 mbar 1.92 m/s 242.37 Deg 29.3 µg/m3 2.2 µg/m3
2023-05-20 08:00 27.41 µg/m3 0.11 µg/m3 68.62 µg/m3 70 µg/m3 42.35 µg/m3 0.36 mg/m3 20.24 °C 77 % 998.29 mbar 2.96 m/s 87.5 Deg 21.92 µg/m3 1.78 µg/m3
2023-05-20 07:00 22.09 µg/m3 0.03 µg/m3 81.29 µg/m3 43.85 µg/m3 25.49 µg/m3 0.25 mg/m3 20.13 °C 74.31 % 998.75 mbar 4.2 m/s 64.88 Deg 12.48 µg/m3 1.15 µg/m3
2023-05-20 06:00 25.49 µg/m3 0.15 µg/m3 82.77 µg/m3 51.74 µg/m3 22.3 µg/m3 0.25 mg/m3 20.27 °C 71.92 % 998.17 mbar 3.27 m/s 53.92 Deg 26.23 µg/m3 0.94 µg/m3
2023-05-20 05:00 6.98 µg/m3 -0.09 µg/m3 97.13 µg/m3 29.22 µg/m3 16.58 µg/m3 0.16 mg/m3 20.22 °C 71.41 % 998.73 mbar 5.16 m/s 56.37 Deg 3.17 µg/m3 1.05 µg/m3
2023-05-20 04:00 4.91 µg/m3 -0.13 µg/m3 96.19 µg/m3 25.69 µg/m3 16.25 µg/m3 0.17 mg/m3 20.08 °C 72.72 % 1,000.40 mbar 4.07 m/s 58.85 Deg 1.58 µg/m3 0.63 µg/m3
2023-05-20 03:00 4.56 µg/m3 -0.13 µg/m3 99.58 µg/m3 26.94 µg/m3 16.19 µg/m3 0.16 mg/m3 20.02 °C 72.05 % 999.39 mbar 4.79 m/s 46.83 Deg 1.32 µg/m3 0.63 µg/m3
2023-05-20 02:00 5.3 µg/m3 -0.13 µg/m3 98.55 µg/m3 35.44 µg/m3 17.49 µg/m3 0.15 mg/m3 20.27 °C 69.68 % 998.96 mbar 5.02 m/s 39.58 Deg 1.18 µg/m3 0.68 µg/m3
2023-05-20 01:00 3.88 µg/m3 -0.14 µg/m3 98.6 µg/m3 31.48 µg/m3 17.47 µg/m3 0.17 mg/m3 19.82 °C 73.07 % 1,000.52 mbar 6.07 m/s 42.85 Deg 2.52 µg/m3 0.84 µg/m3
2023-05-20 00:00 5.38 µg/m3 -0.09 µg/m3 99.17 µg/m3 31.98 µg/m3 16.86 µg/m3 0.18 mg/m3 19.86 °C 72.07 % 1,002.19 mbar 6.15 m/s 54.1 Deg 4.42 µg/m3 0.94 µg/m3
2023-05-19 23:00 8.53 µg/m3 -0.07 µg/m3 99.66 µg/m3 34.33 µg/m3 20.16 µg/m3 0.2 mg/m3 19.74 °C 73.11 % 1,003.25 mbar 6.03 m/s 56.8 Deg 5.34 µg/m3 1.05 µg/m3
2023-05-19 22:00 12.49 µg/m3 -0.05 µg/m3 99 µg/m3 28.95 µg/m3 19.93 µg/m3 0.25 mg/m3 19.39 °C 76.39 % 1,003.67 mbar 5.12 m/s 41.77 Deg 7.25 µg/m3 1.42 µg/m3
2023-05-19 21:00 13.91 µg/m3 -0.04 µg/m3 98.59 µg/m3 31.75 µg/m3 22.16 µg/m3 0.24 mg/m3 19.24 °C 77.32 % 1,003.60 mbar 5.95 m/s 43.6 Deg 6.91 µg/m3 1.57 µg/m3
2023-05-19 19:00 19.69 µg/m3 0.13 µg/m3 88.51 µg/m3 22.04 µg/m3 16.75 µg/m3 0.32 mg/m3 19.04 °C 78.96 % 1,005.24 mbar 6.62 m/s 51.65 Deg 20.92 µg/m3 1.84 µg/m3
2023-05-19 18:00 22.55 µg/m3 0.12 µg/m3 89.32 µg/m3 24.59 µg/m3 18.72 µg/m3 0.33 mg/m3 19.2 °C 78.57 % 1,006.49 mbar 6.6 m/s 54.17 Deg 20.09 µg/m3 2.05 µg/m3
2023-05-19 17:00 25.14 µg/m3 0.14 µg/m3 91.1 µg/m3 25.91 µg/m3 19.6 µg/m3 0.33 mg/m3 19.31 °C 78.56 % 1,006.94 mbar 6.52 m/s 50.75 Deg 20.86 µg/m3 1.84 µg/m3
2023-05-19 16:00 21.38 µg/m3 0.16 µg/m3 94.39 µg/m3 26.31 µg/m3 19.6 µg/m3 0.32 mg/m3 19.48 °C 78 % 1,008.11 mbar 7.18 m/s 52.75 Deg 20.27 µg/m3 1.78 µg/m3
2023-05-19 15:00 17.25 µg/m3 0.15 µg/m3 95.53 µg/m3 32.73 µg/m3 20.45 µg/m3 0.31 mg/m3 19.6 °C 75.8 % 1,008.08 mbar 7.71 m/s 51.97 Deg 22.1 µg/m3 1.57 µg/m3
2023-05-19 14:00 26.13 µg/m3 0.16 µg/m3 94.03 µg/m3 36.54 µg/m3 19.59 µg/m3 0.28 mg/m3 20.05 °C 72.52 % 1,009.75 mbar 7.35 m/s 57.25 Deg 19.1 µg/m3 1.31 µg/m3
2023-05-19 13:00 22.95 µg/m3 0.13 µg/m3 96.47 µg/m3 35.82 µg/m3 17.78 µg/m3 0.28 mg/m3 19.91 °C 72.05 % 1,010.50 mbar 7.41 m/s 62.78 Deg 18.35 µg/m3 1.73 µg/m3
2023-05-19 12:00 21.24 µg/m3 0.08 µg/m3 97.98 µg/m3 34.39 µg/m3 18.82 µg/m3 0.29 mg/m3 19.62 °C 73.31 % 1,010.88 mbar 7.57 m/s 60.75 Deg 16.91 µg/m3 1.68 µg/m3
2023-05-19 11:00 22.45 µg/m3 0.16 µg/m3 92.94 µg/m3 35.71 µg/m3 19.78 µg/m3 0.29 mg/m3 19.67 °C 72.93 % 1,011.57 mbar 6.06 m/s 49.85 Deg 22.05 µg/m3 1.63 µg/m3
2023-05-19 10:00 20.93 µg/m3 0.13 µg/m3 95.26 µg/m3 28.78 µg/m3 16.66 µg/m3 0.26 mg/m3 19.38 °C 74.86 % 1,011.77 mbar 6.96 m/s 46.75 Deg 18.62 µg/m3 1.68 µg/m3
2023-05-19 09:00 24.78 µg/m3 0.13 µg/m3 88.48 µg/m3 33.43 µg/m3 17.05 µg/m3 0.27 mg/m3 19.39 °C 72.98 % 1,010.97 mbar 6.47 m/s 47.8 Deg 19.07 µg/m3 1.57 µg/m3
2023-05-19 08:00 30.37 µg/m3 0.11 µg/m3 83.57 µg/m3 24.54 µg/m3 13.92 µg/m3 0.26 mg/m3 19.08 °C 73.44 % 1,010.74 mbar 6.31 m/s 51.4 Deg 16.5 µg/m3 2.1 µg/m3
2023-05-19 07:00 27.1 µg/m3 0.14 µg/m3 81.7 µg/m3 25.15 µg/m3 15.27 µg/m3 0.31 mg/m3 18.84 °C 76.27 % 1,010.78 mbar 5.74 m/s 53.47 Deg 18.76 µg/m3 2.15 µg/m3
2023-05-19 06:00 19.79 µg/m3 0.03 µg/m3 90 µg/m3 18.24 µg/m3 12.12 µg/m3 0.25 mg/m3 18.96 °C 73.95 % 1,011.48 mbar 5.91 m/s 47.12 Deg 12.96 µg/m3 1.15 µg/m3
2023-05-19 05:00 10.2 µg/m3 -0.07 µg/m3 100.73 µg/m3 17.16 µg/m3 9.6 µg/m3 0.15 mg/m3 19.08 °C 70.28 % 1,010.56 mbar 5.88 m/s 57.23 Deg 6.35 µg/m3 0.73 µg/m3
2023-05-19 04:00 5.5 µg/m3 -0.05 µg/m3 103.74 µg/m3 12.21 µg/m3 8.01 µg/m3 0.14 mg/m3 18.77 °C 73.07 % 1,010.49 mbar 4.92 m/s 54.18 Deg 2.05 µg/m3 0.79 µg/m3
2023-05-19 03:00 3.29 µg/m3 -0.07 µg/m3 100.2 µg/m3 10.88 µg/m3 8.2 µg/m3 0.14 mg/m3 18.48 °C 77.65 % 1,011.48 mbar 4.26 m/s 47.63 Deg 2.67 µg/m3 0.79 µg/m3
2023-05-19 02:00 5.39 µg/m3 -0.08 µg/m3 99.18 µg/m3 11.45 µg/m3 8.53 µg/m3 0.14 mg/m3 18.55 °C 77.31 % 1,012.17 mbar 3.77 m/s 55.43 Deg 1.31 µg/m3 0.73 µg/m3
2023-05-19 01:00 4.35 µg/m3 -0.02 µg/m3 100.48 µg/m3 12.5 µg/m3 9.1 µg/m3 0.15 mg/m3 18.76 °C 75.29 % 1,012.67 mbar 3.48 m/s 53.58 Deg 2.27 µg/m3 0.79 µg/m3
2023-05-19 00:00 9.44 µg/m3 -0.03 µg/m3 94.79 µg/m3 13.12 µg/m3 9.69 µg/m3 0.17 mg/m3 18.66 °C 77.92 % 1,013.08 mbar 3.95 m/s 57.6 Deg 3.64 µg/m3 1.15 µg/m3
2023-05-18 23:00 14.65 µg/m3 0.03 µg/m3 88.32 µg/m3 13.69 µg/m3 10.12 µg/m3 0.2 mg/m3 18.61 °C 79.87 % 1,013.03 mbar 4.4 m/s 58.42 Deg 5.02 µg/m3 1.57 µg/m3
2023-05-18 22:00 18.32 µg/m3 0.06 µg/m3 88.03 µg/m3 17.09 µg/m3 12.14 µg/m3 0.24 mg/m3 18.68 °C 78.76 % 1,012.72 mbar 3.85 m/s 60.63 Deg 9.84 µg/m3 1.21 µg/m3
2023-05-18 21:00 20.93 µg/m3 0.05 µg/m3 90.79 µg/m3 15.16 µg/m3 11.07 µg/m3 0.22 mg/m3 18.66 °C 79.24 % 1,012.12 mbar 4.53 m/s 62 Deg 8.62 µg/m3 1.52 µg/m3
2023-05-18 20:00 24.1 µg/m3 0.03 µg/m3 90.26 µg/m3 15.1 µg/m3 10.94 µg/m3 0.26 mg/m3 18.72 °C 78.32 % 1,011.90 mbar 5.12 m/s 58.63 Deg 11.04 µg/m3 1.84 µg/m3
2023-05-18 19:00 24.02 µg/m3 0.15 µg/m3 88.34 µg/m3 20.89 µg/m3 12.77 µg/m3 0.3 mg/m3 19.17 °C 73.59 % 1,012.00 mbar 5.57 m/s 57.53 Deg 19.11 µg/m3 2.26 µg/m3
2023-05-18 18:00 33.68 µg/m3 0.23 µg/m3 78.48 µg/m3 29.47 µg/m3 13.27 µg/m3 0.34 mg/m3 19.72 °C 66.99 % 1,012.34 mbar 5.32 m/s 52.87 Deg 25.42 µg/m3 2.47 µg/m3
2023-05-18 17:00 28.69 µg/m3 0.22 µg/m3 86.87 µg/m3 25.61 µg/m3 11.9 µg/m3 0.34 mg/m3 19.7 °C 69.21 % 1,012.86 mbar 5.06 m/s 51.73 Deg 23.56 µg/m3 2.2 µg/m3
2023-05-18 16:00 27.31 µg/m3 0.26 µg/m3 90.13 µg/m3 24.78 µg/m3 10.96 µg/m3 0.3 mg/m3 19.98 °C 65.86 % 1,013.17 mbar 5.31 m/s 56.92 Deg 20.14 µg/m3 2.1 µg/m3
2023-05-18 15:00 30.68 µg/m3 0.26 µg/m3 86.94 µg/m3 28.03 µg/m3 12.06 µg/m3 0.31 mg/m3 20.03 °C 66.54 % 1,013.49 mbar 5.41 m/s 50.12 Deg 26.39 µg/m3 2.1 µg/m3
2023-05-18 14:00 35.24 µg/m3 0.28 µg/m3 82.26 µg/m3 34.58 µg/m3 13.63 µg/m3 0.32 mg/m3 20.41 °C 66.07 % 1,014.05 mbar 4.48 m/s 50.93 Deg 27.8 µg/m3 2.41 µg/m3
2023-05-18 13:00 28.13 µg/m3 0.29 µg/m3 84.18 µg/m3 32.96 µg/m3 13.27 µg/m3 0.32 mg/m3 20.06 °C 69.37 % 1,014.74 mbar 4.41 m/s 48.55 Deg 25.39 µg/m3 2.31 µg/m3
2023-05-18 12:00 37.63 µg/m3 0.33 µg/m3 81.29 µg/m3 34.75 µg/m3 14.2 µg/m3 0.31 mg/m3 19.9 °C 67.52 % 1,015.04 mbar 4.39 m/s 47.67 Deg 27.7 µg/m3 2.68 µg/m3
2023-05-18 11:00 34.29 µg/m3 0.43 µg/m3 77.88 µg/m3 39.2 µg/m3 15.4 µg/m3 0.38 mg/m3 19.26 °C 68.51 % 1,015.26 mbar 3.41 m/s 48.57 Deg 33.96 µg/m3 2.1 µg/m3
2023-05-18 10:00 47.26 µg/m3 0.44 µg/m3 66.25 µg/m3 46.55 µg/m3 17.25 µg/m3 0.32 mg/m3 18.97 °C 67.94 % 1,015.07 mbar 3.04 m/s 52.05 Deg 32.86 µg/m3 3.57 µg/m3
2023-05-18 09:00 73.3 µg/m3 0.83 µg/m3 36.96 µg/m3 81.12 µg/m3 26.21 µg/m3 0.48 mg/m3 19.32 °C 68.14 % 1,014.87 mbar 1.85 m/s 59.87 Deg 55.27 µg/m3 4.57 µg/m3
2023-05-18 08:00 80.77 µg/m3 0.7 µg/m3 26.69 µg/m3 58.63 µg/m3 19.97 µg/m3 0.48 mg/m3 19.18 °C 63.59 % 1,014.57 mbar 0.74 m/s 173.63 Deg 45.8 µg/m3 3.1 µg/m3
2023-05-18 07:00 55.23 µg/m3 0.11 µg/m3 44.89 µg/m3 29.93 µg/m3 14.54 µg/m3 0.34 mg/m3 18.12 °C 72.33 % 1,014.15 mbar 0.86 m/s 208.18 Deg 7.12 µg/m3 3.04 µg/m3
2023-05-18 06:00 57.69 µg/m3 0.15 µg/m3 34.69 µg/m3 21.48 µg/m3 14.53 µg/m3 0.38 mg/m3 17.75 °C 77.98 % 1,013.86 mbar 0.8 m/s 218.85 Deg 9.14 µg/m3 2.1 µg/m3
2023-05-18 05:00 35.86 µg/m3 0.16 µg/m3 53.38 µg/m3 18.48 µg/m3 12.73 µg/m3 0.22 mg/m3 17.66 °C 76.64 % 1,013.43 mbar 0.85 m/s 97.78 Deg 13.27 µg/m3 1.15 µg/m3
2023-05-18 04:00 10.97 µg/m3 -0.03 µg/m3 74.14 µg/m3 14.95 µg/m3 10.6 µg/m3 0.16 mg/m3 17.48 °C 76.98 % 1,014.08 mbar 0.9 m/s 247.98 Deg 0.12 µg/m3 1 µg/m3
2023-05-18 03:00 7.6 µg/m3 0.02 µg/m3 76.54 µg/m3 13.9 µg/m3 10.04 µg/m3 0.17 mg/m3 17.23 °C 77.96 % 1,014.32 mbar 0.81 m/s 218.78 Deg 0.83 µg/m3 1.1 µg/m3
2023-05-18 02:00 8.13 µg/m3 -0 µg/m3 78.68 µg/m3 13.48 µg/m3 9.77 µg/m3 0.18 mg/m3 17.31 °C 75.92 % 1,014.73 mbar 0.87 m/s 210.6 Deg 0.29 µg/m3 1 µg/m3
2023-05-18 01:00 11.6 µg/m3 -0.07 µg/m3 73.09 µg/m3 13.41 µg/m3 9.61 µg/m3 0.2 mg/m3 17.26 °C 77.12 % 1,015.12 mbar 0.86 m/s 238.58 Deg 0.12 µg/m3 1.21 µg/m3
2023-05-18 00:00 12.53 µg/m3 0.05 µg/m3 78.29 µg/m3 15.43 µg/m3 11 µg/m3 0.21 mg/m3 17.6 °C 74.12 % 1,015.16 mbar 1.19 m/s 212.67 Deg 0.2 µg/m3 1.42 µg/m3
2023-05-17 23:00 13.78 µg/m3 0.01 µg/m3 82.42 µg/m3 15.14 µg/m3 10.39 µg/m3 0.21 mg/m3 17.89 °C 72.96 % 1,015.06 mbar 0.75 m/s 201.13 Deg 0.19 µg/m3 1.31 µg/m3
2023-05-17 22:00 13.83 µg/m3 -0.01 µg/m3 83 µg/m3 15.73 µg/m3 11.3 µg/m3 0.21 mg/m3 17.97 °C 73.54 % 1,015.02 mbar 1.4 m/s 214.3 Deg 0.26 µg/m3 1.31 µg/m3
2023-05-17 21:00 16.11 µg/m3 0.02 µg/m3 83.47 µg/m3 18.36 µg/m3 11.37 µg/m3 0.22 mg/m3 18.29 °C 71.05 % 1,014.46 mbar 1.43 m/s 223.02 Deg 0.45 µg/m3 1.78 µg/m3
2023-05-17 20:00 22.64 µg/m3 0.03 µg/m3 77 µg/m3 22.55 µg/m3 13.87 µg/m3 0.24 mg/m3 18.57 °C 67.77 % 1,013.97 mbar 1.65 m/s 221.08 Deg 2.28 µg/m3 2.1 µg/m3
2023-05-17 19:00 28.22 µg/m3 0.06 µg/m3 76.83 µg/m3 21.45 µg/m3 13.75 µg/m3 0.27 mg/m3 19.23 °C 62.17 % 1,013.80 mbar 2.67 m/s 249.13 Deg 3.97 µg/m3 2.1 µg/m3
2023-05-17 18:00 25.64 µg/m3 0.03 µg/m3 77.35 µg/m3 23.03 µg/m3 11.85 µg/m3 0.24 mg/m3 20.09 °C 57.54 % 1,013.61 mbar 2.9 m/s 254.67 Deg 6.58 µg/m3 1.84 µg/m3
2023-05-17 17:00 22.68 µg/m3 0 µg/m3 80.38 µg/m3 20.05 µg/m3 10.87 µg/m3 0.22 mg/m3 20.52 °C 55.52 % 1,013.72 mbar 3.18 m/s 253.22 Deg 5.46 µg/m3 1.57 µg/m3
2023-05-17 16:00 21.83 µg/m3 -0.01 µg/m3 81.36 µg/m3 21.94 µg/m3 11.22 µg/m3 0.21 mg/m3 20.71 °C 55.3 % 1,013.77 mbar 3.49 m/s 243.4 Deg 5.93 µg/m3 1.57 µg/m3
2023-05-17 15:00 21 µg/m3 -0.03 µg/m3 81.7 µg/m3 24.9 µg/m3 11.24 µg/m3 0.2 mg/m3 20.77 °C 54.47 % 1,013.93 mbar 4 m/s 247 Deg 7.12 µg/m3 1.31 µg/m3
2023-05-17 14:00 18.58 µg/m3 -0.05 µg/m3 81.34 µg/m3 24.78 µg/m3 11.26 µg/m3 0.18 mg/m3 20.83 °C 53.9 % 1,014.15 mbar 4.08 m/s 258.57 Deg 5.15 µg/m3 1.36 µg/m3
2023-05-17 13:00 19.7 µg/m3 -0.02 µg/m3 79.67 µg/m3 27.57 µg/m3 11.81 µg/m3 0.18 mg/m3 20.91 °C 53.44 % 1,014.26 mbar 3.93 m/s 246.33 Deg 5.67 µg/m3 1.42 µg/m3
2023-05-17 12:00 19.62 µg/m3 0.03 µg/m3 80.43 µg/m3 22.21 µg/m3 10.82 µg/m3 0.19 mg/m3 20.48 °C 54.46 % 1,014.43 mbar 4.59 m/s 255.58 Deg 5.99 µg/m3 1.31 µg/m3
2023-05-17 11:00 16.6 µg/m3 0.06 µg/m3 82.55 µg/m3 21.44 µg/m3 9.72 µg/m3 0.18 mg/m3 20.25 °C 56.27 % 1,014.22 mbar 4.26 m/s 252.55 Deg 4.68 µg/m3 1.31 µg/m3
2023-05-17 10:00 20.92 µg/m3 0.04 µg/m3 79.12 µg/m3 23.97 µg/m3 10.94 µg/m3 0.21 mg/m3 19.85 °C 58.82 % 1,013.87 mbar 4.22 m/s 252.9 Deg 6.38 µg/m3 1.68 µg/m3
2023-05-17 09:00 27.08 µg/m3 0.09 µg/m3 74.14 µg/m3 28.87 µg/m3 12.63 µg/m3 0.23 mg/m3 19.34 °C 61.62 % 1,013.61 mbar 4.1 m/s 245.72 Deg 9.13 µg/m3 1.73 µg/m3
2023-05-17 08:00 32.38 µg/m3 0.11 µg/m3 69.59 µg/m3 39.59 µg/m3 13.47 µg/m3 0.23 mg/m3 18.92 °C 61.77 % 1,013.02 mbar 3.68 m/s 243.32 Deg 10.72 µg/m3 2.15 µg/m3
2023-05-17 07:00 34.89 µg/m3 0.09 µg/m3 64.37 µg/m3 22.29 µg/m3 13.09 µg/m3 0.26 mg/m3 18.19 °C 67.82 % 1,012.46 mbar 3.26 m/s 246.2 Deg 8.69 µg/m3 2.15 µg/m3
2023-05-17 06:00 39.66 µg/m3 0.06 µg/m3 55.43 µg/m3 20.25 µg/m3 14 µg/m3 0.27 mg/m3 17.47 °C 73.33 % 1,011.97 mbar 2.21 m/s 241.1 Deg 9.83 µg/m3 1.31 µg/m3
2023-05-17 05:00 21.3 µg/m3 -0.02 µg/m3 68.94 µg/m3 18.71 µg/m3 13.38 µg/m3 0.17 mg/m3 17.2 °C 74.6 % 1,011.76 mbar 1.79 m/s 238.55 Deg 3.83 µg/m3 0.89 µg/m3
2023-05-17 04:00 7.2 µg/m3 -0.09 µg/m3 84.93 µg/m3 17.57 µg/m3 12.76 µg/m3 0.15 mg/m3 17.22 °C 75.57 % 1,011.59 mbar 1.71 m/s 244.6 Deg 0.35 µg/m3 0.79 µg/m3
2023-05-17 03:00 7.49 µg/m3 -0.06 µg/m3 84.16 µg/m3 18.45 µg/m3 13 µg/m3 0.13 mg/m3 17.33 °C 75.82 % 1,011.62 mbar 1.11 m/s 234.33 Deg -0.01 µg/m3 0.73 µg/m3
2023-05-17 02:00 7.15 µg/m3 -0.11 µg/m3 88.91 µg/m3 14.03 µg/m3 10.46 µg/m3 0.15 mg/m3 17.42 °C 78.38 % 1,011.65 mbar 1.27 m/s 239.15 Deg 0.1 µg/m3 0.94 µg/m3
2023-05-17 01:00 5.54 µg/m3 -0.06 µg/m3 95.07 µg/m3 13.66 µg/m3 10.45 µg/m3 0.16 mg/m3 17.61 °C 77.91 % 1,011.65 mbar 1.49 m/s 238.52 Deg -0.11 µg/m3 1 µg/m3
2023-05-17 00:00 8.21 µg/m3 0.04 µg/m3 93.16 µg/m3 15.2 µg/m3 11.39 µg/m3 0.18 mg/m3 17.74 °C 78.11 % 1,011.67 mbar 1.46 m/s 226.67 Deg -0.01 µg/m3 1.1 µg/m3
2023-05-16 23:00 10.52 µg/m3 -0.03 µg/m3 94.9 µg/m3 16.06 µg/m3 12.22 µg/m3 0.18 mg/m3 17.93 °C 77.15 % 1,011.63 mbar 1.82 m/s 230.23 Deg 0.41 µg/m3 1.1 µg/m3
2023-05-16 22:00 11.66 µg/m3 -0.02 µg/m3 95.52 µg/m3 17.47 µg/m3 13.23 µg/m3 0.19 mg/m3 18.12 °C 77.13 % 1,011.48 mbar 2.11 m/s 225.38 Deg 0.18 µg/m3 1.21 µg/m3
2023-05-16 21:00 15.52 µg/m3 0.01 µg/m3 93.56 µg/m3 19.93 µg/m3 13.94 µg/m3 0.2 mg/m3 18.38 °C 73.27 % 1,010.99 mbar 2.07 m/s 221.53 Deg 0.54 µg/m3 1.57 µg/m3
2023-05-16 20:00 21.98 µg/m3 0.02 µg/m3 90.68 µg/m3 22.65 µg/m3 14.59 µg/m3 0.24 mg/m3 18.74 °C 70.71 % 1,010.42 mbar 1.97 m/s 228.18 Deg 1.54 µg/m3 1.94 µg/m3
2023-05-16 19:00 21.37 µg/m3 0.01 µg/m3 93.56 µg/m3 21.2 µg/m3 13.68 µg/m3 0.23 mg/m3 19.29 °C 68 % 1,009.95 mbar 2.67 m/s 236.33 Deg 2.45 µg/m3 1.78 µg/m3
2023-05-16 18:00 20.94 µg/m3 -0.02 µg/m3 95.53 µg/m3 20.54 µg/m3 12.54 µg/m3 0.21 mg/m3 19.95 °C 64.1 % 1,009.51 mbar 3.3 m/s 239.07 Deg 3.33 µg/m3 1.63 µg/m3
2023-05-16 17:00 16.58 µg/m3 -0.11 µg/m3 100.24 µg/m3 20.09 µg/m3 11.85 µg/m3 0.19 mg/m3 20.06 °C 63.32 % 1,009.26 mbar 4.13 m/s 229.2 Deg 3.09 µg/m3 1.47 µg/m3
2023-05-16 16:00 14.89 µg/m3 -0.1 µg/m3 102.98 µg/m3 21.8 µg/m3 11.85 µg/m3 0.18 mg/m3 20.21 °C 61.06 % 1,009.01 mbar 4.83 m/s 227.85 Deg 3.31 µg/m3 1.42 µg/m3
2023-05-16 15:00 15.77 µg/m3 -0.11 µg/m3 100.07 µg/m3 26.09 µg/m3 12.3 µg/m3 0.18 mg/m3 20.08 °C 63.11 % 1,008.98 mbar 5.35 m/s 237 Deg 4.15 µg/m3 1.31 µg/m3
2023-05-16 14:00 20.23 µg/m3 -0.01 µg/m3 93.84 µg/m3 29.84 µg/m3 13.41 µg/m3 0.19 mg/m3 20.15 °C 65.32 % 1,008.91 mbar 4.82 m/s 237.82 Deg 5.35 µg/m3 1.36 µg/m3
2023-05-16 13:00 16.42 µg/m3 0.02 µg/m3 94.84 µg/m3 29.79 µg/m3 13.94 µg/m3 0.2 mg/m3 20.07 °C 65.05 % 1,008.90 mbar 4.77 m/s 229.35 Deg 3.96 µg/m3 1.26 µg/m3
2023-05-16 12:00 16.18 µg/m3 0.02 µg/m3 92.59 µg/m3 27.79 µg/m3 15.4 µg/m3 0.19 mg/m3 19.68 °C 66.8 % 1,008.57 mbar 4.7 m/s 227.78 Deg 4.02 µg/m3 1.36 µg/m3
2023-05-16 11:00 17.64 µg/m3 0.01 µg/m3 87.93 µg/m3 27.17 µg/m3 16.01 µg/m3 0.2 mg/m3 19.46 °C 67.65 % 1,008.32 mbar 4.35 m/s 236.1 Deg 4.44 µg/m3 1.47 µg/m3
2023-05-16 10:00 16.44 µg/m3 0.02 µg/m3 89.31 µg/m3 27.01 µg/m3 15.52 µg/m3 0.2 mg/m3 19.18 °C 67.5 % 1,007.72 mbar 4.67 m/s 231.15 Deg 3.89 µg/m3 1.68 µg/m3
2023-05-16 09:00 25.81 µg/m3 0.06 µg/m3 78.57 µg/m3 28.07 µg/m3 16.56 µg/m3 0.23 mg/m3 18.97 °C 68.28 % 1,007.14 mbar 4.09 m/s 234.23 Deg 7.66 µg/m3 1.84 µg/m3
2023-05-16 08:00 31.68 µg/m3 0.05 µg/m3 71.24 µg/m3 28.96 µg/m3 17.75 µg/m3 0.25 mg/m3 18.36 °C 71.28 % 1,006.74 mbar 3.79 m/s 241.32 Deg 9.57 µg/m3 2.1 µg/m3
2023-05-16 07:00 31.3 µg/m3 0.08 µg/m3 69.2 µg/m3 23.25 µg/m3 16.59 µg/m3 0.26 mg/m3 17.8 °C 73.05 % 1,006.36 mbar 3.42 m/s 239.98 Deg 7.4 µg/m3 1.94 µg/m3
2023-05-16 06:00 24.32 µg/m3 0.05 µg/m3 72.72 µg/m3 20.29 µg/m3 15.28 µg/m3 0.23 mg/m3 17.41 °C 74.96 % 1,005.94 mbar 3.01 m/s 229.95 Deg 5.58 µg/m3 1.15 µg/m3
2023-05-16 05:00 10.87 µg/m3 -0.07 µg/m3 84.69 µg/m3 19.98 µg/m3 14.46 µg/m3 0.15 mg/m3 17.42 °C 72.97 % 1,005.60 mbar 3.22 m/s 229.92 Deg 1.38 µg/m3 0.84 µg/m3
2023-05-16 04:00 4.03 µg/m3 -0.08 µg/m3 93.68 µg/m3 19.43 µg/m3 15.03 µg/m3 0.13 mg/m3 17.35 °C 72.98 % 1,005.24 mbar 3.29 m/s 235.13 Deg 0.15 µg/m3 0.79 µg/m3
2023-05-16 03:00 5.3 µg/m3 -0.07 µg/m3 94.18 µg/m3 17.54 µg/m3 13.43 µg/m3 0.06 mg/m3 16.98 °C 74.71 % 1,005.24 mbar 3.32 m/s 233.9 Deg 0.8 µg/m3 0.68 µg/m3
2023-05-16 02:00 3.09 µg/m3 -0.09 µg/m3 95.29 µg/m3 10.36 µg/m3 7.57 µg/m3 0.04 mg/m3 16.23 °C 73.81 % 1,005.31 mbar 3.08 m/s 241.2 Deg 0.05 µg/m3 0.73 µg/m3
2023-05-16 01:00 2.29 µg/m3 -0.14 µg/m3 94.64 µg/m3 10.09 µg/m3 7.64 µg/m3 0.05 mg/m3 16.15 °C 75.53 % 1,005.33 mbar 3.75 m/s 240.55 Deg 0.01 µg/m3 0.73 µg/m3
2023-05-16 00:00 2.91 µg/m3 -0.11 µg/m3 90.4 µg/m3 10.59 µg/m3 8.2 µg/m3 0.07 mg/m3 17.07 °C 75.91 % 1,005.14 mbar 4.26 m/s 239.7 Deg 0.11 µg/m3 0.79 µg/m3
2023-05-15 23:00 3.55 µg/m3 -0.09 µg/m3 91.44 µg/m3 9.2 µg/m3 6.62 µg/m3 0.06 mg/m3 16.99 °C 75.12 % 1,004.82 mbar 3.94 m/s 233.9 Deg 0.26 µg/m3 0.79 µg/m3
2023-05-15 22:00 5.87 µg/m3 -0.08 µg/m3 94.15 µg/m3 11.72 µg/m3 5.83 µg/m3 0.05 mg/m3 17.27 °C 65.23 % 1,004.34 mbar 4.8 m/s 243.57 Deg 0.94 µg/m3 0.79 µg/m3
2023-05-15 21:00 6.67 µg/m3 -0.16 µg/m3 93.16 µg/m3 16.24 µg/m3 5.51 µg/m3 0.04 mg/m3 17.23 °C 62.92 % 1,003.43 mbar 5.2 m/s 250.12 Deg 1.18 µg/m3 0.84 µg/m3
2023-05-15 20:00 9.57 µg/m3 -0.1 µg/m3 91.7 µg/m3 11.9 µg/m3 5.72 µg/m3 0.08 mg/m3 16.95 °C 70.74 % 1,002.48 mbar 4.72 m/s 247.5 Deg 1.3 µg/m3 1.21 µg/m3
2023-05-15 19:00 13.32 µg/m3 -0.08 µg/m3 86.83 µg/m3 10.17 µg/m3 6.23 µg/m3 0.12 mg/m3 16.87 °C 74.85 % 1,001.50 mbar 4.47 m/s 245.7 Deg 2.64 µg/m3 1.21 µg/m3
2023-05-15 18:00 13.25 µg/m3 -0.11 µg/m3 86 µg/m3 5.86 µg/m3 4 µg/m3 0.15 mg/m3 17.56 °C 76.77 % 1,000.50 mbar 5.03 m/s 247.67 Deg 2.87 µg/m3 1.36 µg/m3
2023-05-15 17:00 18.89 µg/m3 -0.08 µg/m3 82.65 µg/m3 11.52 µg/m3 5.15 µg/m3 0.16 mg/m3 18.76 °C 74.64 % 1,000.20 mbar 4.16 m/s 234.88 Deg 4.76 µg/m3 1.15 µg/m3
2023-05-15 16:00 14.03 µg/m3 -0.07 µg/m3 78.22 µg/m3 20.97 µg/m3 8.05 µg/m3 0.15 mg/m3 20.25 °C 72.55 % 999.59 mbar 4.95 m/s 229.87 Deg 4.12 µg/m3 1.63 µg/m3
2023-05-15 15:00 22 µg/m3 -0.06 µg/m3 73.2 µg/m3 19.74 µg/m3 7.57 µg/m3 0.19 mg/m3 22.48 °C 59.45 % 999.12 mbar 3.34 m/s 253.95 Deg 6.68 µg/m3 1.47 µg/m3
2023-05-15 14:00 22.87 µg/m3 -0.06 µg/m3 73.55 µg/m3 19.51 µg/m3 7.46 µg/m3 0.18 mg/m3 21.65 °C 62.47 % 999.13 mbar 3.08 m/s 277.12 Deg 6.37 µg/m3 1.31 µg/m3
2023-05-15 13:00 18.3 µg/m3 -0.05 µg/m3 67.53 µg/m3 20.02 µg/m3 10.54 µg/m3 0.21 mg/m3 20.49 °C 75.81 % 999.34 mbar 3.22 m/s 295.02 Deg 6.01 µg/m3 1.57 µg/m3
2023-05-15 12:00 22.01 µg/m3 0.02 µg/m3 65.24 µg/m3 39.18 µg/m3 23.84 µg/m3 0.22 mg/m3 20.09 °C 79.18 % 999.51 mbar 2.52 m/s 329.67 Deg 10.32 µg/m3 2.2 µg/m3
2023-05-15 11:00 25.88 µg/m3 0.19 µg/m3 62.67 µg/m3 55.31 µg/m3 28.46 µg/m3 0.29 mg/m3 20.35 °C 78.86 % 1,000.15 mbar 2.16 m/s 15.62 Deg 20.66 µg/m3 2.15 µg/m3
2023-05-15 10:00 29.64 µg/m3 0.28 µg/m3 60.4 µg/m3 53.72 µg/m3 31.82 µg/m3 0.3 mg/m3 20.12 °C 79.36 % 1,001.27 mbar 2 m/s 25.98 Deg 21.85 µg/m3 2.73 µg/m3
2023-05-15 09:00 -0.06 µg/m3 0.24 µg/m3 47.94 µg/m3 50.11 µg/m3 33.57 µg/m3 0.38 mg/m3 19.62 °C 83.1 % 1,001.11 mbar 1.88 m/s 3.64 Deg 95.2 µg/m3 0 µg/m3
2023-05-15 08:00 30.96 µg/m3 0.31 µg/m3 42.08 µg/m3 43.44 µg/m3 29.57 µg/m3 0.39 mg/m3 19.03 °C 84.53 % 1,002.51 mbar 1.8 m/s 106.18 Deg 20.74 µg/m3 2.89 µg/m3
2023-05-15 07:00 31.85 µg/m3 0.33 µg/m3 48.13 µg/m3 38.34 µg/m3 27.02 µg/m3 0.34 mg/m3 19.14 °C 82.37 % 1,003.32 mbar 2.69 m/s 119.08 Deg 22.86 µg/m3 2.05 µg/m3
2023-05-15 06:00 22.69 µg/m3 0.21 µg/m3 61.98 µg/m3 35.99 µg/m3 25.64 µg/m3 0.3 mg/m3 19.21 °C 81.78 % 1,002.07 mbar 3.89 m/s 44.98 Deg 13.85 µg/m3 1.94 µg/m3
2023-05-15 05:00 11.16 µg/m3 0.02 µg/m3 67.33 µg/m3 26.84 µg/m3 20.48 µg/m3 0.2 mg/m3 18.41 °C 87.82 % 1,002.01 mbar 4.66 m/s 47.28 Deg 4.41 µg/m3 1.26 µg/m3
2023-05-15 04:00 13.48 µg/m3 0.21 µg/m3 57.81 µg/m3 28.78 µg/m3 20.15 µg/m3 0.18 mg/m3 18.78 °C 87.58 % 1,005.79 mbar 1.13 m/s 36.02 Deg 2.79 µg/m3 1.42 µg/m3
2023-05-15 03:00 8.48 µg/m3 0.05 µg/m3 65.89 µg/m3 29.8 µg/m3 20.43 µg/m3 0.17 mg/m3 18.9 °C 86.81 % 1,006.73 mbar 1.72 m/s 224.02 Deg 0.37 µg/m3 1.05 µg/m3
2023-05-15 02:00 8.29 µg/m3 0.04 µg/m3 74.13 µg/m3 30.06 µg/m3 21.1 µg/m3 0.17 mg/m3 18.55 °C 87.42 % 1,004.46 mbar 3.09 m/s 49.87 Deg 0.74 µg/m3 1.26 µg/m3
2023-05-15 01:00 18.1 µg/m3 0.02 µg/m3 58.3 µg/m3 39.16 µg/m3 26.2 µg/m3 0.2 mg/m3 18.87 °C 84.65 % 1,005.36 mbar 1.3 m/s 33.48 Deg 1.8 µg/m3 1.47 µg/m3
2023-05-15 00:00 17.72 µg/m3 0.06 µg/m3 59.26 µg/m3 33.91 µg/m3 22.68 µg/m3 0.24 mg/m3 19.1 °C 83.08 % 1,006.62 mbar 0.87 m/s 287.18 Deg 1.39 µg/m3 1.89 µg/m3
2023-05-14 23:00 21.11 µg/m3 0.15 µg/m3 60.01 µg/m3 34.74 µg/m3 23.27 µg/m3 0.31 mg/m3 19.11 °C 82.81 % 1,007.35 mbar 0.84 m/s 165.72 Deg 3.97 µg/m3 2.05 µg/m3
2023-05-14 22:00 22.71 µg/m3 0.16 µg/m3 60.44 µg/m3 35.72 µg/m3 23.96 µg/m3 0.29 mg/m3 19.26 °C 81.55 % 1,008.24 mbar 1.41 m/s 96.5 Deg 7.86 µg/m3 1.94 µg/m3
2023-05-14 21:00 26.91 µg/m3 0.09 µg/m3 52.33 µg/m3 37.57 µg/m3 25.23 µg/m3 0.28 mg/m3 19.74 °C 78.03 % 1,009.31 mbar 1.23 m/s 318.3 Deg 5.7 µg/m3 2.52 µg/m3
2023-05-14 20:00 30.04 µg/m3 0.14 µg/m3 53.24 µg/m3 40.6 µg/m3 27.39 µg/m3 0.3 mg/m3 19.96 °C 76.2 % 1,009.12 mbar 1.47 m/s 151.62 Deg 6.21 µg/m3 2.52 µg/m3
2023-05-14 19:00 25.42 µg/m3 0.1 µg/m3 64.64 µg/m3 46.81 µg/m3 26.68 µg/m3 0.3 mg/m3 20.35 °C 75.02 % 1,008.35 mbar 1.82 m/s 238.62 Deg 5.98 µg/m3 1.99 µg/m3
2023-05-14 18:00 28.39 µg/m3 0.15 µg/m3 70.21 µg/m3 33.64 µg/m3 23.43 µg/m3 0.27 mg/m3 19.98 °C 77.26 % 1,006.91 mbar 5.1 m/s 121.13 Deg 10.12 µg/m3 1.73 µg/m3
2023-05-14 17:00 28.31 µg/m3 0.23 µg/m3 72.73 µg/m3 25.36 µg/m3 18.86 µg/m3 0.28 mg/m3 19.58 °C 79.88 % 1,007.59 mbar 5.26 m/s 65.33 Deg 13.55 µg/m3 2.47 µg/m3
2023-05-14 16:00 26.73 µg/m3 0.19 µg/m3 70.99 µg/m3 33.13 µg/m3 22.62 µg/m3 0.33 mg/m3 20.09 °C 77.69 % 1,010.00 mbar 1.95 m/s 21.17 Deg 12.98 µg/m3 2.2 µg/m3
2023-05-14 15:00 27.96 µg/m3 0.22 µg/m3 74.01 µg/m3 34.4 µg/m3 23.03 µg/m3 0.32 mg/m3 20.04 °C 77.67 % 1,010.16 mbar 2.25 m/s 44.33 Deg 16.1 µg/m3 1.99 µg/m3
2023-05-14 14:00 22.73 µg/m3 0.16 µg/m3 78.68 µg/m3 31.91 µg/m3 22.82 µg/m3 0.29 mg/m3 19.7 °C 80.18 % 1,009.54 mbar 3.2 m/s 43.3 Deg 12.28 µg/m3 1.73 µg/m3
2023-05-14 13:00 18.9 µg/m3 0.16 µg/m3 82.88 µg/m3 36.74 µg/m3 23.21 µg/m3 0.29 mg/m3 20.16 °C 77.84 % 1,010.63 mbar 2.93 m/s 113.35 Deg 11 µg/m3 3.31 µg/m3
2023-05-14 12:00 21.67 µg/m3 0.23 µg/m3 80.33 µg/m3 34.9 µg/m3 23.51 µg/m3 0.33 mg/m3 19.93 °C 78.22 % 1,010.52 mbar 3.48 m/s 51.52 Deg 16.21 µg/m3 2.73 µg/m3
2023-05-14 11:00 22.08 µg/m3 0.22 µg/m3 75.3 µg/m3 32.56 µg/m3 23.1 µg/m3 0.3 mg/m3 19.75 °C 78.94 % 1,010.12 mbar 4.54 m/s 48.73 Deg 15.42 µg/m3 2.2 µg/m3
2023-05-14 10:00 22.15 µg/m3 0.19 µg/m3 72.63 µg/m3 37.85 µg/m3 25.82 µg/m3 0.29 mg/m3 19.75 °C 79.02 % 1,010.17 mbar 2.75 m/s 35.62 Deg 11.29 µg/m3 3.2 µg/m3
2023-05-14 09:00 18.55 µg/m3 0.11 µg/m3 72.98 µg/m3 37.96 µg/m3 25.76 µg/m3 0.29 mg/m3 19.3 °C 81.34 % 1,009.69 mbar 2.25 m/s 21.25 Deg 11.57 µg/m3 1.78 µg/m3
2023-05-14 08:00 20.18 µg/m3 0.19 µg/m3 68.77 µg/m3 41.04 µg/m3 27.68 µg/m3 0.26 mg/m3 19.94 °C 77.94 % 1,010.26 mbar 1.46 m/s 24.47 Deg 9.34 µg/m3 2.47 µg/m3
2023-05-14 07:00 33.05 µg/m3 0.29 µg/m3 44.12 µg/m3 71.17 µg/m3 33.74 µg/m3 0.32 mg/m3 20.93 °C 70.77 % 1,008.99 mbar 1.45 m/s 42.52 Deg 11.06 µg/m3 6.56 µg/m3
2023-05-14 06:00 59.28 µg/m3 0.39 µg/m3 9.81 µg/m3 78.5 µg/m3 34.56 µg/m3 0.61 mg/m3 21.12 °C 68 % 1,008.27 mbar 0.88 m/s 193.18 Deg 21.73 µg/m3 3.41 µg/m3
2023-05-14 05:00 50.9 µg/m3 0.18 µg/m3 17.95 µg/m3 73.4 µg/m3 33.28 µg/m3 0.24 mg/m3 21.2 °C 67.65 % 1,006.94 mbar 0.81 m/s 263.8 Deg 11.36 µg/m3 1.94 µg/m3
2023-05-14 04:00 18.4 µg/m3 0.06 µg/m3 71.35 µg/m3 45.7 µg/m3 30.66 µg/m3 0.2 mg/m3 20.03 °C 75.62 % 1,007.33 mbar 1.48 m/s 48.3 Deg 2.93 µg/m3 1.31 µg/m3
2023-05-14 03:00 7.22 µg/m3 0.01 µg/m3 76.54 µg/m3 50.81 µg/m3 29.59 µg/m3 0.2 mg/m3 20.49 °C 73.01 % 1,008.41 mbar 1.2 m/s 106.63 Deg 1.21 µg/m3 1.52 µg/m3
2023-05-14 02:00 19.42 µg/m3 0.06 µg/m3 63.13 µg/m3 74.56 µg/m3 33.47 µg/m3 0.24 mg/m3 21.47 °C 67.62 % 1,008.30 mbar 0.96 m/s 112.4 Deg 2.54 µg/m3 1.68 µg/m3
2023-05-14 01:00 11.93 µg/m3 0.06 µg/m3 76.62 µg/m3 66.14 µg/m3 30.18 µg/m3 0.2 mg/m3 22.99 °C 60.2 % 1,008.65 mbar 1.64 m/s 231.85 Deg 2.08 µg/m3 1.05 µg/m3
2023-05-14 00:00 5.5 µg/m3 0.02 µg/m3 85.22 µg/m3 61.71 µg/m3 26.74 µg/m3 0.18 mg/m3 22.84 °C 60.23 % 1,008.07 mbar 2.81 m/s 207.85 Deg 0.65 µg/m3 1.42 µg/m3
2023-05-13 23:00 17.55 µg/m3 0.11 µg/m3 77.8 µg/m3 66.47 µg/m3 27.86 µg/m3 0.23 mg/m3 22.08 °C 63.14 % 1,007.35 mbar 1.95 m/s 189.07 Deg 6.14 µg/m3 1.31 µg/m3
2023-05-13 22:00 16.19 µg/m3 0.12 µg/m3 78.54 µg/m3 62.16 µg/m3 22.54 µg/m3 0.21 mg/m3 22.11 °C 62.72 % 1,008.17 mbar 2.77 m/s 167.9 Deg 6.9 µg/m3 1.36 µg/m3
2023-05-13 21:00 19.92 µg/m3 0.09 µg/m3 72.79 µg/m3 58.54 µg/m3 22.98 µg/m3 0.24 mg/m3 21.58 °C 66.5 % 1,008.52 mbar 2.12 m/s 148 Deg 6.22 µg/m3 1.42 µg/m3
2023-05-13 20:00 21.53 µg/m3 0.05 µg/m3 68.83 µg/m3 49.63 µg/m3 21.51 µg/m3 0.24 mg/m3 21.17 °C 69.57 % 1,008.66 mbar 2.87 m/s 116.98 Deg 6.41 µg/m3 1.63 µg/m3
2023-05-13 19:00 19.17 µg/m3 0.1 µg/m3 71.44 µg/m3 41.03 µg/m3 23.41 µg/m3 0.27 mg/m3 20.67 °C 73.06 % 1,009.02 mbar 3.2 m/s 117.92 Deg 8.17 µg/m3 1.47 µg/m3
2023-05-13 18:00 17.05 µg/m3 0.06 µg/m3 75.25 µg/m3 38.86 µg/m3 21.52 µg/m3 0.28 mg/m3 20.63 °C 72.87 % 1,008.80 mbar 3.93 m/s 112.32 Deg 8.65 µg/m3 1.84 µg/m3
2023-05-13 17:00 18.84 µg/m3 0.1 µg/m3 81.58 µg/m3 32.28 µg/m3 18.4 µg/m3 0.26 mg/m3 20.71 °C 72.2 % 1,009.58 mbar 3.86 m/s 191.95 Deg 7.94 µg/m3 1.63 µg/m3
2023-05-13 16:00 15.1 µg/m3 0.09 µg/m3 85.55 µg/m3 28.19 µg/m3 14.81 µg/m3 0.24 mg/m3 20.98 °C 69.7 % 1,009.99 mbar 4.83 m/s 112.8 Deg 8.3 µg/m3 1.21 µg/m3
2023-05-13 15:00 13.7 µg/m3 0.07 µg/m3 83.84 µg/m3 27.48 µg/m3 13.55 µg/m3 0.24 mg/m3 21.16 °C 68.02 % 1,010.73 mbar 5.23 m/s 109.87 Deg 9.71 µg/m3 1.36 µg/m3
2023-05-13 14:00 19.77 µg/m3 0.15 µg/m3 78.68 µg/m3 31.34 µg/m3 14.28 µg/m3 0.22 mg/m3 21.35 °C 66.55 % 1,011.96 mbar 4.66 m/s 109.7 Deg 10.66 µg/m3 1.15 µg/m3
2023-05-13 13:00 14.33 µg/m3 0.16 µg/m3 78.01 µg/m3 33.85 µg/m3 15.67 µg/m3 0.23 mg/m3 20.93 °C 69.51 % 1,012.11 mbar 4.98 m/s 195.12 Deg 11.14 µg/m3 1.31 µg/m3
2023-05-13 12:00 29.4 µg/m3 0.26 µg/m3 66.76 µg/m3 44.55 µg/m3 18.66 µg/m3 0.27 mg/m3 20.21 °C 72.23 % 1,013.50 mbar 5.05 m/s 94.83 Deg 15.05 µg/m3 1.89 µg/m3
2023-05-13 11:00 37.21 µg/m3 0.26 µg/m3 57.86 µg/m3 67.76 µg/m3 22.8 µg/m3 0.28 mg/m3 20.68 °C 69.28 % 1,014.97 mbar 4.28 m/s 78.15 Deg 19.57 µg/m3 1.84 µg/m3
2023-05-13 10:00 46.58 µg/m3 0.36 µg/m3 50.22 µg/m3 20.97 µg/m3 12.12 µg/m3 0.26 mg/m3 20.44 °C 70.73 % 1,015.43 mbar 4.33 m/s 71.42 Deg 22.42 µg/m3 2.15 µg/m3
2023-05-13 09:00 45.21 µg/m3 0.44 µg/m3 47.46 µg/m3 23.8 µg/m3 14.21 µg/m3 0.33 mg/m3 20.01 °C 73.37 % 1,016.72 mbar 2.48 m/s 108.33 Deg 27.75 µg/m3 1.68 µg/m3
2023-05-13 08:00 18.47 µg/m3 0.18 µg/m3 70.33 µg/m3 27.17 µg/m3 13.56 µg/m3 0.23 mg/m3 20.37 °C 68.91 % 1,012.76 mbar 3.85 m/s 140.22 Deg 11.38 µg/m3 1.36 µg/m3
2023-05-13 07:00 19.61 µg/m3 0.16 µg/m3 74.31 µg/m3 25.99 µg/m3 12.08 µg/m3 0.21 mg/m3 20.77 °C 65.08 % 1,012.46 mbar 4.15 m/s 209.88 Deg 8.81 µg/m3 1.21 µg/m3
2023-05-13 06:00 20.6 µg/m3 0.17 µg/m3 70.1 µg/m3 23.67 µg/m3 11.69 µg/m3 0.2 mg/m3 20.43 °C 66.79 % 1,012.66 mbar 3.98 m/s 83.28 Deg 6.94 µg/m3 1.05 µg/m3
2023-05-13 05:00 18.71 µg/m3 0.09 µg/m3 67.77 µg/m3 18.02 µg/m3 12.45 µg/m3 0.19 mg/m3 19.63 °C 75.01 % 1,013.58 mbar 2.86 m/s 144.95 Deg 5.63 µg/m3 0.89 µg/m3
2023-05-13 04:00 10.63 µg/m3 0.08 µg/m3 73.33 µg/m3 16.53 µg/m3 12.4 µg/m3 0.17 mg/m3 19.53 °C 77.2 % 1,014.42 mbar 1.79 m/s 128.52 Deg 1.55 µg/m3 0.73 µg/m3
2023-05-13 03:00 14.31 µg/m3 0.02 µg/m3 70.39 µg/m3 14.03 µg/m3 10.73 µg/m3 0.2 mg/m3 19.72 °C 73.5 % 1,013.75 mbar 1.91 m/s 134.97 Deg 1.55 µg/m3 0.73 µg/m3
2023-05-13 02:00 3.46 µg/m3 0.05 µg/m3 75.61 µg/m3 15.44 µg/m3 11.68 µg/m3 0.21 mg/m3 19.23 °C 78.15 % 1,014.45 mbar 1.61 m/s 180.08 Deg -0.14 µg/m3 0.84 µg/m3
2023-05-13 01:00 7.29 µg/m3 0.05 µg/m3 69.52 µg/m3 16.9 µg/m3 12.43 µg/m3 0.23 mg/m3 19.1 °C 81.78 % 1,015.18 mbar 1.59 m/s 160.5 Deg 1.2 µg/m3 0.94 µg/m3
2023-05-13 00:00 16.31 µg/m3 0.09 µg/m3 61.18 µg/m3 17.23 µg/m3 12.29 µg/m3 0.25 mg/m3 19.44 °C 77.99 % 1,015.08 mbar 1.53 m/s 199.2 Deg 4.35 µg/m3 1.63 µg/m3
2023-05-12 23:00 19.78 µg/m3 0.18 µg/m3 58.59 µg/m3 14.75 µg/m3 10.68 µg/m3 0.31 mg/m3 19.08 °C 79.04 % 1,014.63 mbar 2.32 m/s 75.97 Deg 12.41 µg/m3 1.57 µg/m3
2023-05-12 22:00 19.85 µg/m3 0.24 µg/m3 57.49 µg/m3 11.54 µg/m3 8.55 µg/m3 0.29 mg/m3 18.96 °C 80.32 % 1,015.41 mbar 2.58 m/s 68.88 Deg 11.79 µg/m3 2.05 µg/m3
2023-05-12 21:00 25.81 µg/m3 0.26 µg/m3 50.39 µg/m3 11.31 µg/m3 8.24 µg/m3 0.31 mg/m3 18.98 °C 80.07 % 1,015.53 mbar 2.45 m/s 63.63 Deg 15.48 µg/m3 2.41 µg/m3
2023-05-12 20:00 34.36 µg/m3 0.41 µg/m3 48.54 µg/m3 13.01 µg/m3 8.14 µg/m3 0.38 mg/m3 19.45 °C 73.9 % 1,015.40 mbar 2.18 m/s 46.53 Deg 24.89 µg/m3 3.1 µg/m3
2023-05-12 19:00 32.79 µg/m3 0.44 µg/m3 46.62 µg/m3 16.02 µg/m3 8.34 µg/m3 0.41 mg/m3 19.81 °C 69.29 % 1,015.39 mbar 2.46 m/s 188.4 Deg 27.8 µg/m3 2.41 µg/m3
2023-05-12 18:00 38.11 µg/m3 0.44 µg/m3 45.81 µg/m3 19.27 µg/m3 8.99 µg/m3 0.39 mg/m3 20.07 °C 69.66 % 1,015.77 mbar 2.17 m/s 176.28 Deg 25.98 µg/m3 2.62 µg/m3
2023-05-12 17:00 34.7 µg/m3 0.54 µg/m3 53.61 µg/m3 18.87 µg/m3 8.09 µg/m3 0.4 mg/m3 20.47 °C 66.9 % 1,015.53 mbar 2.54 m/s 82.88 Deg 30.56 µg/m3 3.2 µg/m3
2023-05-12 16:00 39.39 µg/m3 0.51 µg/m3 56.21 µg/m3 19.06 µg/m3 8.31 µg/m3 0.41 mg/m3 20.65 °C 66.37 % 1,015.73 mbar 2.63 m/s 165.53 Deg 37.32 µg/m3 2.62 µg/m3
2023-05-12 15:00 50.18 µg/m3 0.59 µg/m3 52.28 µg/m3 21.93 µg/m3 8.33 µg/m3 0.4 mg/m3 21.02 °C 61.19 % 1,016.30 mbar 2.36 m/s 161.27 Deg 41.24 µg/m3 2.41 µg/m3
2023-05-12 14:00 41.28 µg/m3 0.47 µg/m3 59.17 µg/m3 23.24 µg/m3 7.86 µg/m3 0.37 mg/m3 20.86 °C 62.55 % 1,016.55 mbar 2.3 m/s 139.37 Deg 31.26 µg/m3 2.57 µg/m3
2023-05-12 13:00 50.36 µg/m3 0.47 µg/m3 60.52 µg/m3 33.31 µg/m3 15.02 µg/m3 0.39 mg/m3 19.56 °C 69.5 % 1,017.39 mbar 1.86 m/s 99.38 Deg 28.43 µg/m3 3.46 µg/m3
2023-05-12 12:00 43.25 µg/m3 0.54 µg/m3 63.01 µg/m3 56.86 µg/m3 21.03 µg/m3 0.48 mg/m3 19.08 °C 74.75 % 1,017.38 mbar 2.56 m/s 41.12 Deg 40.86 µg/m3 2.52 µg/m3
2023-05-12 11:00 27.9 µg/m3 0.28 µg/m3 76.12 µg/m3 25.28 µg/m3 8.21 µg/m3 0 mg/m3 19.26 °C 75.65 % 1,017.39 mbar 1.35 m/s 217 Deg 10.72 µg/m3 2.73 µg/m3
2023-05-12 10:00 51.64 µg/m3 0.58 µg/m3 45.43 µg/m3 12.44 µg/m3 8.52 µg/m3 0 mg/m3 17.16 °C 80.27 % 1,017.01 mbar 1.08 m/s 160.6 Deg 28.87 µg/m3 2.78 µg/m3
2023-05-12 09:00 41.96 µg/m3 0.38 µg/m3 49.63 µg/m3 7.08 µg/m3 4.91 µg/m3 0.26 mg/m3 16.53 °C 75.15 % 1,017.14 mbar 1 m/s 221.3 Deg 13.49 µg/m3 2.62 µg/m3
2023-05-12 08:00 47.17 µg/m3 0.41 µg/m3 40.84 µg/m3 10.04 µg/m3 5.83 µg/m3 0.29 mg/m3 16.53 °C 75.12 % 1,016.78 mbar 1.51 m/s 211.68 Deg 15.45 µg/m3 3.73 µg/m3
2023-05-12 07:00 44.65 µg/m3 0.52 µg/m3 42.29 µg/m3 8.75 µg/m3 5.96 µg/m3 0.35 mg/m3 15.86 °C 77.96 % 1,016.60 mbar 1.81 m/s 246.6 Deg 23.3 µg/m3 1.57 µg/m3
2023-05-12 06:00 29.51 µg/m3 0.16 µg/m3 54.85 µg/m3 8.65 µg/m3 4.64 µg/m3 0.21 mg/m3 16.94 °C 72.55 % 1,017.49 mbar 2.39 m/s 226.3 Deg 5.1 µg/m3 1.36 µg/m3
2023-05-12 05:00 19.53 µg/m3 0.16 µg/m3 56.53 µg/m3 8.41 µg/m3 5.85 µg/m3 0.16 mg/m3 17.36 °C 76.54 % 1,016.26 mbar 1.44 m/s 204.08 Deg 1.83 µg/m3 1 µg/m3
2023-05-12 04:00 9.06 µg/m3 0.19 µg/m3 67.55 µg/m3 10.32 µg/m3 7.35 µg/m3 0.16 mg/m3 17.62 °C 82.72 % 1,015.89 mbar 0.95 m/s 200.45 Deg 4.1 µg/m3 0.84 µg/m3
2023-05-12 03:00 4.93 µg/m3 0.08 µg/m3 72.45 µg/m3 9.02 µg/m3 6.49 µg/m3 0.15 mg/m3 17.81 °C 81.4 % 1,016.07 mbar 1.15 m/s 257.02 Deg -0.13 µg/m3 0.84 µg/m3
2023-05-12 02:00 2.86 µg/m3 0.15 µg/m3 73.77 µg/m3 9.06 µg/m3 6.48 µg/m3 0.15 mg/m3 17.71 °C 81.47 % 1,016.62 mbar 1.07 m/s 223.23 Deg -0.24 µg/m3 0.68 µg/m3
2023-05-12 01:00 4.83 µg/m3 0.11 µg/m3 74.69 µg/m3 9.36 µg/m3 6.67 µg/m3 0.15 mg/m3 17.48 °C 81.47 % 1,016.69 mbar 1.27 m/s 232.65 Deg 0.04 µg/m3 0.79 µg/m3
2023-05-12 00:00 6.19 µg/m3 0.11 µg/m3 79.12 µg/m3 10.14 µg/m3 7.12 µg/m3 0.15 mg/m3 17.48 °C 79.97 % 1,016.75 mbar 1.16 m/s 213.95 Deg 0.02 µg/m3 0.94 µg/m3
2023-05-11 23:00 10.26 µg/m3 0.14 µg/m3 74.19 µg/m3 10.66 µg/m3 7.42 µg/m3 0.18 mg/m3 17.46 °C 78.13 % 1,016.71 mbar 1.48 m/s 223.33 Deg 0.28 µg/m3 1.21 µg/m3
2023-05-11 22:00 12.09 µg/m3 0.15 µg/m3 76.04 µg/m3 10.54 µg/m3 7.42 µg/m3 0.19 mg/m3 17.48 °C 74.31 % 1,016.47 mbar 1.49 m/s 214 Deg 0.24 µg/m3 1.15 µg/m3
2023-05-11 21:00 13.32 µg/m3 0.14 µg/m3 79.07 µg/m3 10.34 µg/m3 7.29 µg/m3 0.19 mg/m3 17.71 °C 72.83 % 1,016.27 mbar 1.78 m/s 230.83 Deg 0.71 µg/m3 1.1 µg/m3
2023-05-11 20:00 17.48 µg/m3 0.17 µg/m3 76.79 µg/m3 13.37 µg/m3 8.22 µg/m3 0.2 mg/m3 18.13 °C 70.11 % 1,015.75 mbar 2.41 m/s 233.92 Deg 2.56 µg/m3 1.36 µg/m3
2023-05-11 19:00 20.28 µg/m3 0.15 µg/m3 76.14 µg/m3 12.96 µg/m3 7.47 µg/m3 0.19 mg/m3 18.82 °C 64.01 % 1,015.29 mbar 2.84 m/s 247.28 Deg 3.8 µg/m3 1.31 µg/m3
2023-05-11 18:00 17.95 µg/m3 0.11 µg/m3 79.38 µg/m3 12.85 µg/m3 7.02 µg/m3 0.16 mg/m3 19.67 °C 56.46 % 1,015.13 mbar 3.21 m/s 239.8 Deg 4.59 µg/m3 1.47 µg/m3
2023-05-11 17:00 18.91 µg/m3 0.08 µg/m3 77.86 µg/m3 13.84 µg/m3 6.56 µg/m3 0.17 mg/m3 20.3 °C 54.4 % 1,015.11 mbar 3.46 m/s 243.48 Deg 4.49 µg/m3 1.31 µg/m3
2023-05-11 16:00 15.83 µg/m3 0.11 µg/m3 88.79 µg/m3 21.05 µg/m3 8.85 µg/m3 0.17 mg/m3 20.56 °C 60.38 % 1,015.09 mbar 3.51 m/s 233.62 Deg 3.26 µg/m3 1.21 µg/m3
2023-05-11 15:00 21.29 µg/m3 0.12 µg/m3 83.03 µg/m3 19.55 µg/m3 8.56 µg/m3 0.17 mg/m3 21.25 °C 53.93 % 1,015.31 mbar 3.33 m/s 241.95 Deg 5.5 µg/m3 1.26 µg/m3
2023-05-11 14:00 16.58 µg/m3 0.13 µg/m3 82.7 µg/m3 17.74 µg/m3 7.54 µg/m3 0.17 mg/m3 21.24 °C 55.57 % 1,015.58 mbar 2.93 m/s 248.7 Deg 4.44 µg/m3 1.26 µg/m3
2023-05-11 13:00 19.52 µg/m3 0.17 µg/m3 76.79 µg/m3 19.49 µg/m3 9.1 µg/m3 0.21 mg/m3 21.01 °C 64.11 % 1,015.58 mbar 2.58 m/s 287.4 Deg 8.8 µg/m3 1.52 µg/m3
2023-05-11 12:00 19.08 µg/m3 0.14 µg/m3 73.26 µg/m3 20.73 µg/m3 9.29 µg/m3 0.22 mg/m3 20.93 °C 62.92 % 1,015.64 mbar 2.58 m/s 313.93 Deg 11.71 µg/m3 36.79 µg/m3
2023-05-11 11:00 21.24 µg/m3 -0.09 µg/m3 63.64 µg/m3 20.57 µg/m3 9.8 µg/m3 0.18 mg/m3 20.82 °C 64.05 % 1,015.64 mbar 2.83 m/s 277.73 Deg 8.11 µg/m3 30.39 µg/m3
2023-05-11 10:00 20.87 µg/m3 0.06 µg/m3 0 µg/m3 21.08 µg/m3 9.66 µg/m3 0.26 mg/m3 20.61 °C 63.68 % 1,015.64 mbar 2.05 m/s 301.98 Deg 7.53 µg/m3 1.68 µg/m3
2023-05-11 09:00 25.8 µg/m3 -0.03 µg/m3 32.65 µg/m3 21.11 µg/m3 10.09 µg/m3 0 mg/m3 19.97 °C 66.89 % 1,015.50 mbar 2.48 m/s 294.4 Deg 10.13 µg/m3 1.89 µg/m3
2023-05-11 08:00 37.1 µg/m3 -0.14 µg/m3 43.51 µg/m3 30.5 µg/m3 14.04 µg/m3 0.28 mg/m3 18.92 °C 73.25 % 1,015.34 mbar 2.83 m/s 268.67 Deg 14.69 µg/m3 2.05 µg/m3
2023-05-11 07:00 32.81 µg/m3 -0.12 µg/m3 44.78 µg/m3 14.92 µg/m3 10.49 µg/m3 0.27 mg/m3 18.05 °C 80.21 % 1,015.08 mbar 3.05 m/s 261.93 Deg 11.24 µg/m3 2.05 µg/m3
2023-05-11 06:00 34.61 µg/m3 -0.2 µg/m3 36.06 µg/m3 14.65 µg/m3 10.2 µg/m3 0.28 mg/m3 17.29 °C 83.75 % 1,014.72 mbar 1.59 m/s 256.06 Deg 9.97 µg/m3 1.31 µg/m3
2023-05-11 05:00 20.03 µg/m3 -0.22 µg/m3 46.76 µg/m3 13.71 µg/m3 9.85 µg/m3 0.17 mg/m3 17.04 °C 85.61 % 1,014.53 mbar 0.69 m/s 226.68 Deg 2.64 µg/m3 1.21 µg/m3
2023-05-11 04:00 10.63 µg/m3 -0.3 µg/m3 52.86 µg/m3 16.19 µg/m3 12.96 µg/m3 0.15 mg/m3 16.52 °C 87.57 % 1,014.52 mbar 0.89 m/s 235.62 Deg 0.27 µg/m3 0.94 µg/m3
2023-05-11 03:00 6.85 µg/m3 -0.3 µg/m3 64.64 µg/m3 17.23 µg/m3 14.37 µg/m3 0.16 mg/m3 16.78 °C 86.44 % 1,014.44 mbar 0.93 m/s 218.15 Deg -0.1 µg/m3 0.84 µg/m3
2023-05-11 02:00 6.4 µg/m3 -0.37 µg/m3 70.92 µg/m3 17.99 µg/m3 14.55 µg/m3 0.16 mg/m3 17 °C 86.37 % 1,014.39 mbar 0.68 m/s 240.57 Deg -0.17 µg/m3 0.84 µg/m3
2023-05-11 01:00 8.35 µg/m3 -0.31 µg/m3 68.55 µg/m3 17.82 µg/m3 14.55 µg/m3 0.17 mg/m3 17.23 °C 85.1 % 1,014.80 mbar 0.93 m/s 227.42 Deg 0.1 µg/m3 1.21 µg/m3
2023-05-11 00:00 12.84 µg/m3 -0.31 µg/m3 67.06 µg/m3 16.11 µg/m3 13.29 µg/m3 0.2 mg/m3 17.31 °C 84.53 % 1,015.01 mbar 1.15 m/s 250.82 Deg 0.21 µg/m3 1.36 µg/m3
2023-05-10 23:00 16.24 µg/m3 -0.25 µg/m3 67.37 µg/m3 17.73 µg/m3 14.69 µg/m3 0.24 mg/m3 17.49 °C 85.83 % 1,014.98 mbar 1.45 m/s 246.33 Deg 0.87 µg/m3 1.68 µg/m3
2023-05-10 22:00 27.47 µg/m3 -0.27 µg/m3 57.42 µg/m3 20.58 µg/m3 16.15 µg/m3 0.28 mg/m3 17.98 °C 81.1 % 1,014.86 mbar 0.9 m/s 237.05 Deg 1.03 µg/m3 1.84 µg/m3
2023-05-10 21:00 24.09 µg/m3 -0.28 µg/m3 69.75 µg/m3 18.87 µg/m3 14.3 µg/m3 0.28 mg/m3 18.25 °C 79.91 % 1,014.68 mbar 0.81 m/s 272.22 Deg 0.68 µg/m3 1.99 µg/m3
2023-05-10 20:00 27.46 µg/m3 -0.21 µg/m3 71.14 µg/m3 19.54 µg/m3 15.25 µg/m3 0.26 mg/m3 18.67 °C 74.89 % 1,014.54 mbar 1.25 m/s 283.95 Deg 2.63 µg/m3 2.15 µg/m3
2023-05-10 19:00 32.56 µg/m3 -0.2 µg/m3 75.71 µg/m3 17.86 µg/m3 10.95 µg/m3 0.26 mg/m3 18.95 °C 62.11 % 1,013.96 mbar 1.17 m/s 309.82 Deg 6.23 µg/m3 2.05 µg/m3
2023-05-10 18:00 40.21 µg/m3 -0.16 µg/m3 70.28 µg/m3 21.72 µg/m3 13.45 µg/m3 0.28 mg/m3 18.89 °C 69.02 % 1,013.86 mbar 1.27 m/s 316.5 Deg 10.14 µg/m3 3.04 µg/m3
2023-05-10 17:00 41.38 µg/m3 0.06 µg/m3 75.52 µg/m3 31.66 µg/m3 14.96 µg/m3 0.47 mg/m3 18.85 °C 70.19 % 1,013.76 mbar 1.38 m/s 114.33 Deg 25.39 µg/m3 4.25 µg/m3
2023-05-10 16:00 40.5 µg/m3 -0.09 µg/m3 70.19 µg/m3 24.52 µg/m3 14.63 µg/m3 0.35 mg/m3 18.81 °C 73.91 % 1,013.84 mbar 1.75 m/s 232.9 Deg 15.29 µg/m3 2.15 µg/m3
2023-05-10 15:00 35.67 µg/m3 -0.05 µg/m3 76.77 µg/m3 21.68 µg/m3 14.03 µg/m3 0.33 mg/m3 19 °C 74.86 % 1,013.94 mbar 1.71 m/s 252.9 Deg 17.35 µg/m3 1.73 µg/m3
2023-05-10 14:00 28.51 µg/m3 -0.13 µg/m3 83.92 µg/m3 23.96 µg/m3 12.39 µg/m3 0.28 mg/m3 19.84 °C 70.76 % 1,014.32 mbar 1.58 m/s 175.8 Deg 16.83 µg/m3 2.41 µg/m3
2023-05-10 13:00 38.75 µg/m3 -0.01 µg/m3 80.74 µg/m3 25.57 µg/m3 12.6 µg/m3 0.34 mg/m3 19.63 °C 71.35 % 1,014.43 mbar 1.89 m/s 28.03 Deg 25.78 µg/m3 2.2 µg/m3
2023-05-10 12:00 24.26 µg/m3 -0.06 µg/m3 83.89 µg/m3 23.16 µg/m3 11.78 µg/m3 0.31 mg/m3 19.59 °C 71.26 % 1,014.49 mbar 1.63 m/s 97.88 Deg 20.81 µg/m3 1.94 µg/m3
2023-05-10 11:00 32.27 µg/m3 -0.05 µg/m3 82.36 µg/m3 24.33 µg/m3 12.84 µg/m3 0.31 mg/m3 18.85 °C 74.67 % 1,014.25 mbar 2.56 m/s 37.07 Deg 22.44 µg/m3 2.1 µg/m3
2023-05-10 10:00 26.73 µg/m3 0 µg/m3 79.71 µg/m3 25.54 µg/m3 12.9 µg/m3 0.3 mg/m3 18.74 °C 74.15 % 1,014.33 mbar 2.77 m/s 37.38 Deg 25.81 µg/m3 2.52 µg/m3
2023-05-10 09:00 31.54 µg/m3 0.05 µg/m3 73.82 µg/m3 31.85 µg/m3 14.31 µg/m3 0.32 mg/m3 18.76 °C 72.4 % 1,014.08 mbar 2.8 m/s 37.55 Deg 28.36 µg/m3 2.2 µg/m3
2023-05-10 08:00 33.28 µg/m3 -0.01 µg/m3 70.12 µg/m3 30.6 µg/m3 14.11 µg/m3 0.31 mg/m3 18.33 °C 73.04 % 1,013.51 mbar 2.7 m/s 36.65 Deg 24.04 µg/m3 2.94 µg/m3
2023-05-10 07:00 37.88 µg/m3 0.02 µg/m3 65.82 µg/m3 31.33 µg/m3 14.83 µg/m3 0.36 mg/m3 17.9 °C 71.37 % 1,013.23 mbar 2.02 m/s 34.3 Deg 22.57 µg/m3 3.31 µg/m3
2023-05-10 06:00 37.31 µg/m3 -0.07 µg/m3 57.76 µg/m3 25.4 µg/m3 14.91 µg/m3 0.34 mg/m3 17.46 °C 72.51 % 1,012.76 mbar 1.33 m/s 22.1 Deg 17.11 µg/m3 1.73 µg/m3
2023-05-10 05:00 18.38 µg/m3 -0.25 µg/m3 78.67 µg/m3 17.59 µg/m3 11.58 µg/m3 0.16 mg/m3 17.37 °C 72.68 % 1,012.60 mbar 2.32 m/s 33.87 Deg 5.82 µg/m3 1.15 µg/m3
2023-05-10 04:00 10.56 µg/m3 -0.26 µg/m3 88.36 µg/m3 16.1 µg/m3 11.29 µg/m3 0.15 mg/m3 17.43 °C 73.31 % 1,012.87 mbar 1.39 m/s 27.52 Deg 3.16 µg/m3 1 µg/m3
2023-05-10 03:00 7.45 µg/m3 -0.33 µg/m3 90.08 µg/m3 16.72 µg/m3 12.05 µg/m3 0.14 mg/m3 17.47 °C 74.9 % 1,012.86 mbar 0.98 m/s 181.25 Deg 0.66 µg/m3 0.89 µg/m3
2023-05-10 02:00 4.88 µg/m3 -0.31 µg/m3 92.44 µg/m3 15.98 µg/m3 11.49 µg/m3 0.13 mg/m3 17.51 °C 75.88 % 1,013.10 mbar 1.08 m/s 251.33 Deg 0.1 µg/m3 0.94 µg/m3
2023-05-10 01:00 7.62 µg/m3 -0.32 µg/m3 91.61 µg/m3 15.26 µg/m3 11.54 µg/m3 0.14 mg/m3 17.58 °C 76.44 % 1,013.38 mbar 2.54 m/s 32.62 Deg 0.92 µg/m3 0.94 µg/m3
2023-05-10 00:00 4.62 µg/m3 -0.32 µg/m3 94.88 µg/m3 15.12 µg/m3 11.42 µg/m3 0.15 mg/m3 17.62 °C 76.49 % 1,013.50 mbar 3.18 m/s 35.65 Deg 1.82 µg/m3 0.94 µg/m3
2023-05-09 23:00 7.73 µg/m3 -0.29 µg/m3 95.48 µg/m3 15.32 µg/m3 11.48 µg/m3 0.17 mg/m3 17.72 °C 74.98 % 1,013.46 mbar 3.93 m/s 35.97 Deg 3.4 µg/m3 1.1 µg/m3
2023-05-09 22:00 8.31 µg/m3 -0.26 µg/m3 96.11 µg/m3 15.16 µg/m3 11.36 µg/m3 0.17 mg/m3 17.71 °C 75.24 % 1,013.62 mbar 3.92 m/s 35.45 Deg 3.59 µg/m3 1.15 µg/m3
2023-05-09 21:00 7.79 µg/m3 -0.26 µg/m3 94.04 µg/m3 16.83 µg/m3 12.39 µg/m3 0.19 mg/m3 17.72 °C 75.7 % 1,013.65 mbar 4.03 m/s 35.6 Deg 6.08 µg/m3 1.47 µg/m3
2023-05-09 20:00 17.95 µg/m3 -0.25 µg/m3 88.92 µg/m3 18.2 µg/m3 13.33 µg/m3 0.23 mg/m3 17.67 °C 77.51 % 1,013.26 mbar 4.12 m/s 34.82 Deg 8.58 µg/m3 1.57 µg/m3
2023-05-09 19:00 17.89 µg/m3 -0.17 µg/m3 88.51 µg/m3 18.13 µg/m3 13.34 µg/m3 0.23 mg/m3 17.74 °C 78.15 % 1,012.98 mbar 4.68 m/s 35.62 Deg 12.66 µg/m3 1.63 µg/m3
2023-05-09 18:00 19.07 µg/m3 -0.17 µg/m3 85.57 µg/m3 18.46 µg/m3 13.46 µg/m3 0.24 mg/m3 17.79 °C 79.21 % 1,012.55 mbar 5.05 m/s 35.5 Deg 14.22 µg/m3 1.89 µg/m3
2023-05-09 17:00 20.98 µg/m3 -0.16 µg/m3 84.3 µg/m3 19.57 µg/m3 13.93 µg/m3 0.29 mg/m3 18.09 °C 79.9 % 1,012.30 mbar 4.33 m/s 34.5 Deg 15.4 µg/m3 2.31 µg/m3
2023-05-09 16:00 23.92 µg/m3 -0.08 µg/m3 85.98 µg/m3 22.51 µg/m3 13.43 µg/m3 0.29 mg/m3 18.62 °C 75.69 % 1,012.02 mbar 4.51 m/s 34.77 Deg 19.17 µg/m3 1.68 µg/m3
2023-05-09 15:00 17.59 µg/m3 -0.15 µg/m3 87.89 µg/m3 21.96 µg/m3 13.18 µg/m3 0.25 mg/m3 18.85 °C 73.34 % 1,012.04 mbar 5.24 m/s 35.43 Deg 19.89 µg/m3 1.57 µg/m3
2023-05-09 14:00 19.18 µg/m3 -0.11 µg/m3 85.57 µg/m3 23.52 µg/m3 13.63 µg/m3 0.26 mg/m3 19.11 °C 73.28 % 1,012.24 mbar 5.14 m/s 38.98 Deg 21.23 µg/m3 1.47 µg/m3
2023-05-09 13:00 21.29 µg/m3 -0.15 µg/m3 88.13 µg/m3 21.94 µg/m3 14.26 µg/m3 0.24 mg/m3 18.9 °C 76.36 % 1,012.15 mbar 5.91 m/s 38.3 Deg 17.7 µg/m3 1.78 µg/m3
2023-05-09 12:00 24.89 µg/m3 -0.09 µg/m3 85.33 µg/m3 24.13 µg/m3 17.21 µg/m3 0.3 mg/m3 18.69 °C 82.52 % 1,012.02 mbar 4.95 m/s 40.8 Deg 21.3 µg/m3 1.89 µg/m3
2023-05-09 11:00 24.43 µg/m3 -0.14 µg/m3 80.19 µg/m3 28.72 µg/m3 19.84 µg/m3 0.29 mg/m3 18.16 °C 84.56 % 1,011.87 mbar 4.83 m/s 35.87 Deg 19.5 µg/m3 1.78 µg/m3
2023-05-09 10:00 22.62 µg/m3 -0.1 µg/m3 73.22 µg/m3 32.94 µg/m3 22.35 µg/m3 0.29 mg/m3 17.91 °C 84.08 % 1,011.87 mbar 4.31 m/s 38.23 Deg 20.46 µg/m3 1.78 µg/m3
2023-05-09 09:00 24.02 µg/m3 -0.07 µg/m3 82.25 µg/m3 17.67 µg/m3 12.96 µg/m3 0.25 mg/m3 17.91 °C 80.05 % 1,012.01 mbar 4.38 m/s 40.8 Deg 21.72 µg/m3 1.78 µg/m3
2023-05-09 08:00 21.89 µg/m3 -0.09 µg/m3 80.18 µg/m3 13.76 µg/m3 11.4 µg/m3 0.27 mg/m3 17.64 °C 84.84 % 1,012.01 mbar 4.23 m/s 36.3 Deg 21.73 µg/m3 1.94 µg/m3
2023-05-09 07:00 28.77 µg/m3 -0.1 µg/m3 77.03 µg/m3 14.24 µg/m3 11.4 µg/m3 0.3 mg/m3 17.44 °C 83.13 % 1,012.03 mbar 3.57 m/s 37.88 Deg 18.55 µg/m3 1.89 µg/m3
2023-05-09 06:00 21.53 µg/m3 -0.12 µg/m3 79.34 µg/m3 16.1 µg/m3 12.45 µg/m3 0.28 mg/m3 17.52 °C 83.39 % 1,012.50 mbar 2.72 m/s 39.52 Deg 19.33 µg/m3 1.26 µg/m3
2023-05-09 05:00 9.34 µg/m3 -0.31 µg/m3 89.7 µg/m3 13.03 µg/m3 10.83 µg/m3 0.17 mg/m3 17.59 °C 81.83 % 1,011.91 mbar 3.88 m/s 42.02 Deg 4.24 µg/m3 0.94 µg/m3
2023-05-09 04:00 5.78 µg/m3 -0.26 µg/m3 97.42 µg/m3 11.66 µg/m3 10.25 µg/m3 0.13 mg/m3 17.68 °C 79.35 % 1,011.19 mbar 5.07 m/s 40.2 Deg 0.93 µg/m3 0.84 µg/m3
2023-05-09 03:00 2.95 µg/m3 -0.32 µg/m3 95.87 µg/m3 11.77 µg/m3 10.5 µg/m3 0.19 mg/m3 17.59 °C 83.27 % 1,011.22 mbar 5.13 m/s 42.88 Deg 0.76 µg/m3 0.89 µg/m3
2023-05-09 02:00 6.09 µg/m3 -0.32 µg/m3 90.03 µg/m3 11.47 µg/m3 10.05 µg/m3 0.18 mg/m3 17.53 °C 83.87 % 1,012.18 mbar 4.62 m/s 40.85 Deg 0.16 µg/m3 1 µg/m3
2023-05-09 01:00 8.24 µg/m3 -0.32 µg/m3 86.34 µg/m3 12.4 µg/m3 10.68 µg/m3 0.19 mg/m3 17.45 °C 85.32 % 1,013.98 mbar 2.97 m/s 41.5 Deg 1.05 µg/m3 1.05 µg/m3
2023-05-09 00:00 10.11 µg/m3 -0.31 µg/m3 83.53 µg/m3 14.74 µg/m3 11.94 µg/m3 0.19 mg/m3 17.62 °C 86.09 % 1,014.51 mbar 1.88 m/s 33.42 Deg 1.7 µg/m3 1.42 µg/m3
2023-05-08 23:00 15.06 µg/m3 -0.25 µg/m3 74.92 µg/m3 14.34 µg/m3 11.56 µg/m3 0.21 mg/m3 17.6 °C 85.53 % 1,015.08 mbar 2.22 m/s 43.28 Deg 4.16 µg/m3 1.57 µg/m3
2023-05-08 22:00 21.97 µg/m3 -0.2 µg/m3 69.37 µg/m3 14.39 µg/m3 11.08 µg/m3 0.25 mg/m3 17.92 °C 84.44 % 1,016.49 mbar 2.59 m/s 55.93 Deg 9.76 µg/m3 1.36 µg/m3
2023-05-08 21:00 17.36 µg/m3 -0.22 µg/m3 80.5 µg/m3 19.58 µg/m3 13.97 µg/m3 0.27 mg/m3 18.36 °C 84.59 % 1,015.02 mbar 2.14 m/s 33.3 Deg 7.31 µg/m3 1.68 µg/m3
2023-05-08 20:00 27.76 µg/m3 -0.13 µg/m3 71.52 µg/m3 22.83 µg/m3 15.71 µg/m3 0.31 mg/m3 18.36 °C 84.1 % 1,014.81 mbar 2.05 m/s 39.65 Deg 17.25 µg/m3 2.26 µg/m3
2023-05-08 19:00 22.96 µg/m3 -0.12 µg/m3 72.19 µg/m3 17.6 µg/m3 12.88 µg/m3 0.33 mg/m3 18.31 °C 84.56 % 1,014.43 mbar 3.64 m/s 50.63 Deg 19.2 µg/m3 1.99 µg/m3
2023-05-08 18:00 28.26 µg/m3 -0.06 µg/m3 70.46 µg/m3 20.14 µg/m3 14.23 µg/m3 0.35 mg/m3 18.49 °C 83.06 % 1,014.39 mbar 3.82 m/s 49.27 Deg 25.73 µg/m3 2.73 µg/m3
2023-05-08 17:00 38.76 µg/m3 0.03 µg/m3 67.4 µg/m3 20.15 µg/m3 13.98 µg/m3 0.42 mg/m3 18.61 °C 81.64 % 1,014.54 mbar 3.93 m/s 50.38 Deg 31.4 µg/m3 2.47 µg/m3
2023-05-08 16:00 29.79 µg/m3 -0.09 µg/m3 71.39 µg/m3 16.5 µg/m3 11.86 µg/m3 0.38 mg/m3 18.68 °C 81.48 % 1,014.42 mbar 4.82 m/s 53.27 Deg 25.41 µg/m3 2.05 µg/m3
2023-05-08 15:00 24.1 µg/m3 -0.06 µg/m3 71.3 µg/m3 17.13 µg/m3 12.64 µg/m3 0.34 mg/m3 18.54 °C 83 % 1,014.30 mbar 5.75 m/s 54.73 Deg 26.05 µg/m3 1.78 µg/m3
2023-05-08 14:00 24.52 µg/m3 -0.05 µg/m3 70.07 µg/m3 15.44 µg/m3 11.75 µg/m3 0.32 mg/m3 18.5 °C 85.67 % 1,014.53 mbar 6.38 m/s 57.77 Deg 22.84 µg/m3 1.94 µg/m3
2023-05-08 13:00 28 µg/m3 -0.03 µg/m3 71 µg/m3 17.76 µg/m3 12.78 µg/m3 0.33 mg/m3 18.57 °C 85.14 % 1,016.43 mbar 5.12 m/s 52.53 Deg 23.46 µg/m3 2.15 µg/m3
2023-05-08 12:00 32.31 µg/m3 0.02 µg/m3 64.93 µg/m3 17.77 µg/m3 12.37 µg/m3 0.38 mg/m3 18.88 °C 82.23 % 1,018.84 mbar 2.45 m/s 48.13 Deg 28.99 µg/m3 2.89 µg/m3
2023-05-08 11:00 39.02 µg/m3 0.11 µg/m3 64.93 µg/m3 17.45 µg/m3 12.28 µg/m3 0.38 mg/m3 18.89 °C 82.33 % 1,018.00 mbar 3.48 m/s 52.45 Deg 29.5 µg/m3 2.57 µg/m3
2023-05-08 10:00 32.84 µg/m3 0.09 µg/m3 69.11 µg/m3 19.26 µg/m3 11.83 µg/m3 0.38 mg/m3 19.27 °C 77.53 % 1,017.95 mbar 3.42 m/s 54.97 Deg 30.65 µg/m3 2.57 µg/m3
2023-05-08 09:00 51 µg/m3 0.03 µg/m3 46.82 µg/m3 28.19 µg/m3 13.81 µg/m3 0.36 mg/m3 19.56 °C 74.27 % 1,018.35 mbar 0.82 m/s 245.5 Deg 24.26 µg/m3 2.41 µg/m3
2023-05-08 08:00 46.2 µg/m3 0.13 µg/m3 49.37 µg/m3 17.21 µg/m3 12.19 µg/m3 0.37 mg/m3 18.6 °C 80.26 % 1,016.55 mbar 3.72 m/s 57.87 Deg 30.99 µg/m3 3.46 µg/m3
2023-05-08 07:00 73.68 µg/m3 0.34 µg/m3 24.32 µg/m3 21.87 µg/m3 15.1 µg/m3 0.47 mg/m3 18.64 °C 76.82 % 1,017.18 mbar 1.82 m/s 51.13 Deg 45.9 µg/m3 3.52 µg/m3
2023-05-08 06:00 51.16 µg/m3 0.01 µg/m3 44.45 µg/m3 20.96 µg/m3 15.22 µg/m3 0.38 mg/m3 18.42 °C 75.98 % 1,016.68 mbar 1.5 m/s 56.7 Deg 26 µg/m3 2.26 µg/m3
2023-05-08 05:00 19.34 µg/m3 -0.24 µg/m3 76.14 µg/m3 15.17 µg/m3 11.74 µg/m3 0.21 mg/m3 18.36 °C 77.6 % 1,016.18 mbar 2.29 m/s 61.98 Deg 6.39 µg/m3 1.31 µg/m3
2023-05-08 04:00 20.02 µg/m3 -0.28 µg/m3 67.23 µg/m3 12.3 µg/m3 10.21 µg/m3 0.17 mg/m3 18.25 °C 82.02 % 1,016.13 mbar 2.1 m/s 71.35 Deg 3.11 µg/m3 1 µg/m3
2023-05-08 03:00 5.59 µg/m3 -0.25 µg/m3 82.09 µg/m3 11.99 µg/m3 10.02 µg/m3 0.17 mg/m3 18.49 °C 80.69 % 1,016.77 mbar 1.99 m/s 55.15 Deg 1.47 µg/m3 0.79 µg/m3
2023-05-08 02:00 22.46 µg/m3 -0.32 µg/m3 67.57 µg/m3 11.43 µg/m3 9.67 µg/m3 0.18 mg/m3 18.66 °C 78.4 % 1,016.52 mbar 2.15 m/s 70.32 Deg 1.5 µg/m3 0.84 µg/m3
2023-05-08 01:00 21.77 µg/m3 -0.3 µg/m3 67.55 µg/m3 11.11 µg/m3 9.38 µg/m3 0.18 mg/m3 18.8 °C 78.69 % 1,016.95 mbar 2.19 m/s 81.52 Deg 1.85 µg/m3 1 µg/m3
2023-05-08 00:00 19.5 µg/m3 -0.27 µg/m3 70.99 µg/m3 11.57 µg/m3 9.6 µg/m3 0.19 mg/m3 18.8 °C 80.35 % 1,017.55 mbar 2.4 m/s 70.62 Deg 3.56 µg/m3 1.1 µg/m3
2023-05-07 23:00 23.04 µg/m3 -0.24 µg/m3 69.48 µg/m3 13.39 µg/m3 10.64 µg/m3 0.23 mg/m3 18.76 °C 81.93 % 1,017.35 mbar 2.08 m/s 127.93 Deg 6.17 µg/m3 1.52 µg/m3
2023-05-07 22:00 28.81 µg/m3 -0.15 µg/m3 61.32 µg/m3 14.72 µg/m3 11.22 µg/m3 0.3 mg/m3 18.98 °C 80.59 % 1,017.76 mbar 1.95 m/s 75.72 Deg 11 µg/m3 2.05 µg/m3
2023-05-07 21:00 24.25 µg/m3 -0.08 µg/m3 65.62 µg/m3 15.02 µg/m3 11.49 µg/m3 0.32 mg/m3 19.15 °C 79.69 % 1,018.08 mbar 1.87 m/s 181.4 Deg 12.5 µg/m3 2.62 µg/m3
2023-05-07 20:00 34.57 µg/m3 -0.06 µg/m3 59.9 µg/m3 16.4 µg/m3 12.12 µg/m3 0.35 mg/m3 19.48 °C 76.36 % 1,017.88 mbar 1.51 m/s 109.7 Deg 19.44 µg/m3 2.05 µg/m3
2023-05-07 19:00 31.07 µg/m3 -0.13 µg/m3 63.63 µg/m3 16.83 µg/m3 10.93 µg/m3 0.31 mg/m3 19.98 °C 71.88 % 1,016.60 mbar 2.31 m/s 184.87 Deg 15.31 µg/m3 2.47 µg/m3
2023-05-07 18:00 25.35 µg/m3 -0.07 µg/m3 69.27 µg/m3 16.72 µg/m3 10.61 µg/m3 0.29 mg/m3 20.29 °C 71.07 % 1,016.70 mbar 2.72 m/s 106.33 Deg 14.57 µg/m3 2.26 µg/m3
2023-05-07 17:00 31.57 µg/m3 -0.2 µg/m3 67.17 µg/m3 16.8 µg/m3 10.73 µg/m3 0.29 mg/m3 20.59 °C 68.8 % 1,017.18 mbar 2.35 m/s 148.75 Deg 15.65 µg/m3 2.2 µg/m3
2023-05-07 16:00 21.09 µg/m3 -0.29 µg/m3 72 µg/m3 16.34 µg/m3 9.76 µg/m3 0.27 mg/m3 21.05 °C 65.92 % 1,017.37 mbar 2.95 m/s 120.33 Deg 11.65 µg/m3 1.73 µg/m3
2023-05-07 15:00 20.19 µg/m3 -0.25 µg/m3 76.49 µg/m3 16.83 µg/m3 9.79 µg/m3 0.23 mg/m3 21.71 °C 59.36 % 1,017.57 mbar 2.91 m/s 116.52 Deg 12.07 µg/m3 1.42 µg/m3
2023-05-07 14:00 15.09 µg/m3 -0.35 µg/m3 84.64 µg/m3 12.43 µg/m3 8.66 µg/m3 0.18 mg/m3 22.81 °C 51.28 % 1,018.53 mbar 2.34 m/s 137.6 Deg 7.31 µg/m3 1.57 µg/m3
2023-05-07 13:00 26.29 µg/m3 -0.22 µg/m3 73.68 µg/m3 13.54 µg/m3 8.74 µg/m3 0.25 mg/m3 21.87 °C 60.1 % 1,018.14 mbar 2.89 m/s 134.07 Deg 14.36 µg/m3 1.89 µg/m3
2023-05-07 12:00 18.69 µg/m3 -0.27 µg/m3 76.47 µg/m3 16.14 µg/m3 9.26 µg/m3 0.27 mg/m3 21.38 °C 63.41 % 1,017.46 mbar 3.17 m/s 117.28 Deg 12.13 µg/m3 2.2 µg/m3
2023-05-07 11:00 18.04 µg/m3 -0.24 µg/m3 77.99 µg/m3 15.89 µg/m3 9.28 µg/m3 0.27 mg/m3 21.76 °C 58.81 % 1,017.67 mbar 3.06 m/s 141.93 Deg 15.29 µg/m3 2.2 µg/m3
2023-05-07 10:00 18.32 µg/m3 -0.22 µg/m3 80.12 µg/m3 12.48 µg/m3 8.05 µg/m3 0.27 mg/m3 21.91 °C 55.67 % 1,018.59 mbar 2.07 m/s 156.65 Deg 10.6 µg/m3 2.05 µg/m3
2023-05-07 09:00 20.38 µg/m3 -0.13 µg/m3 73.07 µg/m3 12.81 µg/m3 7.94 µg/m3 0.29 mg/m3 20.92 °C 61.26 % 1,018.21 mbar 1.65 m/s 149.45 Deg 14.81 µg/m3 1.57 µg/m3
2023-05-07 08:00 19.48 µg/m3 -0.15 µg/m3 68.51 µg/m3 11.95 µg/m3 8.48 µg/m3 0.29 mg/m3 19.28 °C 76.95 % 1,017.58 mbar 1.52 m/s 141.83 Deg 7.41 µg/m3 2.2 µg/m3
2023-05-07 07:00 27.16 µg/m3 -0.12 µg/m3 49.28 µg/m3 14.18 µg/m3 11.18 µg/m3 0.29 mg/m3 18.06 °C 87.21 % 1,017.23 mbar 0.89 m/s 153.5 Deg 8.26 µg/m3 1.94 µg/m3
2023-05-07 06:00 41.26 µg/m3 -0.07 µg/m3 24.07 µg/m3 20.82 µg/m3 16.73 µg/m3 0.28 mg/m3 17.03 °C 89.04 % 1,016.62 mbar 0.65 m/s 207.58 Deg 6.54 µg/m3 1.78 µg/m3
2023-05-07 05:00 25.26 µg/m3 -0.17 µg/m3 33.24 µg/m3 21.96 µg/m3 19.17 µg/m3 0.21 mg/m3 16.88 °C 89.46 % 1,016.02 mbar 0.69 m/s 204.2 Deg 1.06 µg/m3 2.36 µg/m3
2023-05-07 04:00 33.43 µg/m3 -0.13 µg/m3 28.79 µg/m3 18.79 µg/m3 16.63 µg/m3 0.19 mg/m3 16.88 °C 89.02 % 1,015.93 mbar 0.63 m/s 175.72 Deg 1.23 µg/m3 9.87 µg/m3
2023-05-07 03:00 37.76 µg/m3 -0.18 µg/m3 22.95 µg/m3 22.13 µg/m3 17.84 µg/m3 0.3 mg/m3 16.79 °C 86.32 % 1,016.00 mbar 0.72 m/s 200.3 Deg 4.02 µg/m3 1.94 µg/m3
2023-05-07 02:00 35.15 µg/m3 -0.19 µg/m3 31.65 µg/m3 19.37 µg/m3 15.1 µg/m3 0.27 mg/m3 17.26 °C 84.89 % 1,016.43 mbar 0.62 m/s 163.8 Deg 2.9 µg/m3 2.47 µg/m3
2023-05-07 01:00 35.35 µg/m3 -0.1 µg/m3 39.79 µg/m3 18.85 µg/m3 14.31 µg/m3 0.33 mg/m3 17.69 °C 84.62 % 1,016.81 mbar 0.62 m/s 156.28 Deg 8.92 µg/m3 2.78 µg/m3
2023-05-07 00:00 23.42 µg/m3 -0.2 µg/m3 45.59 µg/m3 20.5 µg/m3 15.77 µg/m3 0.3 mg/m3 17.98 °C 82.12 % 1,017.37 mbar 0.66 m/s 190.63 Deg 0.95 µg/m3 2.2 µg/m3
2023-05-06 23:00 25.23 µg/m3 -0.17 µg/m3 47.84 µg/m3 18.87 µg/m3 14.51 µg/m3 0.3 mg/m3 18.35 °C 78.89 % 1,017.53 mbar 0.84 m/s 198.17 Deg 2.53 µg/m3 2.15 µg/m3
2023-05-06 22:00 28.32 µg/m3 -0.09 µg/m3 56.12 µg/m3 15.37 µg/m3 11.3 µg/m3 0.3 mg/m3 18.9 °C 72.84 % 1,017.58 mbar 0.66 m/s 174.88 Deg 8.35 µg/m3 1.57 µg/m3
2023-05-06 21:00 17.03 µg/m3 -0.22 µg/m3 63.62 µg/m3 12.3 µg/m3 9.24 µg/m3 0.25 mg/m3 18.96 °C 73.61 % 1,017.24 mbar 0.66 m/s 172.55 Deg 2.18 µg/m3 2.26 µg/m3
2023-05-06 20:00 18.27 µg/m3 -0.18 µg/m3 64.93 µg/m3 14.12 µg/m3 8.96 µg/m3 0.25 mg/m3 19.41 °C 66.54 % 1,016.72 mbar 1.1 m/s 204.8 Deg 2.17 µg/m3 1.68 µg/m3
2023-05-06 19:00 16.43 µg/m3 -0.22 µg/m3 73.63 µg/m3 10.55 µg/m3 5.71 µg/m3 0.2 mg/m3 20.74 °C 53.62 % 1,016.53 mbar 1.73 m/s 207.85 Deg 1.32 µg/m3 1.57 µg/m3
2023-05-06 18:00 13.07 µg/m3 -0.33 µg/m3 78.08 µg/m3 11.63 µg/m3 6.03 µg/m3 0.21 mg/m3 21.29 °C 55.97 % 1,016.58 mbar 2.29 m/s 229.58 Deg 1.9 µg/m3 1.52 µg/m3
2023-05-06 17:00 13.67 µg/m3 -0.39 µg/m3 80.04 µg/m3 11.06 µg/m3 6.24 µg/m3 0.17 mg/m3 21.81 °C 54.02 % 1,016.81 mbar 2.52 m/s 223.13 Deg 3.26 µg/m3 1 µg/m3
2023-05-06 16:00 8.53 µg/m3 -0.39 µg/m3 90.77 µg/m3 11.32 µg/m3 5.36 µg/m3 0.13 mg/m3 22.19 °C 48.13 % 1,016.82 mbar 2.98 m/s 220.77 Deg 1.3 µg/m3 1.26 µg/m3
2023-05-06 15:00 13.8 µg/m3 -0.23 µg/m3 90.25 µg/m3 10.97 µg/m3 5.13 µg/m3 0.19 mg/m3 21.64 °C 53.54 % 1,016.98 mbar 3.14 m/s 131.03 Deg 8.03 µg/m3 1.99 µg/m3
2023-05-06 14:00 15.92 µg/m3 -0.21 µg/m3 98.16 µg/m3 10.6 µg/m3 6.52 µg/m3 0.32 mg/m3 19.6 °C 71.48 % 1,017.39 mbar 4.53 m/s 53.83 Deg 13.93 µg/m3 2.47 µg/m3
2023-05-06 13:00 22.42 µg/m3 -0.2 µg/m3 95.27 µg/m3 12.02 µg/m3 7.14 µg/m3 0.43 mg/m3 19.61 °C 71.57 % 1,017.69 mbar 4.13 m/s 53.32 Deg 16.39 µg/m3 2.89 µg/m3
2023-05-06 12:00 24.44 µg/m3 -0.06 µg/m3 86.06 µg/m3 15.77 µg/m3 7.94 µg/m3 0.32 mg/m3 20.39 °C 65.09 % 1,017.70 mbar 3.95 m/s 110.12 Deg 21.07 µg/m3 2.05 µg/m3
2023-05-06 11:00 23.02 µg/m3 -0.18 µg/m3 81.49 µg/m3 14.05 µg/m3 5.02 µg/m3 0.22 mg/m3 23.03 °C 40.51 % 1,017.69 mbar 1.6 m/s 233.87 Deg 11.74 µg/m3 1.68 µg/m3
2023-05-06 10:00 20.95 µg/m3 -0.22 µg/m3 79.9 µg/m3 15.16 µg/m3 5.91 µg/m3 0.22 mg/m3 22.15 °C 48.26 % 1,017.75 mbar 1.9 m/s 260.08 Deg 5.31 µg/m3 2.1 µg/m3
2023-05-06 09:00 25.37 µg/m3 -0.16 µg/m3 76.03 µg/m3 15.61 µg/m3 6.55 µg/m3 0.25 mg/m3 21.23 °C 54.07 % 1,017.66 mbar 1.48 m/s 249.52 Deg 6.82 µg/m3 2.2 µg/m3
2023-05-06 08:00 43.13 µg/m3 0.04 µg/m3 54.45 µg/m3 25.65 µg/m3 10.31 µg/m3 0.33 mg/m3 20.05 °C 58.5 % 1,017.56 mbar 1.01 m/s 159.8 Deg 21.06 µg/m3 4.2 µg/m3
2023-05-06 07:00 61.22 µg/m3 0.23 µg/m3 32.31 µg/m3 31.95 µg/m3 15.88 µg/m3 0.42 mg/m3 18.63 °C 67.93 % 1,017.32 mbar 0.62 m/s 204.93 Deg 30.94 µg/m3 4.2 µg/m3
2023-05-06 06:00 69.14 µg/m3 0.23 µg/m3 21.46 µg/m3 24.5 µg/m3 16.88 µg/m3 0.46 mg/m3 17.32 °C 74.66 % 1,016.97 mbar 0.41 m/s 237.73 Deg 29.61 µg/m3 3.04 µg/m3
2023-05-06 05:00 29.19 µg/m3 -0.09 µg/m3 52.28 µg/m3 15.69 µg/m3 11.84 µg/m3 0.2 mg/m3 16.79 °C 77.2 % 1,016.70 mbar 0.61 m/s 175.68 Deg 8.76 µg/m3 1.57 µg/m3
2023-05-06 04:00 10.67 µg/m3 -0.27 µg/m3 73.85 µg/m3 11.21 µg/m3 8.98 µg/m3 0.15 mg/m3 16.84 °C 75.09 % 1,016.84 mbar 1.03 m/s 221.25 Deg -0.02 µg/m3 1.21 µg/m3
2023-05-06 03:00 12.68 µg/m3 -0.24 µg/m3 70.91 µg/m3 11.81 µg/m3 9.26 µg/m3 0.18 mg/m3 17.04 °C 76.18 % 1,017.22 mbar 0.6 m/s 222.43 Deg -0.04 µg/m3 1.42 µg/m3
2023-05-06 02:00 12.45 µg/m3 -0.25 µg/m3 77.59 µg/m3 13.31 µg/m3 11.14 µg/m3 0.19 mg/m3 17.29 °C 78.92 % 1,017.53 mbar 0.87 m/s 222.1 Deg 0.03 µg/m3 1.21 µg/m3
2023-05-06 01:00 15.41 µg/m3 -0.26 µg/m3 80.11 µg/m3 12.98 µg/m3 10.5 µg/m3 0.22 mg/m3 17.5 °C 79.06 % 1,018.06 mbar 0.71 m/s 219.02 Deg 0.41 µg/m3 1.52 µg/m3
2023-05-06 00:00 19.28 µg/m3 -0.19 µg/m3 79.73 µg/m3 14.21 µg/m3 11.29 µg/m3 0.26 mg/m3 17.72 °C 80.16 % 1,018.69 mbar 0.87 m/s 236.9 Deg 0.78 µg/m3 1.84 µg/m3
2023-05-05 23:00 24.41 µg/m3 -0.18 µg/m3 77.07 µg/m3 15.19 µg/m3 12.02 µg/m3 0.26 mg/m3 17.96 °C 77.64 % 1,018.92 mbar 1.38 m/s 240.75 Deg 1.29 µg/m3 1.68 µg/m3
2023-05-05 22:00 18.35 µg/m3 -0.2 µg/m3 86.75 µg/m3 13.16 µg/m3 10.37 µg/m3 0.24 mg/m3 18.3 °C 74.58 % 1,019.17 mbar 1.58 m/s 236.52 Deg 0.94 µg/m3 2.05 µg/m3
2023-05-05 21:00 24.21 µg/m3 -0.16 µg/m3 78.55 µg/m3 14.27 µg/m3 10.38 µg/m3 0.27 mg/m3 18.75 °C 70.83 % 1,018.97 mbar 1.4 m/s 234.58 Deg 1.62 µg/m3 2.31 µg/m3
2023-05-05 20:00 34.07 µg/m3 -0.14 µg/m3 72.32 µg/m3 17.96 µg/m3 11.51 µg/m3 0.29 mg/m3 19.19 °C 64.06 % 1,018.55 mbar 1.48 m/s 251.3 Deg 2.5 µg/m3 2.26 µg/m3
2023-05-05 19:00 29.53 µg/m3 -0.13 µg/m3 76.27 µg/m3 14.85 µg/m3 9.43 µg/m3 0.26 mg/m3 19.81 °C 62.93 % 1,018.30 mbar 2.09 m/s 249.03 Deg 3.62 µg/m3 2.26 µg/m3
2023-05-05 18:00 31.15 µg/m3 -0.04 µg/m3 82.61 µg/m3 16.31 µg/m3 8.35 µg/m3 0.28 mg/m3 20.48 °C 58.83 % 1,018.06 mbar 2.25 m/s 140.87 Deg 12.85 µg/m3 2.52 µg/m3
2023-05-05 17:00 39.48 µg/m3 0.1 µg/m3 86.14 µg/m3 18.08 µg/m3 9.02 µg/m3 0.37 mg/m3 20.18 °C 61.53 % 1,018.09 mbar 2.71 m/s 53.48 Deg 28.99 µg/m3 3.99 µg/m3
2023-05-05 16:00 32.65 µg/m3 0.05 µg/m3 91.01 µg/m3 12.92 µg/m3 7.72 µg/m3 0.35 mg/m3 19.75 °C 60.51 % 1,018.31 mbar 3.61 m/s 60.72 Deg 28.16 µg/m3 2.83 µg/m3
2023-05-05 15:00 36.52 µg/m3 0.08 µg/m3 83.45 µg/m3 19.05 µg/m3 9.8 µg/m3 0.35 mg/m3 20.52 °C 56.81 % 1,018.59 mbar 2.84 m/s 55.27 Deg 30.17 µg/m3 2.94 µg/m3
2023-05-05 14:00 37.46 µg/m3 0.15 µg/m3 83.83 µg/m3 17.02 µg/m3 10.1 µg/m3 0.34 mg/m3 19.97 °C 58.51 % 1,019.28 mbar 3 m/s 61.48 Deg 35.59 µg/m3 2.57 µg/m3
2023-05-05 13:00 27.27 µg/m3 0.07 µg/m3 85.32 µg/m3 17.48 µg/m3 9.1 µg/m3 0.31 mg/m3 19.93 °C 58.13 % 1,019.67 mbar 2.75 m/s 50.57 Deg 28.64 µg/m3 2.52 µg/m3
2023-05-05 12:00 32.1 µg/m3 0.1 µg/m3 81.58 µg/m3 16.18 µg/m3 7.99 µg/m3 0.32 mg/m3 19.59 °C 60.71 % 1,019.68 mbar 2.8 m/s 50.35 Deg 28.43 µg/m3 1.99 µg/m3
2023-05-05 11:00 29.07 µg/m3 0.1 µg/m3 74.99 µg/m3 19.45 µg/m3 9.93 µg/m3 0.32 mg/m3 19.15 °C 70.75 % 1,019.77 mbar 2.67 m/s 46.43 Deg 30.11 µg/m3 2.31 µg/m3
2023-05-05 10:00 33.87 µg/m3 0.1 µg/m3 74.76 µg/m3 22.21 µg/m3 9.68 µg/m3 0.32 mg/m3 19.22 °C 71.94 % 1,019.66 mbar 1.93 m/s 33.55 Deg 23.27 µg/m3 2.36 µg/m3
2023-05-05 09:00 33.19 µg/m3 0.12 µg/m3 71.73 µg/m3 22.85 µg/m3 9.94 µg/m3 0.35 mg/m3 18.89 °C 73.71 % 1,019.22 mbar 1.75 m/s 41.47 Deg 25.95 µg/m3 2.73 µg/m3
2023-05-05 08:00 42.03 µg/m3 0.19 µg/m3 61.95 µg/m3 23.36 µg/m3 12.24 µg/m3 0.38 mg/m3 18.05 °C 81.22 % 1,018.61 mbar 1.78 m/s 47.2 Deg 31.26 µg/m3 3.88 µg/m3
2023-05-05 07:00 43.13 µg/m3 0.31 µg/m3 52.92 µg/m3 24.35 µg/m3 16.35 µg/m3 0.47 mg/m3 17.65 °C 82.65 % 1,018.01 mbar 1.74 m/s 43.7 Deg 29.52 µg/m3 6.72 µg/m3
2023-05-05 06:00 65.83 µg/m3 0.56 µg/m3 8.51 µg/m3 29.32 µg/m3 19.7 µg/m3 0.67 mg/m3 17.14 °C 83.51 % 1,017.87 mbar 0.33 m/s 88.91 Deg 52.31 µg/m3 3.94 µg/m3
2023-05-05 05:00 46.82 µg/m3 0.1 µg/m3 14.76 µg/m3 18.99 µg/m3 13.67 µg/m3 0.32 mg/m3 16.7 °C 85.02 % 1,017.65 mbar 0.5 m/s 45.62 Deg 19.44 µg/m3 4.15 µg/m3
2023-05-05 04:00 22.35 µg/m3 -0.22 µg/m3 55.66 µg/m3 17.61 µg/m3 12.6 µg/m3 0.23 mg/m3 17.07 °C 82.89 % 1,017.83 mbar 0.23 m/s 112.84 Deg 4.11 µg/m3 1 µg/m3
2023-05-05 03:00 8.46 µg/m3 -0.28 µg/m3 69.09 µg/m3 13.67 µg/m3 10.49 µg/m3 0.19 mg/m3 17.2 °C 83.16 % 1,018.12 mbar 0.8 m/s 231.63 Deg -0.11 µg/m3 0.94 µg/m3
2023-05-05 02:00 6.32 µg/m3 -0.3 µg/m3 78.68 µg/m3 12.37 µg/m3 9.66 µg/m3 0.19 mg/m3 17.43 °C 82.92 % 1,018.39 mbar 1.11 m/s 225.48 Deg -0.07 µg/m3 1 µg/m3
2023-05-05 01:00 8.96 µg/m3 -0.3 µg/m3 78 µg/m3 13.18 µg/m3 10.33 µg/m3 0.2 mg/m3 17.41 °C 82.09 % 1,018.79 mbar 1.1 m/s 225.47 Deg -0 µg/m3 1 µg/m3
2023-05-05 00:00 7.72 µg/m3 -0.26 µg/m3 86.05 µg/m3 14.45 µg/m3 11.77 µg/m3 0.2 mg/m3 17.35 °C 82.91 % 1,019.17 mbar 1.36 m/s 221.82 Deg -0.17 µg/m3 1.31 µg/m3
2023-05-04 23:00 10.24 µg/m3 -0.25 µg/m3 88.32 µg/m3 14.59 µg/m3 11.74 µg/m3 0.22 mg/m3 17.44 °C 83.17 % 1,019.20 mbar 1.55 m/s 222.28 Deg 0.04 µg/m3 1.47 µg/m3
2023-05-04 22:00 13.23 µg/m3 -0.24 µg/m3 84.84 µg/m3 14.12 µg/m3 11.2 µg/m3 0.22 mg/m3 17.63 °C 79.94 % 1,018.94 mbar 1.75 m/s 222.13 Deg 0.19 µg/m3 1.47 µg/m3
2023-05-04 21:00 12.77 µg/m3 -0.22 µg/m3 82.5 µg/m3 10.88 µg/m3 8.68 µg/m3 0.2 mg/m3 17.64 °C 77.45 % 1,018.55 mbar 2.28 m/s 224.33 Deg 0.49 µg/m3 1.73 µg/m3
2023-05-04 20:00 22.53 µg/m3 -0.19 µg/m3 74.77 µg/m3 17.69 µg/m3 13.09 µg/m3 0.26 mg/m3 18.29 °C 73.5 % 1,017.95 mbar 1.75 m/s 234.47 Deg 2.23 µg/m3 3.1 µg/m3
2023-05-04 19:00 32.23 µg/m3 0.12 µg/m3 72.88 µg/m3 19.09 µg/m3 9.6 µg/m3 0.41 mg/m3 18.76 °C 66.5 % 1,017.54 mbar 1.49 m/s 162.53 Deg 23.22 µg/m3 2.83 µg/m3
2023-05-04 18:00 31.56 µg/m3 0.12 µg/m3 76.54 µg/m3 17.98 µg/m3 8.92 µg/m3 0.39 mg/m3 18.7 °C 66.92 % 1,017.27 mbar 2.43 m/s 55.82 Deg 30.83 µg/m3 3.62 µg/m3
2023-05-04 17:00 47.67 µg/m3 0.19 µg/m3 65.06 µg/m3 19.45 µg/m3 8.54 µg/m3 0.44 mg/m3 19.15 °C 62 % 1,017.25 mbar 1.93 m/s 54.37 Deg 38.01 µg/m3 3.46 µg/m3
2023-05-04 16:00 28.11 µg/m3 0.19 µg/m3 77.35 µg/m3 12.97 µg/m3 6.59 µg/m3 0.38 mg/m3 19.15 °C 57.99 % 1,017.55 mbar 2.53 m/s 54.97 Deg 31.81 µg/m3 3.04 µg/m3

It is to be noted that the data is provisional and subject to quality assurance procedures. For validated data kindly refer your request to contact.air@era.org.mt